<?xml version='1.0' encoding='UTF-8'?><gpx version="1.1" creator="JPX - https://github.com/jenetics/jpx" xmlns="http://www.topografix.com/GPX/1/1"><trk><trkseg><trkpt lat="45.6344444" lon="11.4154184"><ele>153.0</ele><time>2026-04-12T07:18:20.9Z</time></trkpt><trkpt lat="45.634359" lon="11.4154772"><ele>153.0</ele><time>2026-04-12T07:18:30.408Z</time></trkpt><trkpt lat="45.6342881" lon="11.4154457"><ele>153.0</ele><time>2026-04-12T07:18:42.409Z</time></trkpt><trkpt lat="45.6342602" lon="11.4155364"><ele>153.0</ele><time>2026-04-12T07:18:44.408Z</time></trkpt><trkpt lat="45.634204" lon="11.4156114"><ele>153.0</ele><time>2026-04-12T07:18:47.317Z</time></trkpt><trkpt lat="45.6341373" lon="11.4156744"><ele>153.0</ele><time>2026-04-12T07:18:50.357Z</time></trkpt><trkpt lat="45.6339896" lon="11.4158717"><ele>153.0</ele><time>2026-04-12T07:18:51.409Z</time></trkpt><trkpt lat="45.6339003" lon="11.4159807"><ele>153.0</ele><time>2026-04-12T07:18:52.408Z</time></trkpt><trkpt lat="45.6338274" lon="11.4160606"><ele>153.0</ele><time>2026-04-12T07:18:53.409Z</time></trkpt><trkpt lat="45.6337513" lon="11.4161318"><ele>153.0</ele><time>2026-04-12T07:18:54.408Z</time></trkpt><trkpt lat="45.6336869" lon="11.41619"><ele>153.0</ele><time>2026-04-12T07:18:55.407Z</time></trkpt><trkpt lat="45.6336229" lon="11.4162106"><ele>153.0</ele><time>2026-04-12T07:18:56.408Z</time></trkpt><trkpt lat="45.6335715" lon="11.416149"><ele>151.83333333333334</ele><time>2026-04-12T07:18:59.409Z</time></trkpt><trkpt lat="45.6334976" lon="11.4160661"><ele>150.66666666666666</ele><time>2026-04-12T07:19:05.408Z</time></trkpt><trkpt lat="45.6334076" lon="11.416028"><ele>149.5</ele><time>2026-04-12T07:19:08.407Z</time></trkpt><trkpt lat="45.6333435" lon="11.4160035"><ele>148.33333333333331</ele><time>2026-04-12T07:19:10.408Z</time></trkpt><trkpt lat="45.6332808" lon="11.4159714"><ele>147.16666666666666</ele><time>2026-04-12T07:19:12.408Z</time></trkpt><trkpt lat="45.6332184" lon="11.4159273"><ele>146.0</ele><time>2026-04-12T07:19:14.446Z</time></trkpt><trkpt lat="45.63315" lon="11.4159111"><ele>146.0</ele><time>2026-04-12T07:19:16.408Z</time></trkpt><trkpt lat="45.633085" lon="11.4159132"><ele>146.0</ele><time>2026-04-12T07:19:18.409Z</time></trkpt><trkpt lat="45.6330034" lon="11.4158559"><ele>146.0</ele><time>2026-04-12T07:19:20.408Z</time></trkpt><trkpt lat="45.6329482" lon="11.4157778"><ele>146.0</ele><time>2026-04-12T07:19:22.408Z</time></trkpt><trkpt lat="45.6328959" lon="11.4157273"><ele>146.0</ele><time>2026-04-12T07:19:24.409Z</time></trkpt><trkpt lat="45.6328206" lon="11.4156189"><ele>146.0</ele><time>2026-04-12T07:19:27.409Z</time></trkpt><trkpt lat="45.6327658" lon="11.4155392"><ele>145.0</ele><time>2026-04-12T07:19:29.409Z</time></trkpt><trkpt lat="45.6327124" lon="11.4154659"><ele>144.0</ele><time>2026-04-12T07:19:31.246Z</time></trkpt><trkpt lat="45.6325562" lon="11.4152493"><ele>143.0</ele><time>2026-04-12T07:19:36.407Z</time></trkpt><trkpt lat="45.632419" lon="11.4150451"><ele>143.0</ele><time>2026-04-12T07:19:37.408Z</time></trkpt><trkpt lat="45.632313" lon="11.4148402"><ele>143.0</ele><time>2026-04-12T07:19:39.409Z</time></trkpt><trkpt lat="45.6322619" lon="11.4146995"><ele>143.0</ele><time>2026-04-12T07:19:41.409Z</time></trkpt><trkpt lat="45.6321918" lon="11.414666"><ele>143.0</ele><time>2026-04-12T07:19:42.409Z</time></trkpt><trkpt lat="45.6321105" lon="11.4145601"><ele>145.5</ele><time>2026-04-12T07:19:44.409Z</time></trkpt><trkpt lat="45.6320638" lon="11.4144989"><ele>148.0</ele><time>2026-04-12T07:19:45.409Z</time></trkpt><trkpt lat="45.6320526" lon="11.4143961"><ele>150.5</ele><time>2026-04-12T07:19:48.408Z</time></trkpt><trkpt lat="45.6319393" lon="11.414352"><ele>153.0</ele><time>2026-04-12T07:19:51.409Z</time></trkpt><trkpt lat="45.6318756" lon="11.4142576"><ele>155.5</ele><time>2026-04-12T07:19:54.409Z</time></trkpt><trkpt lat="45.6317893" lon="11.4141848"><ele>158.0</ele><time>2026-04-12T07:19:56.409Z</time></trkpt><trkpt lat="45.6317098" lon="11.4141866"><ele>150.0</ele><time>2026-04-12T07:19:58.409Z</time></trkpt><trkpt lat="45.6316604" lon="11.4142874"><ele>142.0</ele><time>2026-04-12T07:20:00.409Z</time></trkpt><trkpt lat="45.6316076" lon="11.4143613"><ele>134.0</ele><time>2026-04-12T07:20:01.407Z</time></trkpt><trkpt lat="45.6315136" lon="11.4144204"><ele>126.0</ele><time>2026-04-12T07:20:02.408Z</time></trkpt><trkpt lat="45.6312925" lon="11.4145281"><ele>126.0</ele><time>2026-04-12T07:20:03.409Z</time></trkpt><trkpt lat="45.6311648" lon="11.4146123"><ele>126.0</ele><time>2026-04-12T07:20:04.409Z</time></trkpt><trkpt lat="45.6311452" lon="11.4147033"><ele>126.0</ele><time>2026-04-12T07:20:05.408Z</time></trkpt><trkpt lat="45.6312923" lon="11.4148268"><ele>126.0</ele><time>2026-04-12T07:20:06.409Z</time></trkpt><trkpt lat="45.6313312" lon="11.4149445"><ele>123.19999999999999</ele><time>2026-04-12T07:20:07.408Z</time></trkpt><trkpt lat="45.6313491" lon="11.4150665"><ele>120.39999999999999</ele><time>2026-04-12T07:20:08.409Z</time></trkpt><trkpt lat="45.6313647" lon="11.4151823"><ele>117.6</ele><time>2026-04-12T07:20:09.409Z</time></trkpt><trkpt lat="45.6313588" lon="11.4153077"><ele>114.8</ele><time>2026-04-12T07:20:10.409Z</time></trkpt><trkpt lat="45.6313041" lon="11.4154632"><ele>112.0</ele><time>2026-04-12T07:20:11.407Z</time></trkpt><trkpt lat="45.631223" lon="11.4155893"><ele>109.6</ele><time>2026-04-12T07:20:12.408Z</time></trkpt><trkpt lat="45.6311771" lon="11.4157319"><ele>107.19999999999999</ele><time>2026-04-12T07:20:13.408Z</time></trkpt><trkpt lat="45.6311335" lon="11.4158526"><ele>104.8</ele><time>2026-04-12T07:20:14.408Z</time></trkpt><trkpt lat="45.6310827" lon="11.4159525"><ele>102.4</ele><time>2026-04-12T07:20:15.408Z</time></trkpt><trkpt lat="45.6309856" lon="11.4160405"><ele>100.0</ele><time>2026-04-12T07:20:16.408Z</time></trkpt><trkpt lat="45.6309082" lon="11.4161085"><ele>98.50000000000001</ele><time>2026-04-12T07:20:17.408Z</time></trkpt><trkpt lat="45.6308388" lon="11.4161876"><ele>97.0</ele><time>2026-04-12T07:20:18.408Z</time></trkpt><trkpt lat="45.6307494" lon="11.4162581"><ele>95.5</ele><time>2026-04-12T07:20:19.409Z</time></trkpt><trkpt lat="45.6306913" lon="11.4163196"><ele>94.0</ele><time>2026-04-12T07:20:21.408Z</time></trkpt><trkpt lat="45.63061" lon="11.4162993"><ele>92.5</ele><time>2026-04-12T07:20:23.409Z</time></trkpt><trkpt lat="45.6305929" lon="11.4161908"><ele>91.0</ele><time>2026-04-12T07:20:25.408Z</time></trkpt><trkpt lat="45.6305148" lon="11.4160317"><ele>91.0</ele><time>2026-04-12T07:20:27.409Z</time></trkpt><trkpt lat="45.6304529" lon="11.4158958"><ele>91.0</ele><time>2026-04-12T07:20:29.408Z</time></trkpt><trkpt lat="45.6303896" lon="11.415746"><ele>91.0</ele><time>2026-04-12T07:20:31.408Z</time></trkpt><trkpt lat="45.6303384" lon="11.4156071"><ele>91.0</ele><time>2026-04-12T07:20:33.407Z</time></trkpt><trkpt lat="45.6302628" lon="11.415476"><ele>90.66666666666666</ele><time>2026-04-12T07:20:35.408Z</time></trkpt><trkpt lat="45.6302121" lon="11.4153357"><ele>90.33333333333333</ele><time>2026-04-12T07:20:37.408Z</time></trkpt><trkpt lat="45.6301577" lon="11.4152029"><ele>90.0</ele><time>2026-04-12T07:20:39.408Z</time></trkpt><trkpt lat="45.6301158" lon="11.4151008"><ele>89.66666666666667</ele><time>2026-04-12T07:20:41.409Z</time></trkpt><trkpt lat="45.6300813" lon="11.4150062"><ele>89.33333333333334</ele><time>2026-04-12T07:20:43.409Z</time></trkpt><trkpt lat="45.6300498" lon="11.4149158"><ele>89.0</ele><time>2026-04-12T07:20:45.409Z</time></trkpt><trkpt lat="45.6300177" lon="11.4148184"><ele>89.0</ele><time>2026-04-12T07:20:47.409Z</time></trkpt><trkpt lat="45.6299721" lon="11.4146997"><ele>89.0</ele><time>2026-04-12T07:20:49.408Z</time></trkpt><trkpt lat="45.6299023" lon="11.4145518"><ele>89.0</ele><time>2026-04-12T07:20:51.409Z</time></trkpt><trkpt lat="45.6298665" lon="11.4144734"><ele>89.0</ele><time>2026-04-12T07:20:52.408Z</time></trkpt><trkpt lat="45.6298029" lon="11.4143294"><ele>89.0</ele><time>2026-04-12T07:20:54.409Z</time></trkpt><trkpt lat="45.6297672" lon="11.4142523"><ele>88.66666666666667</ele><time>2026-04-12T07:20:55.409Z</time></trkpt><trkpt lat="45.6297272" lon="11.4141721"><ele>88.33333333333334</ele><time>2026-04-12T07:20:56.409Z</time></trkpt><trkpt lat="45.6296878" lon="11.4140944"><ele>88.0</ele><time>2026-04-12T07:20:57.407Z</time></trkpt><trkpt lat="45.6296458" lon="11.4140184"><ele>87.66666666666667</ele><time>2026-04-12T07:20:58.409Z</time></trkpt><trkpt lat="45.629605" lon="11.413947"><ele>87.33333333333333</ele><time>2026-04-12T07:20:59.408Z</time></trkpt><trkpt lat="45.6295331" lon="11.4138395"><ele>87.0</ele><time>2026-04-12T07:21:00.408Z</time></trkpt><trkpt lat="45.6294724" lon="11.4137545"><ele>87.0</ele><time>2026-04-12T07:21:01.408Z</time></trkpt><trkpt lat="45.6294012" lon="11.4136451"><ele>87.0</ele><time>2026-04-12T07:21:03.408Z</time></trkpt><trkpt lat="45.6293327" lon="11.4135366"><ele>87.0</ele><time>2026-04-12T07:21:05.409Z</time></trkpt><trkpt lat="45.6292734" lon="11.4134177"><ele>87.0</ele><time>2026-04-12T07:21:07.409Z</time></trkpt><trkpt lat="45.6292028" lon="11.4133099"><ele>87.0</ele><time>2026-04-12T07:21:09.409Z</time></trkpt><trkpt lat="45.6291424" lon="11.4131878"><ele>87.0</ele><time>2026-04-12T07:21:11.409Z</time></trkpt><trkpt lat="45.6290725" lon="11.4130876"><ele>87.0</ele><time>2026-04-12T07:21:13.408Z</time></trkpt><trkpt lat="45.6290284" lon="11.4129784"><ele>87.0</ele><time>2026-04-12T07:21:15.409Z</time></trkpt><trkpt lat="45.6289468" lon="11.4128589"><ele>87.0</ele><time>2026-04-12T07:21:17.409Z</time></trkpt><trkpt lat="45.6288736" lon="11.4127437"><ele>87.0</ele><time>2026-04-12T07:21:19.408Z</time></trkpt><trkpt lat="45.628817" lon="11.4126351"><ele>86.6</ele><time>2026-04-12T07:21:21.408Z</time></trkpt><trkpt lat="45.6287619" lon="11.4125175"><ele>86.19999999999999</ele><time>2026-04-12T07:21:23.409Z</time></trkpt><trkpt lat="45.6287235" lon="11.412395"><ele>85.8</ele><time>2026-04-12T07:21:25.409Z</time></trkpt><trkpt lat="45.6286629" lon="11.4122676"><ele>85.4</ele><time>2026-04-12T07:21:27.409Z</time></trkpt><trkpt lat="45.6286262" lon="11.4121531"><ele>85.0</ele><time>2026-04-12T07:21:29.409Z</time></trkpt><trkpt lat="45.628606" lon="11.4120306"><ele>85.0</ele><time>2026-04-12T07:21:31.408Z</time></trkpt><trkpt lat="45.628561" lon="11.4118938"><ele>85.0</ele><time>2026-04-12T07:21:33.409Z</time></trkpt><trkpt lat="45.6285032" lon="11.4117519"><ele>85.0</ele><time>2026-04-12T07:21:35.409Z</time></trkpt><trkpt lat="45.6284829" lon="11.4116095"><ele>85.0</ele><time>2026-04-12T07:21:37.408Z</time></trkpt><trkpt lat="45.6284553" lon="11.4114684"><ele>85.0</ele><time>2026-04-12T07:21:39.408Z</time></trkpt><trkpt lat="45.6284166" lon="11.4113315"><ele>85.2</ele><time>2026-04-12T07:21:41.408Z</time></trkpt><trkpt lat="45.6283792" lon="11.4111845"><ele>85.4</ele><time>2026-04-12T07:21:43.409Z</time></trkpt><trkpt lat="45.6283584" lon="11.4110433"><ele>85.6</ele><time>2026-04-12T07:21:45.409Z</time></trkpt><trkpt lat="45.6283158" lon="11.4108872"><ele>85.8</ele><time>2026-04-12T07:21:47.408Z</time></trkpt><trkpt lat="45.628279" lon="11.4107472"><ele>86.0</ele><time>2026-04-12T07:21:49.409Z</time></trkpt><trkpt lat="45.6282454" lon="11.4106117"><ele>86.4</ele><time>2026-04-12T07:21:51.408Z</time></trkpt><trkpt lat="45.628214" lon="11.4104833"><ele>86.8</ele><time>2026-04-12T07:21:53.409Z</time></trkpt><trkpt lat="45.62822" lon="11.4103444"><ele>87.2</ele><time>2026-04-12T07:21:55.408Z</time></trkpt><trkpt lat="45.6282195" lon="11.4102163"><ele>87.60000000000001</ele><time>2026-04-12T07:21:57.408Z</time></trkpt><trkpt lat="45.6282021" lon="11.4100931"><ele>88.0</ele><time>2026-04-12T07:21:59.408Z</time></trkpt><trkpt lat="45.6282259" lon="11.409954"><ele>88.0</ele><time>2026-04-12T07:22:01.409Z</time></trkpt><trkpt lat="45.6282413" lon="11.40984"><ele>88.0</ele><time>2026-04-12T07:22:03.408Z</time></trkpt><trkpt lat="45.6282758" lon="11.4097169"><ele>88.0</ele><time>2026-04-12T07:22:05.409Z</time></trkpt><trkpt lat="45.6283105" lon="11.4095927"><ele>88.0</ele><time>2026-04-12T07:22:07.408Z</time></trkpt><trkpt lat="45.6283446" lon="11.4094989"><ele>88.0</ele><time>2026-04-12T07:22:09.408Z</time></trkpt><trkpt lat="45.6283791" lon="11.4093463"><ele>88.2</ele><time>2026-04-12T07:22:11.408Z</time></trkpt><trkpt lat="45.6283944" lon="11.4092126"><ele>88.4</ele><time>2026-04-12T07:22:13.408Z</time></trkpt><trkpt lat="45.6284124" lon="11.4090632"><ele>88.60000000000001</ele><time>2026-04-12T07:22:15.409Z</time></trkpt><trkpt lat="45.6284129" lon="11.4089329"><ele>88.80000000000001</ele><time>2026-04-12T07:22:17.408Z</time></trkpt><trkpt lat="45.6283979" lon="11.4087774"><ele>89.0</ele><time>2026-04-12T07:22:19.408Z</time></trkpt><trkpt lat="45.6283969" lon="11.4086502"><ele>89.0</ele><time>2026-04-12T07:22:21.409Z</time></trkpt><trkpt lat="45.6283826" lon="11.4085238"><ele>89.0</ele><time>2026-04-12T07:22:23.408Z</time></trkpt><trkpt lat="45.6283496" lon="11.4084056"><ele>89.0</ele><time>2026-04-12T07:22:25.408Z</time></trkpt><trkpt lat="45.6283212" lon="11.4082873"><ele>89.0</ele><time>2026-04-12T07:22:29.409Z</time></trkpt><trkpt lat="45.6282974" lon="11.4081454"><ele>89.0</ele><time>2026-04-12T07:22:31.409Z</time></trkpt><trkpt lat="45.6282747" lon="11.4080594"><ele>89.0</ele><time>2026-04-12T07:22:32.409Z</time></trkpt><trkpt lat="45.62826" lon="11.4079151"><ele>89.14285714285714</ele><time>2026-04-12T07:22:34.408Z</time></trkpt><trkpt lat="45.6282425" lon="11.4078081"><ele>89.28571428571428</ele><time>2026-04-12T07:22:36.409Z</time></trkpt><trkpt lat="45.6282173" lon="11.4077037"><ele>89.42857142857142</ele><time>2026-04-12T07:22:38.408Z</time></trkpt><trkpt lat="45.628205" lon="11.4076088"><ele>89.57142857142857</ele><time>2026-04-12T07:22:41.408Z</time></trkpt><trkpt lat="45.6281859" lon="11.407512"><ele>89.71428571428572</ele><time>2026-04-12T07:22:43.409Z</time></trkpt><trkpt lat="45.6281539" lon="11.407402"><ele>89.85714285714285</ele><time>2026-04-12T07:22:46.409Z</time></trkpt><trkpt lat="45.6281313" lon="11.4073058"><ele>90.0</ele><time>2026-04-12T07:22:49.409Z</time></trkpt><trkpt lat="45.6281195" lon="11.4072052"><ele>90.33333333333333</ele><time>2026-04-12T07:22:52.408Z</time></trkpt><trkpt lat="45.6281067" lon="11.4070926"><ele>90.66666666666667</ele><time>2026-04-12T07:22:55.409Z</time></trkpt><trkpt lat="45.6280866" lon="11.4069811"><ele>91.0</ele><time>2026-04-12T07:22:58.409Z</time></trkpt><trkpt lat="45.6280752" lon="11.406874"><ele>91.33333333333334</ele><time>2026-04-12T07:23:01.409Z</time></trkpt><trkpt lat="45.628083" lon="11.4067639"><ele>91.66666666666667</ele><time>2026-04-12T07:23:04.409Z</time></trkpt><trkpt lat="45.628091" lon="11.4066664"><ele>92.0</ele><time>2026-04-12T07:23:07.409Z</time></trkpt><trkpt lat="45.6280949" lon="11.4065649"><ele>92.0</ele><time>2026-04-12T07:23:10.408Z</time></trkpt><trkpt lat="45.6280676" lon="11.406446"><ele>92.0</ele><time>2026-04-12T07:23:13.409Z</time></trkpt><trkpt lat="45.6280081" lon="11.4063509"><ele>92.0</ele><time>2026-04-12T07:23:15.408Z</time></trkpt><trkpt lat="45.6279392" lon="11.4062362"><ele>92.0</ele><time>2026-04-12T07:23:17.409Z</time></trkpt><trkpt lat="45.6278632" lon="11.4061175"><ele>92.0</ele><time>2026-04-12T07:23:19.408Z</time></trkpt><trkpt lat="45.6277882" lon="11.4060003"><ele>91.39999999999999</ele><time>2026-04-12T07:23:21.408Z</time></trkpt><trkpt lat="45.6276533" lon="11.4058542"><ele>90.8</ele><time>2026-04-12T07:23:24.408Z</time></trkpt><trkpt lat="45.6275764" lon="11.4057664"><ele>90.2</ele><time>2026-04-12T07:23:26.409Z</time></trkpt><trkpt lat="45.6275238" lon="11.405699"><ele>89.6</ele><time>2026-04-12T07:23:29.407Z</time></trkpt><trkpt lat="45.6274498" lon="11.4056446"><ele>89.0</ele><time>2026-04-12T07:23:31.408Z</time></trkpt><trkpt lat="45.6273681" lon="11.4055576"><ele>89.33333333333334</ele><time>2026-04-12T07:23:34.408Z</time></trkpt><trkpt lat="45.6273178" lon="11.4054797"><ele>89.66666666666667</ele><time>2026-04-12T07:23:37.409Z</time></trkpt><trkpt lat="45.6272526" lon="11.4054092"><ele>90.0</ele><time>2026-04-12T07:23:40.408Z</time></trkpt><trkpt lat="45.6271938" lon="11.4053487"><ele>90.33333333333333</ele><time>2026-04-12T07:23:42.408Z</time></trkpt><trkpt lat="45.6271396" lon="11.4052959"><ele>90.66666666666666</ele><time>2026-04-12T07:23:44.408Z</time></trkpt><trkpt lat="45.6270668" lon="11.4052281"><ele>91.0</ele><time>2026-04-12T07:23:47.408Z</time></trkpt><trkpt lat="45.6269983" lon="11.4051528"><ele>91.83333333333333</ele><time>2026-04-12T07:23:50.409Z</time></trkpt><trkpt lat="45.626937" lon="11.4050671"><ele>92.66666666666666</ele><time>2026-04-12T07:23:53.409Z</time></trkpt><trkpt lat="45.6268841" lon="11.4049789"><ele>93.5</ele><time>2026-04-12T07:23:56.409Z</time></trkpt><trkpt lat="45.6268343" lon="11.4048991"><ele>94.33333333333333</ele><time>2026-04-12T07:23:59.409Z</time></trkpt><trkpt lat="45.6267707" lon="11.4048094"><ele>95.16666666666667</ele><time>2026-04-12T07:24:02.409Z</time></trkpt><trkpt lat="45.6267274" lon="11.4047408"><ele>96.0</ele><time>2026-04-12T07:24:04.409Z</time></trkpt><trkpt lat="45.6266833" lon="11.4046703"><ele>97.28571428571428</ele><time>2026-04-12T07:24:06.408Z</time></trkpt><trkpt lat="45.6266244" lon="11.404576"><ele>98.57142857142857</ele><time>2026-04-12T07:24:09.409Z</time></trkpt><trkpt lat="45.6265703" lon="11.4044893"><ele>99.85714285714286</ele><time>2026-04-12T07:24:12.409Z</time></trkpt><trkpt lat="45.6265212" lon="11.4044274"><ele>101.14285714285714</ele><time>2026-04-12T07:24:15.409Z</time></trkpt><trkpt lat="45.6264711" lon="11.4043468"><ele>102.42857142857143</ele><time>2026-04-12T07:24:19.409Z</time></trkpt><trkpt lat="45.6264321" lon="11.4042684"><ele>103.71428571428571</ele><time>2026-04-12T07:24:22.408Z</time></trkpt><trkpt lat="45.6264001" lon="11.4041844"><ele>105.0</ele><time>2026-04-12T07:24:25.408Z</time></trkpt><trkpt lat="45.6263834" lon="11.404092"><ele>105.0</ele><time>2026-04-12T07:24:29.408Z</time></trkpt><trkpt lat="45.6264062" lon="11.4039974"><ele>105.0</ele><time>2026-04-12T07:24:34.409Z</time></trkpt><trkpt lat="45.6264744" lon="11.4039613"><ele>105.0</ele><time>2026-04-12T07:24:41.409Z</time></trkpt><trkpt lat="45.6265336" lon="11.4038896"><ele>105.0</ele><time>2026-04-12T07:24:45.408Z</time></trkpt><trkpt lat="45.6265945" lon="11.4038305"><ele>105.0</ele><time>2026-04-12T07:24:49.409Z</time></trkpt><trkpt lat="45.6266433" lon="11.403754"><ele>105.0</ele><time>2026-04-12T07:24:52.407Z</time></trkpt><trkpt lat="45.6266853" lon="11.4036868"><ele>105.0</ele><time>2026-04-12T07:24:56.409Z</time></trkpt><trkpt lat="45.6267051" lon="11.4036007"><ele>105.5</ele><time>2026-04-12T07:24:58.409Z</time></trkpt><trkpt lat="45.6267136" lon="11.4034896"><ele>106.0</ele><time>2026-04-12T07:25:00.408Z</time></trkpt><trkpt lat="45.6267176" lon="11.4033738"><ele>106.5</ele><time>2026-04-12T07:25:03.408Z</time></trkpt><trkpt lat="45.6267227" lon="11.4032705"><ele>107.0</ele><time>2026-04-12T07:25:07.408Z</time></trkpt><trkpt lat="45.6267211" lon="11.4031657"><ele>107.5</ele><time>2026-04-12T07:25:10.408Z</time></trkpt><trkpt lat="45.6267099" lon="11.4030644"><ele>108.0</ele><time>2026-04-12T07:25:13.409Z</time></trkpt><trkpt lat="45.6267028" lon="11.4029491"><ele>108.66666666666667</ele><time>2026-04-12T07:25:16.409Z</time></trkpt><trkpt lat="45.6267061" lon="11.402826"><ele>109.33333333333334</ele><time>2026-04-12T07:25:19.409Z</time></trkpt><trkpt lat="45.6267062" lon="11.4027005"><ele>110.0</ele><time>2026-04-12T07:25:22.409Z</time></trkpt><trkpt lat="45.6267087" lon="11.4026027"><ele>110.66666666666667</ele><time>2026-04-12T07:25:26.409Z</time></trkpt><trkpt lat="45.6266974" lon="11.4025107"><ele>111.33333333333334</ele><time>2026-04-12T07:25:31.407Z</time></trkpt><trkpt lat="45.6266744" lon="11.4024096"><ele>112.0</ele><time>2026-04-12T07:25:37.408Z</time></trkpt><trkpt lat="45.6266963" lon="11.4023089"><ele>112.0</ele><time>2026-04-12T07:25:43.409Z</time></trkpt><trkpt lat="45.6267235" lon="11.4022224"><ele>112.0</ele><time>2026-04-12T07:25:48.409Z</time></trkpt><trkpt lat="45.6267306" lon="11.4021313"><ele>112.0</ele><time>2026-04-12T07:25:52.409Z</time></trkpt><trkpt lat="45.6267297" lon="11.4020328"><ele>112.0</ele><time>2026-04-12T07:25:55.409Z</time></trkpt><trkpt lat="45.6267085" lon="11.4019208"><ele>112.0</ele><time>2026-04-12T07:25:58.409Z</time></trkpt><trkpt lat="45.6266715" lon="11.4018442"><ele>112.0</ele><time>2026-04-12T07:26:01.409Z</time></trkpt><trkpt lat="45.6266072" lon="11.401812"><ele>112.0</ele><time>2026-04-12T07:26:08.409Z</time></trkpt><trkpt lat="45.6265342" lon="11.401857"><ele>112.71428571428572</ele><time>2026-04-12T07:26:14.409Z</time></trkpt><trkpt lat="45.6264718" lon="11.4019032"><ele>113.42857142857143</ele><time>2026-04-12T07:26:19.409Z</time></trkpt><trkpt lat="45.626405" lon="11.4019544"><ele>114.14285714285714</ele><time>2026-04-12T07:26:25.409Z</time></trkpt><trkpt lat="45.6263437" lon="11.4020058"><ele>114.85714285714286</ele><time>2026-04-12T07:26:31.409Z</time></trkpt><trkpt lat="45.6262822" lon="11.4020338"><ele>115.57142857142858</ele><time>2026-04-12T07:26:37.408Z</time></trkpt><trkpt lat="45.6262105" lon="11.4020444"><ele>116.28571428571429</ele><time>2026-04-12T07:26:44.408Z</time></trkpt><trkpt lat="45.6261413" lon="11.4020614"><ele>117.0</ele><time>2026-04-12T07:26:49.409Z</time></trkpt><trkpt lat="45.6260712" lon="11.4020549"><ele>119.42857142857143</ele><time>2026-04-12T07:26:55.409Z</time></trkpt><trkpt lat="45.6259947" lon="11.4020681"><ele>121.85714285714286</ele><time>2026-04-12T07:27:01.409Z</time></trkpt><trkpt lat="45.6259285" lon="11.402056"><ele>124.28571428571429</ele><time>2026-04-12T07:27:06.409Z</time></trkpt><trkpt lat="45.6258587" lon="11.4020422"><ele>126.71428571428572</ele><time>2026-04-12T07:27:13.408Z</time></trkpt><trkpt lat="45.6258348" lon="11.4019434"><ele>129.14285714285714</ele><time>2026-04-12T07:27:25.407Z</time></trkpt><trkpt lat="45.6258165" lon="11.4018561"><ele>131.57142857142858</ele><time>2026-04-12T07:27:32.409Z</time></trkpt><trkpt lat="45.6257953" lon="11.4017562"><ele>134.0</ele><time>2026-04-12T07:27:38.409Z</time></trkpt><trkpt lat="45.6258026" lon="11.4016587"><ele>134.0</ele><time>2026-04-12T07:27:46.408Z</time></trkpt><trkpt lat="45.6258277" lon="11.4015722"><ele>134.0</ele><time>2026-04-12T07:27:55.409Z</time></trkpt><trkpt lat="45.6258238" lon="11.4014604"><ele>134.0</ele><time>2026-04-12T07:28:01.409Z</time></trkpt><trkpt lat="45.6258278" lon="11.4013704"><ele>134.0</ele><time>2026-04-12T07:28:06.407Z</time></trkpt><trkpt lat="45.6258717" lon="11.4012883"><ele>134.0</ele><time>2026-04-12T07:28:12.408Z</time></trkpt><trkpt lat="45.6258823" lon="11.4011885"><ele>134.0</ele><time>2026-04-12T07:28:21.409Z</time></trkpt><trkpt lat="45.625872" lon="11.4010921"><ele>134.0</ele><time>2026-04-12T07:28:28.408Z</time></trkpt><trkpt lat="45.6258571" lon="11.400999"><ele>135.28571428571428</ele><time>2026-04-12T07:28:34.409Z</time></trkpt><trkpt lat="45.6258398" lon="11.4009047"><ele>136.57142857142856</ele><time>2026-04-12T07:28:40.409Z</time></trkpt><trkpt lat="45.6258208" lon="11.4008085"><ele>137.85714285714283</ele><time>2026-04-12T07:28:49.409Z</time></trkpt><trkpt lat="45.6258247" lon="11.4007186"><ele>139.14285714285714</ele><time>2026-04-12T07:28:55.409Z</time></trkpt><trkpt lat="45.6257907" lon="11.4006413"><ele>140.42857142857142</ele><time>2026-04-12T07:29:01.408Z</time></trkpt><trkpt lat="45.6257312" lon="11.4005997"><ele>141.7142857142857</ele><time>2026-04-12T07:29:07.407Z</time></trkpt><trkpt lat="45.6256764" lon="11.4005356"><ele>143.0</ele><time>2026-04-12T07:29:13.409Z</time></trkpt><trkpt lat="45.6256648" lon="11.4004359"><ele>143.7142857142857</ele><time>2026-04-12T07:29:18.408Z</time></trkpt><trkpt lat="45.6256239" lon="11.4003593"><ele>144.42857142857142</ele><time>2026-04-12T07:29:24.409Z</time></trkpt><trkpt lat="45.6255608" lon="11.4003616"><ele>145.14285714285714</ele><time>2026-04-12T07:29:30.408Z</time></trkpt><trkpt lat="45.6254973" lon="11.4003642"><ele>145.85714285714283</ele><time>2026-04-12T07:29:35.409Z</time></trkpt><trkpt lat="45.6254326" lon="11.4003567"><ele>146.57142857142856</ele><time>2026-04-12T07:29:41.408Z</time></trkpt><trkpt lat="45.6253685" lon="11.4003645"><ele>147.28571428571428</ele><time>2026-04-12T07:29:47.409Z</time></trkpt><trkpt lat="45.6253017" lon="11.4003791"><ele>148.0</ele><time>2026-04-12T07:29:52.409Z</time></trkpt><trkpt lat="45.6252306" lon="11.4003851"><ele>149.71428571428572</ele><time>2026-04-12T07:29:57.408Z</time></trkpt><trkpt lat="45.6251627" lon="11.4003768"><ele>151.42857142857142</ele><time>2026-04-12T07:30:01.408Z</time></trkpt><trkpt lat="45.6250874" lon="11.4003596"><ele>153.14285714285714</ele><time>2026-04-12T07:30:05.409Z</time></trkpt><trkpt lat="45.6250189" lon="11.4003412"><ele>154.85714285714286</ele><time>2026-04-12T07:30:09.409Z</time></trkpt><trkpt lat="45.6249458" lon="11.4003169"><ele>156.57142857142858</ele><time>2026-04-12T07:30:14.408Z</time></trkpt><trkpt lat="45.6248708" lon="11.40032"><ele>158.28571428571428</ele><time>2026-04-12T07:30:19.409Z</time></trkpt><trkpt lat="45.6248058" lon="11.400322"><ele>160.0</ele><time>2026-04-12T07:30:23.409Z</time></trkpt><trkpt lat="45.6247426" lon="11.4003215"><ele>160.0</ele><time>2026-04-12T07:30:28.409Z</time></trkpt><trkpt lat="45.624679" lon="11.4003259"><ele>160.0</ele><time>2026-04-12T07:30:33.409Z</time></trkpt><trkpt lat="45.6246044" lon="11.4003401"><ele>160.0</ele><time>2026-04-12T07:30:38.408Z</time></trkpt><trkpt lat="45.6245368" lon="11.4003664"><ele>160.0</ele><time>2026-04-12T07:30:43.408Z</time></trkpt><trkpt lat="45.6244626" lon="11.4003759"><ele>160.0</ele><time>2026-04-12T07:30:48.408Z</time></trkpt><trkpt lat="45.624396" lon="11.4004097"><ele>160.0</ele><time>2026-04-12T07:30:53.409Z</time></trkpt><trkpt lat="45.6243268" lon="11.4004414"><ele>160.0</ele><time>2026-04-12T07:30:58.409Z</time></trkpt><trkpt lat="45.6242793" lon="11.4005067"><ele>160.14285714285714</ele><time>2026-04-12T07:31:03.408Z</time></trkpt><trkpt lat="45.6242125" lon="11.4005415"><ele>160.28571428571428</ele><time>2026-04-12T07:31:08.409Z</time></trkpt><trkpt lat="45.6241494" lon="11.4005607"><ele>160.42857142857144</ele><time>2026-04-12T07:31:13.409Z</time></trkpt><trkpt lat="45.6240769" lon="11.4005939"><ele>160.57142857142856</ele><time>2026-04-12T07:31:19.409Z</time></trkpt><trkpt lat="45.6240034" lon="11.4006036"><ele>160.71428571428572</ele><time>2026-04-12T07:31:25.408Z</time></trkpt><trkpt lat="45.6239383" lon="11.4006157"><ele>160.85714285714286</ele><time>2026-04-12T07:31:28.408Z</time></trkpt><trkpt lat="45.6238729" lon="11.4006291"><ele>161.0</ele><time>2026-04-12T07:31:31.409Z</time></trkpt><trkpt lat="45.6238054" lon="11.4006532"><ele>161.0</ele><time>2026-04-12T07:31:37.408Z</time></trkpt><trkpt lat="45.6237385" lon="11.4006781"><ele>161.0</ele><time>2026-04-12T07:31:43.409Z</time></trkpt><trkpt lat="45.6236608" lon="11.4007036"><ele>161.0</ele><time>2026-04-12T07:31:48.409Z</time></trkpt><trkpt lat="45.6235916" lon="11.4006776"><ele>161.0</ele><time>2026-04-12T07:31:52.408Z</time></trkpt><trkpt lat="45.6235196" lon="11.4006567"><ele>161.0</ele><time>2026-04-12T07:31:56.409Z</time></trkpt><trkpt lat="45.623454" lon="11.4006213"><ele>161.0</ele><time>2026-04-12T07:32:00.409Z</time></trkpt><trkpt lat="45.6233837" lon="11.4005645"><ele>161.0</ele><time>2026-04-12T07:32:04.409Z</time></trkpt><trkpt lat="45.6233251" lon="11.4005097"><ele>163.85714285714286</ele><time>2026-04-12T07:32:08.409Z</time></trkpt><trkpt lat="45.6232709" lon="11.4004599"><ele>166.71428571428572</ele><time>2026-04-12T07:32:12.408Z</time></trkpt><trkpt lat="45.6232258" lon="11.4003948"><ele>169.57142857142856</ele><time>2026-04-12T07:32:17.408Z</time></trkpt><trkpt lat="45.62326" lon="11.4003181"><ele>172.42857142857144</ele><time>2026-04-12T07:32:22.408Z</time></trkpt><trkpt lat="45.6233205" lon="11.4002886"><ele>175.28571428571428</ele><time>2026-04-12T07:32:28.409Z</time></trkpt><trkpt lat="45.623382" lon="11.4002331"><ele>178.14285714285714</ele><time>2026-04-12T07:32:34.409Z</time></trkpt><trkpt lat="45.6234451" lon="11.4001807"><ele>181.0</ele><time>2026-04-12T07:32:40.409Z</time></trkpt><trkpt lat="45.6235013" lon="11.4001144"><ele>181.0</ele><time>2026-04-12T07:32:45.408Z</time></trkpt><trkpt lat="45.6235535" lon="11.4000558"><ele>181.0</ele><time>2026-04-12T07:32:50.408Z</time></trkpt><trkpt lat="45.6235972" lon="11.399984"><ele>181.0</ele><time>2026-04-12T07:32:54.408Z</time></trkpt><trkpt lat="45.6236386" lon="11.3999074"><ele>181.0</ele><time>2026-04-12T07:32:58.408Z</time></trkpt><trkpt lat="45.6236757" lon="11.3998154"><ele>181.0</ele><time>2026-04-12T07:33:03.408Z</time></trkpt><trkpt lat="45.6237271" lon="11.399747"><ele>181.0</ele><time>2026-04-12T07:33:07.409Z</time></trkpt><trkpt lat="45.6237713" lon="11.3996639"><ele>181.0</ele><time>2026-04-12T07:33:11.409Z</time></trkpt><trkpt lat="45.6238313" lon="11.3996227"><ele>181.85714285714286</ele><time>2026-04-12T07:33:17.409Z</time></trkpt><trkpt lat="45.6238689" lon="11.3995461"><ele>182.71428571428572</ele><time>2026-04-12T07:33:23.409Z</time></trkpt><trkpt lat="45.6239099" lon="11.3994683"><ele>183.57142857142856</ele><time>2026-04-12T07:33:28.408Z</time></trkpt><trkpt lat="45.6239656" lon="11.3994186"><ele>184.42857142857144</ele><time>2026-04-12T07:33:34.409Z</time></trkpt><trkpt lat="45.6240208" lon="11.3993594"><ele>185.2857142857143</ele><time>2026-04-12T07:33:40.408Z</time></trkpt><trkpt lat="45.62406" lon="11.3992874"><ele>186.14285714285714</ele><time>2026-04-12T07:33:47.408Z</time></trkpt><trkpt lat="45.6240985" lon="11.3992143"><ele>187.0</ele><time>2026-04-12T07:33:54.409Z</time></trkpt><trkpt lat="45.6241209" lon="11.3991204"><ele>187.0</ele><time>2026-04-12T07:34:00.408Z</time></trkpt><trkpt lat="45.6241796" lon="11.3990482"><ele>187.0</ele><time>2026-04-12T07:34:07.409Z</time></trkpt><trkpt lat="45.6242073" lon="11.3989463"><ele>187.0</ele><time>2026-04-12T07:34:12.409Z</time></trkpt><trkpt lat="45.6242478" lon="11.3988767"><ele>187.0</ele><time>2026-04-12T07:34:18.409Z</time></trkpt><trkpt lat="45.6242917" lon="11.398803"><ele>187.0</ele><time>2026-04-12T07:34:23.409Z</time></trkpt><trkpt lat="45.6243263" lon="11.3987068"><ele>187.0</ele><time>2026-04-12T07:34:27.409Z</time></trkpt><trkpt lat="45.6243728" lon="11.398631"><ele>187.0</ele><time>2026-04-12T07:34:32.409Z</time></trkpt><trkpt lat="45.6244027" lon="11.398542"><ele>186.14285714285714</ele><time>2026-04-12T07:34:36.409Z</time></trkpt><trkpt lat="45.6244347" lon="11.3984514"><ele>185.2857142857143</ele><time>2026-04-12T07:34:40.408Z</time></trkpt><trkpt lat="45.6244898" lon="11.3984078"><ele>184.42857142857144</ele><time>2026-04-12T07:34:48.408Z</time></trkpt><trkpt lat="45.6245166" lon="11.3983113"><ele>183.57142857142856</ele><time>2026-04-12T07:34:53.408Z</time></trkpt><trkpt lat="45.6245536" lon="11.3982303"><ele>182.71428571428572</ele><time>2026-04-12T07:34:58.408Z</time></trkpt><trkpt lat="45.6245713" lon="11.3981388"><ele>181.85714285714286</ele><time>2026-04-12T07:35:03.409Z</time></trkpt><trkpt lat="45.6245842" lon="11.398043"><ele>181.0</ele><time>2026-04-12T07:35:09.409Z</time></trkpt><trkpt lat="45.6246044" lon="11.3979497"><ele>182.85714285714286</ele><time>2026-04-12T07:35:13.407Z</time></trkpt><trkpt lat="45.6246275" lon="11.3978564"><ele>184.71428571428572</ele><time>2026-04-12T07:35:17.409Z</time></trkpt><trkpt lat="45.6246289" lon="11.3977625"><ele>186.57142857142856</ele><time>2026-04-12T07:35:20.409Z</time></trkpt><trkpt lat="45.6246478" lon="11.397667"><ele>188.42857142857144</ele><time>2026-04-12T07:35:24.408Z</time></trkpt><trkpt lat="45.6246764" lon="11.3975707"><ele>190.2857142857143</ele><time>2026-04-12T07:35:28.409Z</time></trkpt><trkpt lat="45.624701" lon="11.3974708"><ele>192.14285714285714</ele><time>2026-04-12T07:35:32.409Z</time></trkpt><trkpt lat="45.6247072" lon="11.3973771"><ele>194.0</ele><time>2026-04-12T07:35:35.409Z</time></trkpt><trkpt lat="45.6247016" lon="11.3972584"><ele>195.57142857142856</ele><time>2026-04-12T07:35:38.409Z</time></trkpt><trkpt lat="45.624715" lon="11.3971611"><ele>197.14285714285717</ele><time>2026-04-12T07:35:41.408Z</time></trkpt><trkpt lat="45.6247215" lon="11.3970686"><ele>198.71428571428572</ele><time>2026-04-12T07:35:44.409Z</time></trkpt><trkpt lat="45.6247304" lon="11.3969584"><ele>200.28571428571428</ele><time>2026-04-12T07:35:48.408Z</time></trkpt><trkpt lat="45.6247452" lon="11.3968696"><ele>201.85714285714283</ele><time>2026-04-12T07:35:52.408Z</time></trkpt><trkpt lat="45.6247247" lon="11.3967645"><ele>203.42857142857144</ele><time>2026-04-12T07:35:57.409Z</time></trkpt><trkpt lat="45.6247325" lon="11.3966731"><ele>205.0</ele><time>2026-04-12T07:36:01.409Z</time></trkpt><trkpt lat="45.6247288" lon="11.3965804"><ele>205.0</ele><time>2026-04-12T07:36:05.408Z</time></trkpt><trkpt lat="45.6247316" lon="11.3964811"><ele>205.0</ele><time>2026-04-12T07:36:09.409Z</time></trkpt><trkpt lat="45.6247375" lon="11.3963746"><ele>205.0</ele><time>2026-04-12T07:36:13.409Z</time></trkpt><trkpt lat="45.624764" lon="11.3962854"><ele>205.0</ele><time>2026-04-12T07:36:17.408Z</time></trkpt><trkpt lat="45.6248059" lon="11.3962133"><ele>205.0</ele><time>2026-04-12T07:36:22.409Z</time></trkpt><trkpt lat="45.6248207" lon="11.396112"><ele>205.0</ele><time>2026-04-12T07:36:29.409Z</time></trkpt><trkpt lat="45.6248065" lon="11.3959963"><ele>205.0</ele><time>2026-04-12T07:36:33.408Z</time></trkpt><trkpt lat="45.6248171" lon="11.395905"><ele>205.99999999999997</ele><time>2026-04-12T07:36:37.409Z</time></trkpt><trkpt lat="45.6248382" lon="11.3957995"><ele>207.0</ele><time>2026-04-12T07:36:41.408Z</time></trkpt><trkpt lat="45.6248546" lon="11.3957018"><ele>208.0</ele><time>2026-04-12T07:36:44.408Z</time></trkpt><trkpt lat="45.62486" lon="11.3955974"><ele>209.0</ele><time>2026-04-12T07:36:47.408Z</time></trkpt><trkpt lat="45.6248772" lon="11.3954887"><ele>209.99999999999997</ele><time>2026-04-12T07:36:50.409Z</time></trkpt><trkpt lat="45.62489" lon="11.3953676"><ele>211.0</ele><time>2026-04-12T07:36:53.408Z</time></trkpt><trkpt lat="45.6248927" lon="11.395241"><ele>211.49999999999997</ele><time>2026-04-12T07:36:56.409Z</time></trkpt><trkpt lat="45.6248831" lon="11.3951288"><ele>212.0</ele><time>2026-04-12T07:36:59.409Z</time></trkpt><trkpt lat="45.6248779" lon="11.3950066"><ele>212.5</ele><time>2026-04-12T07:37:02.409Z</time></trkpt><trkpt lat="45.6248835" lon="11.3949023"><ele>213.0</ele><time>2026-04-12T07:37:05.408Z</time></trkpt><trkpt lat="45.6249325" lon="11.3948107"><ele>213.49999999999997</ele><time>2026-04-12T07:37:09.408Z</time></trkpt><trkpt lat="45.6249278" lon="11.3947037"><ele>214.0</ele><time>2026-04-12T07:37:13.409Z</time></trkpt><trkpt lat="45.6248839" lon="11.3946235"><ele>214.49999999999997</ele><time>2026-04-12T07:37:16.409Z</time></trkpt><trkpt lat="45.6248624" lon="11.3945283"><ele>215.0</ele><time>2026-04-12T07:37:19.409Z</time></trkpt><trkpt lat="45.6248661" lon="11.3944196"><ele>215.5</ele><time>2026-04-12T07:37:22.409Z</time></trkpt><trkpt lat="45.624901" lon="11.3943323"><ele>216.0</ele><time>2026-04-12T07:37:26.409Z</time></trkpt><trkpt lat="45.6248882" lon="11.3941965"><ele>216.49999999999997</ele><time>2026-04-12T07:37:28.408Z</time></trkpt><trkpt lat="45.6248625" lon="11.3940992"><ele>217.0</ele><time>2026-04-12T07:37:31.409Z</time></trkpt><trkpt lat="45.6249096" lon="11.394023"><ele>217.0</ele><time>2026-04-12T07:37:35.409Z</time></trkpt><trkpt lat="45.6249631" lon="11.3939599"><ele>217.0</ele><time>2026-04-12T07:37:38.408Z</time></trkpt><trkpt lat="45.6249815" lon="11.3938687"><ele>217.0</ele><time>2026-04-12T07:37:40.409Z</time></trkpt><trkpt lat="45.6249889" lon="11.3937717"><ele>217.0</ele><time>2026-04-12T07:37:42.408Z</time></trkpt><trkpt lat="45.6249865" lon="11.393678"><ele>217.0</ele><time>2026-04-12T07:37:44.408Z</time></trkpt><trkpt lat="45.6249786" lon="11.3935686"><ele>217.0</ele><time>2026-04-12T07:37:47.408Z</time></trkpt><trkpt lat="45.6249767" lon="11.3934735"><ele>217.0</ele><time>2026-04-12T07:37:51.407Z</time></trkpt><trkpt lat="45.6249486" lon="11.3933733"><ele>218.0</ele><time>2026-04-12T07:37:55.409Z</time></trkpt><trkpt lat="45.6249931" lon="11.3933029"><ele>219.0</ele><time>2026-04-12T07:37:59.409Z</time></trkpt><trkpt lat="45.6250472" lon="11.3932335"><ele>220.0</ele><time>2026-04-12T07:38:01.408Z</time></trkpt><trkpt lat="45.6251076" lon="11.3931888"><ele>221.0</ele><time>2026-04-12T07:38:03.409Z</time></trkpt><trkpt lat="45.6251646" lon="11.3931382"><ele>222.0</ele><time>2026-04-12T07:38:05.407Z</time></trkpt><trkpt lat="45.6252244" lon="11.3930844"><ele>223.0</ele><time>2026-04-12T07:38:07.409Z</time></trkpt><trkpt lat="45.6252844" lon="11.3930364"><ele>224.0</ele><time>2026-04-12T07:38:09.408Z</time></trkpt><trkpt lat="45.625339" lon="11.3929907"><ele>221.33333333333334</ele><time>2026-04-12T07:38:11.409Z</time></trkpt><trkpt lat="45.6253686" lon="11.3929008"><ele>218.66666666666669</ele><time>2026-04-12T07:38:14.409Z</time></trkpt><trkpt lat="45.6253743" lon="11.3927893"><ele>216.0</ele><time>2026-04-12T07:38:16.407Z</time></trkpt><trkpt lat="45.6254006" lon="11.3926614"><ele>213.33333333333331</ele><time>2026-04-12T07:38:18.409Z</time></trkpt><trkpt lat="45.6254235" lon="11.3925373"><ele>210.66666666666666</ele><time>2026-04-12T07:38:20.409Z</time></trkpt><trkpt lat="45.6254366" lon="11.3924209"><ele>208.0</ele><time>2026-04-12T07:38:22.409Z</time></trkpt><trkpt lat="45.6254481" lon="11.3923092"><ele>208.0</ele><time>2026-04-12T07:38:25.409Z</time></trkpt><trkpt lat="45.6254744" lon="11.3922226"><ele>208.0</ele><time>2026-04-12T07:38:28.408Z</time></trkpt><trkpt lat="45.6255461" lon="11.392158"><ele>208.0</ele><time>2026-04-12T07:38:31.408Z</time></trkpt><trkpt lat="45.6256135" lon="11.3921322"><ele>208.0</ele><time>2026-04-12T07:38:33.408Z</time></trkpt><trkpt lat="45.6256763" lon="11.3920994"><ele>208.0</ele><time>2026-04-12T07:38:35.408Z</time></trkpt><trkpt lat="45.6257383" lon="11.3920639"><ele>208.0</ele><time>2026-04-12T07:38:37.409Z</time></trkpt><trkpt lat="45.6258187" lon="11.3920198"><ele>208.0</ele><time>2026-04-12T07:38:40.409Z</time></trkpt><trkpt lat="45.6258857" lon="11.3919479"><ele>210.33333333333331</ele><time>2026-04-12T07:38:44.409Z</time></trkpt><trkpt lat="45.6259347" lon="11.3918644"><ele>212.66666666666666</ele><time>2026-04-12T07:38:47.409Z</time></trkpt><trkpt lat="45.6259811" lon="11.3917931"><ele>215.0</ele><time>2026-04-12T07:38:51.409Z</time></trkpt><trkpt lat="45.6260512" lon="11.3917957"><ele>217.33333333333331</ele><time>2026-04-12T07:38:59.409Z</time></trkpt><trkpt lat="45.6261238" lon="11.3918037"><ele>219.66666666666666</ele><time>2026-04-12T07:39:02.409Z</time></trkpt><trkpt lat="45.6262421" lon="11.3917972"><ele>222.0</ele><time>2026-04-12T07:39:06.408Z</time></trkpt><trkpt lat="45.6263052" lon="11.3917835"><ele>222.0</ele><time>2026-04-12T07:39:08.408Z</time></trkpt><trkpt lat="45.6263667" lon="11.3917596"><ele>222.0</ele><time>2026-04-12T07:39:10.408Z</time></trkpt><trkpt lat="45.6264783" lon="11.3917488"><ele>222.0</ele><time>2026-04-12T07:39:14.408Z</time></trkpt><trkpt lat="45.6265627" lon="11.3917122"><ele>222.0</ele><time>2026-04-12T07:39:17.408Z</time></trkpt><trkpt lat="45.6266421" lon="11.3916619"><ele>222.0</ele><time>2026-04-12T07:39:20.409Z</time></trkpt><trkpt lat="45.6267169" lon="11.3915934"><ele>222.0</ele><time>2026-04-12T07:39:23.409Z</time></trkpt><trkpt lat="45.6267829" lon="11.391546"><ele>222.0</ele><time>2026-04-12T07:39:26.408Z</time></trkpt><trkpt lat="45.6268461" lon="11.3915014"><ele>222.0</ele><time>2026-04-12T07:39:29.409Z</time></trkpt><trkpt lat="45.6269065" lon="11.3914552"><ele>222.0</ele><time>2026-04-12T07:39:32.408Z</time></trkpt><trkpt lat="45.6269737" lon="11.391433"><ele>222.0</ele><time>2026-04-12T07:39:35.409Z</time></trkpt><trkpt lat="45.6270573" lon="11.3914286"><ele>222.0</ele><time>2026-04-12T07:39:39.409Z</time></trkpt><trkpt lat="45.6271317" lon="11.3914684"><ele>222.0</ele><time>2026-04-12T07:39:43.409Z</time></trkpt><trkpt lat="45.6272081" lon="11.391469"><ele>222.0</ele><time>2026-04-12T07:39:47.408Z</time></trkpt><trkpt lat="45.627283" lon="11.3914388"><ele>222.83333333333334</ele><time>2026-04-12T07:39:50.409Z</time></trkpt><trkpt lat="45.6273629" lon="11.3914215"><ele>223.66666666666669</ele><time>2026-04-12T07:39:53.409Z</time></trkpt><trkpt lat="45.6274541" lon="11.3914155"><ele>224.5</ele><time>2026-04-12T07:39:56.409Z</time></trkpt><trkpt lat="45.6275169" lon="11.3913981"><ele>225.33333333333334</ele><time>2026-04-12T07:39:58.409Z</time></trkpt><trkpt lat="45.6275906" lon="11.3913577"><ele>226.16666666666669</ele><time>2026-04-12T07:40:01.408Z</time></trkpt><trkpt lat="45.6276667" lon="11.391324"><ele>227.0</ele><time>2026-04-12T07:40:05.409Z</time></trkpt><trkpt lat="45.6277246" lon="11.3912863"><ele>229.0</ele><time>2026-04-12T07:40:09.409Z</time></trkpt><trkpt lat="45.6277887" lon="11.3912428"><ele>231.00000000000003</ele><time>2026-04-12T07:40:13.409Z</time></trkpt><trkpt lat="45.6278577" lon="11.3912091"><ele>233.0</ele><time>2026-04-12T07:40:16.409Z</time></trkpt><trkpt lat="45.6279274" lon="11.3911927"><ele>235.0</ele><time>2026-04-12T07:40:19.409Z</time></trkpt><trkpt lat="45.6280095" lon="11.3911804"><ele>237.00000000000003</ele><time>2026-04-12T07:40:22.408Z</time></trkpt><trkpt lat="45.628088" lon="11.391169"><ele>239.0</ele><time>2026-04-12T07:40:25.408Z</time></trkpt><trkpt lat="45.6281584" lon="11.391144"><ele>241.0</ele><time>2026-04-12T07:40:28.408Z</time></trkpt><trkpt lat="45.6282414" lon="11.3911051"><ele>240.99999999999997</ele><time>2026-04-12T07:40:31.408Z</time></trkpt><trkpt lat="45.6283178" lon="11.3910821"><ele>241.0</ele><time>2026-04-12T07:40:34.408Z</time></trkpt><trkpt lat="45.6283977" lon="11.391032"><ele>241.0</ele><time>2026-04-12T07:40:37.409Z</time></trkpt><trkpt lat="45.6284742" lon="11.3909898"><ele>241.0</ele><time>2026-04-12T07:40:40.408Z</time></trkpt><trkpt lat="45.6285142" lon="11.3909191"><ele>240.99999999999997</ele><time>2026-04-12T07:40:42.408Z</time></trkpt><trkpt lat="45.6285837" lon="11.3908294"><ele>241.0</ele><time>2026-04-12T07:40:45.409Z</time></trkpt><trkpt lat="45.628643" lon="11.3907338"><ele>242.99999999999997</ele><time>2026-04-12T07:40:48.409Z</time></trkpt><trkpt lat="45.6286735" lon="11.3906165"><ele>245.0</ele><time>2026-04-12T07:40:50.408Z</time></trkpt><trkpt lat="45.6286852" lon="11.3905087"><ele>247.0</ele><time>2026-04-12T07:40:52.408Z</time></trkpt><trkpt lat="45.6287111" lon="11.3904046"><ele>249.0</ele><time>2026-04-12T07:40:55.409Z</time></trkpt><trkpt lat="45.6287728" lon="11.3903401"><ele>250.99999999999997</ele><time>2026-04-12T07:40:59.409Z</time></trkpt><trkpt lat="45.6288481" lon="11.390325"><ele>253.0</ele><time>2026-04-12T07:41:04.408Z</time></trkpt><trkpt lat="45.6289029" lon="11.3902759"><ele>253.00000000000003</ele><time>2026-04-12T07:41:10.409Z</time></trkpt><trkpt lat="45.6289497" lon="11.3901953"><ele>253.0</ele><time>2026-04-12T07:41:14.409Z</time></trkpt><trkpt lat="45.6289851" lon="11.3901176"><ele>253.00000000000003</ele><time>2026-04-12T07:41:17.409Z</time></trkpt><trkpt lat="45.629008" lon="11.3900325"><ele>253.00000000000003</ele><time>2026-04-12T07:41:20.409Z</time></trkpt><trkpt lat="45.6290684" lon="11.3899745"><ele>253.0</ele><time>2026-04-12T07:41:25.409Z</time></trkpt><trkpt lat="45.6291119" lon="11.3899029"><ele>253.00000000000003</ele><time>2026-04-12T07:41:29.408Z</time></trkpt><trkpt lat="45.6291683" lon="11.3898599"><ele>253.00000000000003</ele><time>2026-04-12T07:41:38.408Z</time></trkpt><trkpt lat="45.6292756" lon="11.3898959"><ele>253.0</ele><time>2026-04-12T07:41:48.409Z</time></trkpt><trkpt lat="45.6293916" lon="11.3899352"><ele>253.0</ele><time>2026-04-12T07:42:03.409Z</time></trkpt><trkpt lat="45.6294626" lon="11.3899139"><ele>253.0</ele><time>2026-04-12T07:42:12.409Z</time></trkpt><trkpt lat="45.6295259" lon="11.3898817"><ele>253.0</ele><time>2026-04-12T07:42:17.408Z</time></trkpt><trkpt lat="45.6296504" lon="11.3898491"><ele>253.0</ele><time>2026-04-12T07:42:27.408Z</time></trkpt><trkpt lat="45.6296915" lon="11.3897533"><ele>255.00000000000003</ele><time>2026-04-12T07:42:30.409Z</time></trkpt><trkpt lat="45.6297208" lon="11.3896595"><ele>257.0</ele><time>2026-04-12T07:42:34.407Z</time></trkpt><trkpt lat="45.6297723" lon="11.3895968"><ele>259.0</ele><time>2026-04-12T07:42:39.409Z</time></trkpt><trkpt lat="45.6298051" lon="11.3895085"><ele>261.0</ele><time>2026-04-12T07:42:43.408Z</time></trkpt><trkpt lat="45.6298609" lon="11.3894452"><ele>263.0</ele><time>2026-04-12T07:42:48.408Z</time></trkpt><trkpt lat="45.6299171" lon="11.3894011"><ele>265.00000000000006</ele><time>2026-04-12T07:42:54.407Z</time></trkpt><trkpt lat="45.6299821" lon="11.3893757"><ele>267.0</ele><time>2026-04-12T07:43:00.409Z</time></trkpt><trkpt lat="45.6300398" lon="11.3893139"><ele>267.00000000000006</ele><time>2026-04-12T07:43:04.409Z</time></trkpt><trkpt lat="45.6301055" lon="11.3892481"><ele>267.0</ele><time>2026-04-12T07:43:08.408Z</time></trkpt><trkpt lat="45.6301535" lon="11.3891819"><ele>267.0</ele><time>2026-04-12T07:43:12.409Z</time></trkpt><trkpt lat="45.6302026" lon="11.3891109"><ele>267.0</ele><time>2026-04-12T07:43:16.409Z</time></trkpt><trkpt lat="45.6302494" lon="11.3890323"><ele>267.0</ele><time>2026-04-12T07:43:21.409Z</time></trkpt><trkpt lat="45.6302763" lon="11.3889448"><ele>267.00000000000006</ele><time>2026-04-12T07:43:26.409Z</time></trkpt><trkpt lat="45.6303221" lon="11.3888796"><ele>267.0</ele><time>2026-04-12T07:43:31.408Z</time></trkpt><trkpt lat="45.6303591" lon="11.3887895"><ele>269.28571428571433</ele><time>2026-04-12T07:43:36.409Z</time></trkpt><trkpt lat="45.630381" lon="11.3887003"><ele>271.57142857142856</ele><time>2026-04-12T07:43:39.409Z</time></trkpt><trkpt lat="45.6303946" lon="11.388604"><ele>273.8571428571429</ele><time>2026-04-12T07:43:42.408Z</time></trkpt><trkpt lat="45.6304328" lon="11.3885199"><ele>276.14285714285717</ele><time>2026-04-12T07:43:48.409Z</time></trkpt><trkpt lat="45.6304706" lon="11.3884244"><ele>278.42857142857144</ele><time>2026-04-12T07:43:51.408Z</time></trkpt><trkpt lat="45.6305002" lon="11.3883288"><ele>280.7142857142857</ele><time>2026-04-12T07:43:55.409Z</time></trkpt><trkpt lat="45.630518" lon="11.3882295"><ele>283.0</ele><time>2026-04-12T07:43:59.408Z</time></trkpt><trkpt lat="45.6305567" lon="11.3881553"><ele>283.0</ele><time>2026-04-12T07:44:03.409Z</time></trkpt><trkpt lat="45.6306164" lon="11.3881231"><ele>283.0</ele><time>2026-04-12T07:44:13.409Z</time></trkpt><trkpt lat="45.6306763" lon="11.3880834"><ele>283.0</ele><time>2026-04-12T07:44:19.408Z</time></trkpt><trkpt lat="45.6307313" lon="11.3879822"><ele>283.0</ele><time>2026-04-12T07:44:23.409Z</time></trkpt><trkpt lat="45.630755" lon="11.3878834"><ele>283.0</ele><time>2026-04-12T07:44:27.409Z</time></trkpt><trkpt lat="45.6308133" lon="11.3878215"><ele>283.0</ele><time>2026-04-12T07:44:33.407Z</time></trkpt><trkpt lat="45.6308439" lon="11.3877233"><ele>283.0</ele><time>2026-04-12T07:44:38.408Z</time></trkpt><trkpt lat="45.6309231" lon="11.3877139"><ele>283.2857142857143</ele><time>2026-04-12T07:44:43.409Z</time></trkpt><trkpt lat="45.6309732" lon="11.3876289"><ele>283.5714285714286</ele><time>2026-04-12T07:44:48.408Z</time></trkpt><trkpt lat="45.6309734" lon="11.3875206"><ele>283.8571428571429</ele><time>2026-04-12T07:44:52.409Z</time></trkpt><trkpt lat="45.6309452" lon="11.3874066"><ele>284.14285714285717</ele><time>2026-04-12T07:44:55.409Z</time></trkpt><trkpt lat="45.630922" lon="11.3873098"><ele>284.42857142857144</ele><time>2026-04-12T07:44:58.409Z</time></trkpt><trkpt lat="45.6309247" lon="11.3872174"><ele>284.7142857142857</ele><time>2026-04-12T07:45:03.409Z</time></trkpt><trkpt lat="45.6309691" lon="11.3871377"><ele>285.0</ele><time>2026-04-12T07:45:08.408Z</time></trkpt><trkpt lat="45.6310134" lon="11.3870376"><ele>285.7142857142857</ele><time>2026-04-12T07:45:13.409Z</time></trkpt><trkpt lat="45.6310519" lon="11.3869633"><ele>286.42857142857144</ele><time>2026-04-12T07:45:19.408Z</time></trkpt><trkpt lat="45.6310228" lon="11.3868486"><ele>287.14285714285717</ele><time>2026-04-12T07:45:23.408Z</time></trkpt><trkpt lat="45.6309911" lon="11.3867603"><ele>287.8571428571429</ele><time>2026-04-12T07:45:26.409Z</time></trkpt><trkpt lat="45.6309707" lon="11.3866716"><ele>288.5714285714286</ele><time>2026-04-12T07:45:29.408Z</time></trkpt><trkpt lat="45.6309404" lon="11.3865836"><ele>289.2857142857143</ele><time>2026-04-12T07:45:32.409Z</time></trkpt><trkpt lat="45.6309123" lon="11.3864975"><ele>290.0</ele><time>2026-04-12T07:45:35.409Z</time></trkpt><trkpt lat="45.6308559" lon="11.3864331"><ele>290.0</ele><time>2026-04-12T07:45:38.409Z</time></trkpt><trkpt lat="45.6308032" lon="11.3863695"><ele>290.0</ele><time>2026-04-12T07:45:41.409Z</time></trkpt><trkpt lat="45.6307504" lon="11.386319"><ele>290.0</ele><time>2026-04-12T07:45:44.407Z</time></trkpt><trkpt lat="45.6306812" lon="11.3862709"><ele>290.0</ele><time>2026-04-12T07:45:47.409Z</time></trkpt><trkpt lat="45.6306067" lon="11.3862121"><ele>290.0</ele><time>2026-04-12T07:45:50.409Z</time></trkpt><trkpt lat="45.6305329" lon="11.3861514"><ele>290.0</ele><time>2026-04-12T07:45:53.409Z</time></trkpt><trkpt lat="45.6304713" lon="11.3860782"><ele>289.7142857142857</ele><time>2026-04-12T07:45:57.409Z</time></trkpt><trkpt lat="45.6304498" lon="11.385969"><ele>289.42857142857144</ele><time>2026-04-12T07:46:01.409Z</time></trkpt><trkpt lat="45.6304767" lon="11.3858833"><ele>289.14285714285717</ele><time>2026-04-12T07:46:04.409Z</time></trkpt><trkpt lat="45.6305159" lon="11.3857873"><ele>288.8571428571429</ele><time>2026-04-12T07:46:08.409Z</time></trkpt><trkpt lat="45.6305377" lon="11.3856828"><ele>288.57142857142856</ele><time>2026-04-12T07:46:12.409Z</time></trkpt><trkpt lat="45.6305739" lon="11.3855901"><ele>288.28571428571433</ele><time>2026-04-12T07:46:17.409Z</time></trkpt><trkpt lat="45.6306001" lon="11.3855067"><ele>288.0</ele><time>2026-04-12T07:46:21.409Z</time></trkpt><trkpt lat="45.6306531" lon="11.3854345"><ele>290.8333333333333</ele><time>2026-04-12T07:46:25.409Z</time></trkpt><trkpt lat="45.6307159" lon="11.3854175"><ele>293.6666666666667</ele><time>2026-04-12T07:46:28.409Z</time></trkpt><trkpt lat="45.6307895" lon="11.3853598"><ele>296.5</ele><time>2026-04-12T07:46:31.409Z</time></trkpt><trkpt lat="45.6308427" lon="11.3852418"><ele>299.33333333333337</ele><time>2026-04-12T07:46:34.409Z</time></trkpt><trkpt lat="45.6308688" lon="11.3851509"><ele>302.1666666666667</ele><time>2026-04-12T07:46:36.408Z</time></trkpt><trkpt lat="45.630919" lon="11.3850491"><ele>305.0</ele><time>2026-04-12T07:46:39.408Z</time></trkpt><trkpt lat="45.6309579" lon="11.3849744"><ele>305.0</ele><time>2026-04-12T07:46:41.409Z</time></trkpt><trkpt lat="45.6309967" lon="11.38489"><ele>305.0</ele><time>2026-04-12T07:46:43.409Z</time></trkpt><trkpt lat="45.6310605" lon="11.3847886"><ele>305.0</ele><time>2026-04-12T07:46:46.409Z</time></trkpt><trkpt lat="45.6311264" lon="11.3847369"><ele>305.0</ele><time>2026-04-12T07:46:48.409Z</time></trkpt><trkpt lat="45.6311841" lon="11.3846539"><ele>305.0</ele><time>2026-04-12T07:46:50.409Z</time></trkpt><trkpt lat="45.6312389" lon="11.3845501"><ele>305.0</ele><time>2026-04-12T07:46:52.408Z</time></trkpt><trkpt lat="45.6312909" lon="11.3844754"><ele>304.33333333333337</ele><time>2026-04-12T07:46:54.408Z</time></trkpt><trkpt lat="45.6313438" lon="11.38441"><ele>303.6666666666667</ele><time>2026-04-12T07:46:56.409Z</time></trkpt><trkpt lat="45.631418" lon="11.3843466"><ele>303.0</ele><time>2026-04-12T07:46:58.409Z</time></trkpt><trkpt lat="45.6315144" lon="11.3842995"><ele>302.3333333333333</ele><time>2026-04-12T07:47:00.408Z</time></trkpt><trkpt lat="45.6315926" lon="11.3842401"><ele>301.66666666666663</ele><time>2026-04-12T07:47:02.409Z</time></trkpt><trkpt lat="45.6316104" lon="11.3841336"><ele>301.0</ele><time>2026-04-12T07:47:03.409Z</time></trkpt><trkpt lat="45.6316291" lon="11.3839948"><ele>301.0</ele><time>2026-04-12T07:47:05.409Z</time></trkpt><trkpt lat="45.6316927" lon="11.3838608"><ele>301.0</ele><time>2026-04-12T07:47:07.408Z</time></trkpt><trkpt lat="45.6317595" lon="11.3837467"><ele>301.0</ele><time>2026-04-12T07:47:09.409Z</time></trkpt><trkpt lat="45.6317966" lon="11.3836381"><ele>301.0</ele><time>2026-04-12T07:47:10.409Z</time></trkpt><trkpt lat="45.6318232" lon="11.3835358"><ele>301.0</ele><time>2026-04-12T07:47:11.409Z</time></trkpt><trkpt lat="45.6318718" lon="11.3834733"><ele>301.0</ele><time>2026-04-12T07:47:12.409Z</time></trkpt><trkpt lat="45.6319013" lon="11.3833788"><ele>300.5</ele><time>2026-04-12T07:47:13.409Z</time></trkpt><trkpt lat="45.6319466" lon="11.3833033"><ele>300.0</ele><time>2026-04-12T07:47:14.407Z</time></trkpt><trkpt lat="45.631995" lon="11.3832027"><ele>299.5</ele><time>2026-04-12T07:47:15.408Z</time></trkpt><trkpt lat="45.6320286" lon="11.383123"><ele>299.0</ele><time>2026-04-12T07:47:16.409Z</time></trkpt><trkpt lat="45.6320865" lon="11.3830434"><ele>298.5</ele><time>2026-04-12T07:47:17.408Z</time></trkpt><trkpt lat="45.632128" lon="11.38295"><ele>298.0</ele><time>2026-04-12T07:47:18.409Z</time></trkpt><trkpt lat="45.632178" lon="11.3828525"><ele>298.0</ele><time>2026-04-12T07:47:19.409Z</time></trkpt><trkpt lat="45.6322135" lon="11.3827488"><ele>298.0</ele><time>2026-04-12T07:47:20.408Z</time></trkpt><trkpt lat="45.6322371" lon="11.3826355"><ele>298.0</ele><time>2026-04-12T07:47:21.409Z</time></trkpt><trkpt lat="45.6322396" lon="11.38249"><ele>298.0</ele><time>2026-04-12T07:47:22.409Z</time></trkpt><trkpt lat="45.6322578" lon="11.3823555"><ele>298.0</ele><time>2026-04-12T07:47:23.409Z</time></trkpt><trkpt lat="45.6322691" lon="11.3822219"><ele>297.0</ele><time>2026-04-12T07:47:24.409Z</time></trkpt><trkpt lat="45.6322819" lon="11.3820766"><ele>296.0</ele><time>2026-04-12T07:47:25.408Z</time></trkpt><trkpt lat="45.6323243" lon="11.3819585"><ele>295.0</ele><time>2026-04-12T07:47:26.409Z</time></trkpt><trkpt lat="45.6323839" lon="11.3818204"><ele>294.0</ele><time>2026-04-12T07:47:27.408Z</time></trkpt><trkpt lat="45.6324299" lon="11.3816689"><ele>293.0</ele><time>2026-04-12T07:47:28.408Z</time></trkpt><trkpt lat="45.6324579" lon="11.381533"><ele>293.0</ele><time>2026-04-12T07:47:29.408Z</time></trkpt><trkpt lat="45.6324901" lon="11.3813947"><ele>293.0</ele><time>2026-04-12T07:47:30.408Z</time></trkpt><trkpt lat="45.6325278" lon="11.3812516"><ele>293.0</ele><time>2026-04-12T07:47:31.409Z</time></trkpt><trkpt lat="45.6325306" lon="11.3811442"><ele>293.0</ele><time>2026-04-12T07:47:32.408Z</time></trkpt><trkpt lat="45.6325615" lon="11.3810135"><ele>293.0</ele><time>2026-04-12T07:47:33.408Z</time></trkpt><trkpt lat="45.6325793" lon="11.3808926"><ele>291.6</ele><time>2026-04-12T07:47:34.407Z</time></trkpt><trkpt lat="45.6326064" lon="11.3807477"><ele>290.20000000000005</ele><time>2026-04-12T07:47:35.408Z</time></trkpt><trkpt lat="45.6326214" lon="11.3805874"><ele>288.8</ele><time>2026-04-12T07:47:36.409Z</time></trkpt><trkpt lat="45.6326285" lon="11.380446"><ele>287.40000000000003</ele><time>2026-04-12T07:47:37.409Z</time></trkpt><trkpt lat="45.6326161" lon="11.3802635"><ele>286.0</ele><time>2026-04-12T07:47:38.408Z</time></trkpt><trkpt lat="45.6327282" lon="11.3801082"><ele>284.0</ele><time>2026-04-12T07:47:39.409Z</time></trkpt><trkpt lat="45.6327594" lon="11.3799541"><ele>282.0</ele><time>2026-04-12T07:47:40.408Z</time></trkpt><trkpt lat="45.6327556" lon="11.3798041"><ele>280.0</ele><time>2026-04-12T07:47:41.409Z</time></trkpt><trkpt lat="45.632783" lon="11.3796685"><ele>278.0</ele><time>2026-04-12T07:47:42.409Z</time></trkpt><trkpt lat="45.6327972" lon="11.3795219"><ele>276.0</ele><time>2026-04-12T07:47:43.408Z</time></trkpt><trkpt lat="45.6328181" lon="11.3793532"><ele>274.8</ele><time>2026-04-12T07:47:44.409Z</time></trkpt><trkpt lat="45.6328245" lon="11.3791655"><ele>273.6</ele><time>2026-04-12T07:47:45.409Z</time></trkpt><trkpt lat="45.6328086" lon="11.3790402"><ele>272.4</ele><time>2026-04-12T07:47:46.409Z</time></trkpt><trkpt lat="45.632778" lon="11.3789047"><ele>271.2</ele><time>2026-04-12T07:47:47.409Z</time></trkpt><trkpt lat="45.6327811" lon="11.3788012"><ele>270.0</ele><time>2026-04-12T07:47:48.409Z</time></trkpt><trkpt lat="45.6328392" lon="11.378522"><ele>271.6666666666667</ele><time>2026-04-12T07:47:50.409Z</time></trkpt><trkpt lat="45.6329059" lon="11.3782299"><ele>273.33333333333337</ele><time>2026-04-12T07:47:52.409Z</time></trkpt><trkpt lat="45.6328878" lon="11.3780873"><ele>275.0</ele><time>2026-04-12T07:47:53.408Z</time></trkpt><trkpt lat="45.6329622" lon="11.3778852"><ele>275.0</ele><time>2026-04-12T07:47:54.407Z</time></trkpt><trkpt lat="45.6330127" lon="11.3776875"><ele>275.0</ele><time>2026-04-12T07:47:55.407Z</time></trkpt><trkpt lat="45.6330548" lon="11.3775029"><ele>275.0</ele><time>2026-04-12T07:47:56.409Z</time></trkpt><trkpt lat="45.6330832" lon="11.3773209"><ele>275.0</ele><time>2026-04-12T07:47:57.408Z</time></trkpt><trkpt lat="45.6330979" lon="11.3771574"><ele>272.4</ele><time>2026-04-12T07:47:58.409Z</time></trkpt><trkpt lat="45.6331154" lon="11.3769851"><ele>269.8</ele><time>2026-04-12T07:47:59.408Z</time></trkpt><trkpt lat="45.6331328" lon="11.3768251"><ele>267.2</ele><time>2026-04-12T07:48:00.409Z</time></trkpt><trkpt lat="45.6331638" lon="11.3766795"><ele>264.6</ele><time>2026-04-12T07:48:01.409Z</time></trkpt><trkpt lat="45.6331719" lon="11.3765369"><ele>262.0</ele><time>2026-04-12T07:48:02.409Z</time></trkpt><trkpt lat="45.6331626" lon="11.3763799"><ele>261.0</ele><time>2026-04-12T07:48:03.408Z</time></trkpt><trkpt lat="45.6331439" lon="11.3762233"><ele>260.0</ele><time>2026-04-12T07:48:04.408Z</time></trkpt><trkpt lat="45.633115" lon="11.376072"><ele>259.0</ele><time>2026-04-12T07:48:05.407Z</time></trkpt><trkpt lat="45.6330869" lon="11.3759249"><ele>258.0</ele><time>2026-04-12T07:48:06.408Z</time></trkpt><trkpt lat="45.6330536" lon="11.375785"><ele>257.0</ele><time>2026-04-12T07:48:07.409Z</time></trkpt><trkpt lat="45.6330229" lon="11.3756424"><ele>256.4</ele><time>2026-04-12T07:48:08.409Z</time></trkpt><trkpt lat="45.6329909" lon="11.3755115"><ele>255.79999999999998</ele><time>2026-04-12T07:48:09.409Z</time></trkpt><trkpt lat="45.6329619" lon="11.3753692"><ele>255.2</ele><time>2026-04-12T07:48:10.409Z</time></trkpt><trkpt lat="45.632918" lon="11.3752195"><ele>254.6</ele><time>2026-04-12T07:48:11.409Z</time></trkpt><trkpt lat="45.6328834" lon="11.3750801"><ele>254.0</ele><time>2026-04-12T07:48:12.409Z</time></trkpt><trkpt lat="45.6328528" lon="11.3749487"><ele>254.0</ele><time>2026-04-12T07:48:13.409Z</time></trkpt><trkpt lat="45.6328103" lon="11.3748467"><ele>254.0</ele><time>2026-04-12T07:48:14.408Z</time></trkpt><trkpt lat="45.6326975" lon="11.3747003"><ele>254.0</ele><time>2026-04-12T07:48:15.409Z</time></trkpt><trkpt lat="45.6326051" lon="11.3745834"><ele>254.0</ele><time>2026-04-12T07:48:16.409Z</time></trkpt><trkpt lat="45.6325328" lon="11.3744913"><ele>251.75</ele><time>2026-04-12T07:48:17.408Z</time></trkpt><trkpt lat="45.6324271" lon="11.3744017"><ele>249.5</ele><time>2026-04-12T07:48:18.408Z</time></trkpt><trkpt lat="45.6323125" lon="11.3743032"><ele>247.25</ele><time>2026-04-12T07:48:19.409Z</time></trkpt><trkpt lat="45.6322182" lon="11.3741883"><ele>245.0</ele><time>2026-04-12T07:48:20.409Z</time></trkpt><trkpt lat="45.632137" lon="11.3740773"><ele>245.0</ele><time>2026-04-12T07:48:21.408Z</time></trkpt><trkpt lat="45.6320644" lon="11.3740066"><ele>245.0</ele><time>2026-04-12T07:48:22.409Z</time></trkpt><trkpt lat="45.6319665" lon="11.3739391"><ele>245.0</ele><time>2026-04-12T07:48:23.408Z</time></trkpt><trkpt lat="45.6318655" lon="11.3738605"><ele>245.0</ele><time>2026-04-12T07:48:24.408Z</time></trkpt><trkpt lat="45.6317929" lon="11.3737793"><ele>245.0</ele><time>2026-04-12T07:48:25.407Z</time></trkpt><trkpt lat="45.6317017" lon="11.3737139"><ele>245.16666666666669</ele><time>2026-04-12T07:48:26.408Z</time></trkpt><trkpt lat="45.6316218" lon="11.373653"><ele>245.33333333333334</ele><time>2026-04-12T07:48:27.408Z</time></trkpt><trkpt lat="45.6315428" lon="11.373614"><ele>245.5</ele><time>2026-04-12T07:48:28.409Z</time></trkpt><trkpt lat="45.6314642" lon="11.3735632"><ele>245.66666666666669</ele><time>2026-04-12T07:48:29.408Z</time></trkpt><trkpt lat="45.6313972" lon="11.3735165"><ele>245.83333333333334</ele><time>2026-04-12T07:48:30.408Z</time></trkpt><trkpt lat="45.6313402" lon="11.3734686"><ele>246.0</ele><time>2026-04-12T07:48:31.408Z</time></trkpt><trkpt lat="45.6312796" lon="11.3734211"><ele>246.0</ele><time>2026-04-12T07:48:32.409Z</time></trkpt><trkpt lat="45.6312296" lon="11.3733126"><ele>246.0</ele><time>2026-04-12T07:48:35.409Z</time></trkpt><trkpt lat="45.631231" lon="11.373193"><ele>246.0</ele><time>2026-04-12T07:48:44.409Z</time></trkpt><trkpt lat="45.6311557" lon="11.3732516"><ele>246.0</ele><time>2026-04-12T07:48:47.409Z</time></trkpt><trkpt lat="45.6310711" lon="11.3732598"><ele>246.0</ele><time>2026-04-12T07:48:49.408Z</time></trkpt><trkpt lat="45.630984" lon="11.3732974"><ele>246.0</ele><time>2026-04-12T07:48:51.409Z</time></trkpt><trkpt lat="45.6308937" lon="11.3733072"><ele>247.16666666666666</ele><time>2026-04-12T07:48:54.409Z</time></trkpt><trkpt lat="45.6308277" lon="11.373336"><ele>248.33333333333331</ele><time>2026-04-12T07:48:58.408Z</time></trkpt><trkpt lat="45.6307475" lon="11.373374"><ele>249.5</ele><time>2026-04-12T07:49:00.408Z</time></trkpt><trkpt lat="45.6306677" lon="11.3733957"><ele>250.66666666666666</ele><time>2026-04-12T07:49:07.409Z</time></trkpt><trkpt lat="45.6306015" lon="11.3734224"><ele>251.83333333333331</ele><time>2026-04-12T07:49:10.408Z</time></trkpt><trkpt lat="45.6305645" lon="11.3735175"><ele>253.0</ele><time>2026-04-12T07:49:17.409Z</time></trkpt><trkpt lat="45.630519" lon="11.3736066"><ele>253.00000000000003</ele><time>2026-04-12T07:49:21.408Z</time></trkpt><trkpt lat="45.6304566" lon="11.3736571"><ele>253.0</ele><time>2026-04-12T07:49:25.408Z</time></trkpt><trkpt lat="45.6303957" lon="11.3737241"><ele>253.00000000000003</ele><time>2026-04-12T07:49:29.409Z</time></trkpt><trkpt lat="45.6303428" lon="11.3737938"><ele>253.00000000000003</ele><time>2026-04-12T07:49:32.408Z</time></trkpt><trkpt lat="45.630278" lon="11.3738531"><ele>253.0</ele><time>2026-04-12T07:49:35.408Z</time></trkpt><trkpt lat="45.63022" lon="11.3738949"><ele>253.00000000000003</ele><time>2026-04-12T07:49:38.409Z</time></trkpt><trkpt lat="45.6301559" lon="11.3739416"><ele>253.00000000000003</ele><time>2026-04-12T07:49:41.408Z</time></trkpt><trkpt lat="45.6300886" lon="11.3740016"><ele>252.71428571428575</ele><time>2026-04-12T07:49:45.408Z</time></trkpt><trkpt lat="45.6300252" lon="11.374043"><ele>252.42857142857144</ele><time>2026-04-12T07:49:48.408Z</time></trkpt><trkpt lat="45.629949" lon="11.3740464"><ele>252.14285714285714</ele><time>2026-04-12T07:49:52.408Z</time></trkpt><trkpt lat="45.6298769" lon="11.374048"><ele>251.85714285714286</ele><time>2026-04-12T07:49:57.409Z</time></trkpt><trkpt lat="45.6298021" lon="11.3740456"><ele>251.57142857142856</ele><time>2026-04-12T07:50:02.409Z</time></trkpt><trkpt lat="45.6297335" lon="11.3740602"><ele>251.28571428571425</ele><time>2026-04-12T07:50:08.409Z</time></trkpt><trkpt lat="45.629671" lon="11.3740725"><ele>250.99999999999997</ele><time>2026-04-12T07:50:13.409Z</time></trkpt><trkpt lat="45.6295971" lon="11.3740564"><ele>250.99999999999997</ele><time>2026-04-12T07:50:18.409Z</time></trkpt><trkpt lat="45.6295308" lon="11.3740604"><ele>251.0</ele><time>2026-04-12T07:50:21.408Z</time></trkpt><trkpt lat="45.6294569" lon="11.3740767"><ele>250.99999999999997</ele><time>2026-04-12T07:50:24.409Z</time></trkpt><trkpt lat="45.6293903" lon="11.3740646"><ele>250.99999999999997</ele><time>2026-04-12T07:50:27.409Z</time></trkpt><trkpt lat="45.6293228" lon="11.3740561"><ele>251.0</ele><time>2026-04-12T07:50:31.408Z</time></trkpt><trkpt lat="45.6292577" lon="11.3740231"><ele>250.99999999999997</ele><time>2026-04-12T07:50:35.409Z</time></trkpt><trkpt lat="45.6291946" lon="11.3740381"><ele>250.99999999999997</ele><time>2026-04-12T07:50:38.408Z</time></trkpt><trkpt lat="45.6291291" lon="11.3740583"><ele>251.66666666666669</ele><time>2026-04-12T07:50:41.408Z</time></trkpt><trkpt lat="45.6290468" lon="11.3740806"><ele>252.33333333333334</ele><time>2026-04-12T07:50:45.409Z</time></trkpt><trkpt lat="45.628968" lon="11.3740761"><ele>253.0</ele><time>2026-04-12T07:50:49.409Z</time></trkpt><trkpt lat="45.6288947" lon="11.3740515"><ele>253.66666666666669</ele><time>2026-04-12T07:50:55.409Z</time></trkpt><trkpt lat="45.6288235" lon="11.3740497"><ele>254.33333333333334</ele><time>2026-04-12T07:51:01.409Z</time></trkpt><trkpt lat="45.6287476" lon="11.3740594"><ele>255.0</ele><time>2026-04-12T07:51:06.407Z</time></trkpt><trkpt lat="45.6286857" lon="11.3740927"><ele>257.57142857142856</ele><time>2026-04-12T07:51:12.408Z</time></trkpt><trkpt lat="45.6286313" lon="11.3741492"><ele>260.14285714285717</ele><time>2026-04-12T07:51:18.408Z</time></trkpt><trkpt lat="45.6285796" lon="11.3742274"><ele>262.7142857142857</ele><time>2026-04-12T07:51:24.408Z</time></trkpt><trkpt lat="45.6285123" lon="11.3742761"><ele>265.2857142857143</ele><time>2026-04-12T07:51:29.408Z</time></trkpt><trkpt lat="45.6284536" lon="11.3743463"><ele>267.8571428571429</ele><time>2026-04-12T07:51:34.408Z</time></trkpt><trkpt lat="45.6283845" lon="11.3744022"><ele>270.42857142857144</ele><time>2026-04-12T07:51:39.409Z</time></trkpt><trkpt lat="45.6283234" lon="11.3744399"><ele>273.0</ele><time>2026-04-12T07:51:43.409Z</time></trkpt><trkpt lat="45.6282491" lon="11.3744611"><ele>273.0</ele><time>2026-04-12T07:51:48.408Z</time></trkpt><trkpt lat="45.6281652" lon="11.374484"><ele>273.0</ele><time>2026-04-12T07:51:52.409Z</time></trkpt><trkpt lat="45.6281025" lon="11.374494"><ele>273.0</ele><time>2026-04-12T07:51:55.408Z</time></trkpt><trkpt lat="45.6280236" lon="11.3744921"><ele>273.0</ele><time>2026-04-12T07:51:59.408Z</time></trkpt><trkpt lat="45.6279468" lon="11.3744863"><ele>273.0</ele><time>2026-04-12T07:52:04.408Z</time></trkpt><trkpt lat="45.6278818" lon="11.3744862"><ele>273.0</ele><time>2026-04-12T07:52:08.409Z</time></trkpt><trkpt lat="45.6278095" lon="11.3744737"><ele>273.0</ele><time>2026-04-12T07:52:12.409Z</time></trkpt><trkpt lat="45.6277452" lon="11.3744935"><ele>274.57142857142856</ele><time>2026-04-12T07:52:19.408Z</time></trkpt><trkpt lat="45.6276797" lon="11.3744834"><ele>276.1428571428571</ele><time>2026-04-12T07:52:22.408Z</time></trkpt><trkpt lat="45.6276092" lon="11.3744681"><ele>277.7142857142857</ele><time>2026-04-12T07:52:25.409Z</time></trkpt><trkpt lat="45.6275347" lon="11.3744553"><ele>279.2857142857143</ele><time>2026-04-12T07:52:28.408Z</time></trkpt><trkpt lat="45.627457" lon="11.374451"><ele>280.85714285714283</ele><time>2026-04-12T07:52:31.409Z</time></trkpt><trkpt lat="45.6273864" lon="11.3744548"><ele>282.42857142857144</ele><time>2026-04-12T07:52:35.408Z</time></trkpt><trkpt lat="45.6273141" lon="11.3744572"><ele>284.0</ele><time>2026-04-12T07:52:40.409Z</time></trkpt><trkpt lat="45.6272393" lon="11.3744189"><ele>284.0</ele><time>2026-04-12T07:52:45.408Z</time></trkpt><trkpt lat="45.6271662" lon="11.3744169"><ele>284.0</ele><time>2026-04-12T07:52:49.408Z</time></trkpt><trkpt lat="45.6271083" lon="11.3743618"><ele>284.0</ele><time>2026-04-12T07:52:53.409Z</time></trkpt><trkpt lat="45.6270356" lon="11.3743567"><ele>284.0</ele><time>2026-04-12T07:52:58.408Z</time></trkpt><trkpt lat="45.626964" lon="11.3743414"><ele>284.0</ele><time>2026-04-12T07:53:04.408Z</time></trkpt><trkpt lat="45.6268994" lon="11.3743058"><ele>284.0</ele><time>2026-04-12T07:53:10.409Z</time></trkpt><trkpt lat="45.6268367" lon="11.3742917"><ele>284.0</ele><time>2026-04-12T07:53:16.409Z</time></trkpt><trkpt lat="45.626773" lon="11.3743065"><ele>286.2857142857143</ele><time>2026-04-12T07:53:22.409Z</time></trkpt><trkpt lat="45.6266934" lon="11.3743285"><ele>288.57142857142856</ele><time>2026-04-12T07:53:30.408Z</time></trkpt><trkpt lat="45.6266222" lon="11.3743368"><ele>290.85714285714283</ele><time>2026-04-12T07:53:34.408Z</time></trkpt><trkpt lat="45.6265593" lon="11.3743253"><ele>293.1428571428571</ele><time>2026-04-12T07:53:38.409Z</time></trkpt><trkpt lat="45.6264882" lon="11.3742864"><ele>295.42857142857144</ele><time>2026-04-12T07:53:45.409Z</time></trkpt><trkpt lat="45.6264248" lon="11.3742973"><ele>297.71428571428567</ele><time>2026-04-12T07:53:49.409Z</time></trkpt><trkpt lat="45.6263531" lon="11.3743053"><ele>300.0</ele><time>2026-04-12T07:53:56.409Z</time></trkpt><trkpt lat="45.6262879" lon="11.374323"><ele>299.99999999999994</ele><time>2026-04-12T07:54:02.409Z</time></trkpt><trkpt lat="45.6262236" lon="11.3743636"><ele>300.0</ele><time>2026-04-12T07:54:09.409Z</time></trkpt><trkpt lat="45.6261622" lon="11.3743942"><ele>300.0</ele><time>2026-04-12T07:54:14.409Z</time></trkpt><trkpt lat="45.6261089" lon="11.3744451"><ele>300.0</ele><time>2026-04-12T07:54:17.409Z</time></trkpt><trkpt lat="45.6260346" lon="11.374487"><ele>300.0</ele><time>2026-04-12T07:54:20.409Z</time></trkpt><trkpt lat="45.6259674" lon="11.3745522"><ele>299.99999999999994</ele><time>2026-04-12T07:54:24.407Z</time></trkpt><trkpt lat="45.6259029" lon="11.3746197"><ele>300.0</ele><time>2026-04-12T07:54:28.408Z</time></trkpt><trkpt lat="45.625846" lon="11.3746797"><ele>297.6666666666667</ele><time>2026-04-12T07:54:32.408Z</time></trkpt><trkpt lat="45.6257756" lon="11.3747518"><ele>295.3333333333333</ele><time>2026-04-12T07:54:36.408Z</time></trkpt><trkpt lat="45.6257151" lon="11.3747992"><ele>293.0</ele><time>2026-04-12T07:54:39.409Z</time></trkpt><trkpt lat="45.6256614" lon="11.3748882"><ele>290.66666666666663</ele><time>2026-04-12T07:54:42.409Z</time></trkpt><trkpt lat="45.6256051" lon="11.3749711"><ele>288.3333333333333</ele><time>2026-04-12T07:54:45.408Z</time></trkpt><trkpt lat="45.6255492" lon="11.3750767"><ele>286.0</ele><time>2026-04-12T07:54:48.408Z</time></trkpt><trkpt lat="45.6255026" lon="11.3751438"><ele>286.0</ele><time>2026-04-12T07:54:50.408Z</time></trkpt><trkpt lat="45.6254494" lon="11.375212"><ele>286.0</ele><time>2026-04-12T07:54:52.407Z</time></trkpt><trkpt lat="45.6253607" lon="11.3752651"><ele>286.0</ele><time>2026-04-12T07:54:55.409Z</time></trkpt><trkpt lat="45.6252959" lon="11.3752656"><ele>286.0</ele><time>2026-04-12T07:54:57.409Z</time></trkpt><trkpt lat="45.6252131" lon="11.3752507"><ele>286.0</ele><time>2026-04-12T07:55:00.409Z</time></trkpt><trkpt lat="45.6251461" lon="11.375236"><ele>286.0</ele><time>2026-04-12T07:55:03.408Z</time></trkpt><trkpt lat="45.6250598" lon="11.3752188"><ele>285.2</ele><time>2026-04-12T07:55:06.409Z</time></trkpt><trkpt lat="45.6249871" lon="11.375248"><ele>284.40000000000003</ele><time>2026-04-12T07:55:08.409Z</time></trkpt><trkpt lat="45.6248977" lon="11.3753079"><ele>283.6</ele><time>2026-04-12T07:55:10.408Z</time></trkpt><trkpt lat="45.6248053" lon="11.375377"><ele>282.8</ele><time>2026-04-12T07:55:12.408Z</time></trkpt><trkpt lat="45.6247003" lon="11.3754604"><ele>282.0</ele><time>2026-04-12T07:55:14.408Z</time></trkpt><trkpt lat="45.6246293" lon="11.3755559"><ele>282.0</ele><time>2026-04-12T07:55:16.409Z</time></trkpt><trkpt lat="45.6245512" lon="11.375625"><ele>282.0</ele><time>2026-04-12T07:55:18.408Z</time></trkpt><trkpt lat="45.6244766" lon="11.3756776"><ele>282.0</ele><time>2026-04-12T07:55:20.408Z</time></trkpt><trkpt lat="45.6244155" lon="11.3757324"><ele>282.0</ele><time>2026-04-12T07:55:22.409Z</time></trkpt><trkpt lat="45.6243527" lon="11.3757883"><ele>282.0</ele><time>2026-04-12T07:55:24.409Z</time></trkpt><trkpt lat="45.6242757" lon="11.3758636"><ele>282.0</ele><time>2026-04-12T07:55:27.409Z</time></trkpt><trkpt lat="45.6242102" lon="11.3759004"><ele>285.1666666666667</ele><time>2026-04-12T07:55:29.409Z</time></trkpt><trkpt lat="45.6241312" lon="11.3759383"><ele>288.3333333333333</ele><time>2026-04-12T07:55:31.409Z</time></trkpt><trkpt lat="45.6240543" lon="11.3759769"><ele>291.5</ele><time>2026-04-12T07:55:33.409Z</time></trkpt><trkpt lat="45.6239786" lon="11.3760191"><ele>294.66666666666663</ele><time>2026-04-12T07:55:35.409Z</time></trkpt><trkpt lat="45.6239173" lon="11.3760543"><ele>297.8333333333333</ele><time>2026-04-12T07:55:37.408Z</time></trkpt><trkpt lat="45.623849" lon="11.3760945"><ele>301.0</ele><time>2026-04-12T07:55:39.409Z</time></trkpt><trkpt lat="45.6237655" lon="11.3761459"><ele>301.0</ele><time>2026-04-12T07:55:41.409Z</time></trkpt><trkpt lat="45.6236851" lon="11.3762006"><ele>301.0</ele><time>2026-04-12T07:55:43.408Z</time></trkpt><trkpt lat="45.623613" lon="11.3762568"><ele>301.0</ele><time>2026-04-12T07:55:45.409Z</time></trkpt><trkpt lat="45.6235432" lon="11.3762942"><ele>301.0</ele><time>2026-04-12T07:55:47.408Z</time></trkpt><trkpt lat="45.6234801" lon="11.3763335"><ele>301.0</ele><time>2026-04-12T07:55:49.409Z</time></trkpt><trkpt lat="45.623403" lon="11.3763981"><ele>301.0</ele><time>2026-04-12T07:55:52.408Z</time></trkpt><trkpt lat="45.6233397" lon="11.3764689"><ele>301.0</ele><time>2026-04-12T07:55:55.408Z</time></trkpt><trkpt lat="45.6232693" lon="11.3765106"><ele>301.0</ele><time>2026-04-12T07:55:58.408Z</time></trkpt><trkpt lat="45.6232088" lon="11.37655"><ele>301.0</ele><time>2026-04-12T07:56:00.409Z</time></trkpt><trkpt lat="45.6231475" lon="11.3765921"><ele>301.0</ele><time>2026-04-12T07:56:02.409Z</time></trkpt><trkpt lat="45.6230863" lon="11.3766132"><ele>301.0</ele><time>2026-04-12T07:56:04.408Z</time></trkpt><trkpt lat="45.6230193" lon="11.376617"><ele>301.0</ele><time>2026-04-12T07:56:06.409Z</time></trkpt><trkpt lat="45.6229528" lon="11.3766169"><ele>301.0</ele><time>2026-04-12T07:56:08.408Z</time></trkpt><trkpt lat="45.6228822" lon="11.3766135"><ele>301.5</ele><time>2026-04-12T07:56:10.409Z</time></trkpt><trkpt lat="45.6227993" lon="11.3766112"><ele>302.0</ele><time>2026-04-12T07:56:13.409Z</time></trkpt><trkpt lat="45.6227302" lon="11.376628"><ele>302.5</ele><time>2026-04-12T07:56:15.409Z</time></trkpt><trkpt lat="45.6226545" lon="11.3766471"><ele>303.0</ele><time>2026-04-12T07:56:17.408Z</time></trkpt><trkpt lat="45.6225896" lon="11.3766443"><ele>303.5</ele><time>2026-04-12T07:56:19.408Z</time></trkpt><trkpt lat="45.6225055" lon="11.3766007"><ele>304.0</ele><time>2026-04-12T07:56:22.408Z</time></trkpt><trkpt lat="45.6224295" lon="11.3765618"><ele>304.0</ele><time>2026-04-12T07:56:24.409Z</time></trkpt><trkpt lat="45.6223551" lon="11.3765234"><ele>304.0</ele><time>2026-04-12T07:56:26.409Z</time></trkpt><trkpt lat="45.6222597" lon="11.376431"><ele>304.0</ele><time>2026-04-12T07:56:28.407Z</time></trkpt><trkpt lat="45.6222096" lon="11.3763696"><ele>304.0</ele><time>2026-04-12T07:56:29.409Z</time></trkpt><trkpt lat="45.6221543" lon="11.3763105"><ele>304.0</ele><time>2026-04-12T07:56:30.409Z</time></trkpt><trkpt lat="45.6220925" lon="11.3762564"><ele>304.0</ele><time>2026-04-12T07:56:31.409Z</time></trkpt><trkpt lat="45.6220183" lon="11.3762036"><ele>304.16666666666663</ele><time>2026-04-12T07:56:32.408Z</time></trkpt><trkpt lat="45.6218834" lon="11.376164"><ele>304.3333333333333</ele><time>2026-04-12T07:56:33.408Z</time></trkpt><trkpt lat="45.6218238" lon="11.376125"><ele>304.5</ele><time>2026-04-12T07:56:34.408Z</time></trkpt><trkpt lat="45.6217376" lon="11.3760666"><ele>304.6666666666667</ele><time>2026-04-12T07:56:36.408Z</time></trkpt><trkpt lat="45.6216855" lon="11.3760058"><ele>304.83333333333337</ele><time>2026-04-12T07:56:38.408Z</time></trkpt><trkpt lat="45.6217564" lon="11.3759436"><ele>305.0</ele><time>2026-04-12T07:56:43.409Z</time></trkpt><trkpt lat="45.6218199" lon="11.3759227"><ele>305.0</ele><time>2026-04-12T07:56:46.408Z</time></trkpt><trkpt lat="45.6218812" lon="11.3758884"><ele>305.0</ele><time>2026-04-12T07:56:50.408Z</time></trkpt><trkpt lat="45.6219524" lon="11.3758535"><ele>305.0</ele><time>2026-04-12T07:56:54.409Z</time></trkpt><trkpt lat="45.6220302" lon="11.3758147"><ele>305.0</ele><time>2026-04-12T07:56:58.409Z</time></trkpt><trkpt lat="45.6221111" lon="11.3757962"><ele>305.0</ele><time>2026-04-12T07:57:02.409Z</time></trkpt><trkpt lat="45.6221806" lon="11.3757732"><ele>305.0</ele><time>2026-04-12T07:57:05.407Z</time></trkpt><trkpt lat="45.6222449" lon="11.3757434"><ele>305.0</ele><time>2026-04-12T07:57:08.409Z</time></trkpt><trkpt lat="45.6223003" lon="11.3756956"><ele>306.2857142857143</ele><time>2026-04-12T07:57:11.408Z</time></trkpt><trkpt lat="45.6223544" lon="11.3756339"><ele>307.57142857142856</ele><time>2026-04-12T07:57:14.409Z</time></trkpt><trkpt lat="45.6224065" lon="11.3755715"><ele>308.85714285714283</ele><time>2026-04-12T07:57:17.409Z</time></trkpt><trkpt lat="45.6224416" lon="11.3754874"><ele>310.1428571428571</ele><time>2026-04-12T07:57:20.409Z</time></trkpt><trkpt lat="45.6224808" lon="11.3754062"><ele>311.42857142857144</ele><time>2026-04-12T07:57:23.408Z</time></trkpt><trkpt lat="45.6225093" lon="11.3752932"><ele>312.71428571428567</ele><time>2026-04-12T07:57:27.409Z</time></trkpt><trkpt lat="45.6225545" lon="11.3751924"><ele>314.0</ele><time>2026-04-12T07:57:31.408Z</time></trkpt><trkpt lat="45.6225952" lon="11.3751064"><ele>313.0</ele><time>2026-04-12T07:57:34.409Z</time></trkpt><trkpt lat="45.6226377" lon="11.3750201"><ele>312.0</ele><time>2026-04-12T07:57:37.409Z</time></trkpt><trkpt lat="45.6226887" lon="11.3749415"><ele>311.0</ele><time>2026-04-12T07:57:40.409Z</time></trkpt><trkpt lat="45.6227315" lon="11.3748523"><ele>310.0</ele><time>2026-04-12T07:57:43.409Z</time></trkpt><trkpt lat="45.6227764" lon="11.3747615"><ele>309.0</ele><time>2026-04-12T07:57:46.409Z</time></trkpt><trkpt lat="45.6228278" lon="11.3746811"><ele>308.0</ele><time>2026-04-12T07:57:49.409Z</time></trkpt><trkpt lat="45.6228634" lon="11.3745903"><ele>308.0</ele><time>2026-04-12T07:57:52.409Z</time></trkpt><trkpt lat="45.6229059" lon="11.3744997"><ele>308.0</ele><time>2026-04-12T07:57:55.408Z</time></trkpt><trkpt lat="45.6229045" lon="11.3744073"><ele>308.0</ele><time>2026-04-12T07:57:59.409Z</time></trkpt><trkpt lat="45.6229024" lon="11.374288"><ele>308.0</ele><time>2026-04-12T07:58:03.409Z</time></trkpt><trkpt lat="45.6229123" lon="11.3741726"><ele>308.0</ele><time>2026-04-12T07:58:06.408Z</time></trkpt><trkpt lat="45.6229105" lon="11.3740637"><ele>308.0</ele><time>2026-04-12T07:58:09.409Z</time></trkpt><trkpt lat="45.6229211" lon="11.3739684"><ele>308.0</ele><time>2026-04-12T07:58:12.409Z</time></trkpt><trkpt lat="45.6229614" lon="11.3738706"><ele>310.57142857142856</ele><time>2026-04-12T07:58:16.408Z</time></trkpt><trkpt lat="45.6229932" lon="11.3737849"><ele>313.1428571428571</ele><time>2026-04-12T07:58:19.407Z</time></trkpt><trkpt lat="45.6230417" lon="11.3736977"><ele>315.7142857142857</ele><time>2026-04-12T07:58:22.408Z</time></trkpt><trkpt lat="45.6230771" lon="11.373612"><ele>318.2857142857143</ele><time>2026-04-12T07:58:25.408Z</time></trkpt><trkpt lat="45.6231049" lon="11.3735206"><ele>320.85714285714283</ele><time>2026-04-12T07:58:28.409Z</time></trkpt><trkpt lat="45.6231312" lon="11.3734347"><ele>323.42857142857144</ele><time>2026-04-12T07:58:31.409Z</time></trkpt><trkpt lat="45.623163" lon="11.3733538"><ele>326.0</ele><time>2026-04-12T07:58:34.409Z</time></trkpt><trkpt lat="45.6232111" lon="11.3732652"><ele>326.0</ele><time>2026-04-12T07:58:38.409Z</time></trkpt><trkpt lat="45.6232605" lon="11.3731931"><ele>326.0</ele><time>2026-04-12T07:58:43.407Z</time></trkpt><trkpt lat="45.6233144" lon="11.3731143"><ele>326.0</ele><time>2026-04-12T07:58:48.407Z</time></trkpt><trkpt lat="45.6233833" lon="11.3730602"><ele>326.0</ele><time>2026-04-12T07:58:53.407Z</time></trkpt><trkpt lat="45.6234366" lon="11.3729856"><ele>326.0</ele><time>2026-04-12T07:58:57.408Z</time></trkpt><trkpt lat="45.6234942" lon="11.3729159"><ele>326.0</ele><time>2026-04-12T07:59:02.408Z</time></trkpt><trkpt lat="45.6235595" lon="11.37287"><ele>326.0</ele><time>2026-04-12T07:59:08.408Z</time></trkpt><trkpt lat="45.6236941" lon="11.3728642"><ele>326.7142857142857</ele><time>2026-04-12T07:59:19.408Z</time></trkpt><trkpt lat="45.623768" lon="11.3728347"><ele>327.4285714285714</ele><time>2026-04-12T07:59:24.408Z</time></trkpt><trkpt lat="45.6238223" lon="11.372772"><ele>328.1428571428571</ele><time>2026-04-12T07:59:27.408Z</time></trkpt><trkpt lat="45.6238744" lon="11.3726839"><ele>328.8571428571429</ele><time>2026-04-12T07:59:30.407Z</time></trkpt><trkpt lat="45.6239157" lon="11.3725939"><ele>329.57142857142856</ele><time>2026-04-12T07:59:33.407Z</time></trkpt><trkpt lat="45.6239431" lon="11.3725008"><ele>330.2857142857143</ele><time>2026-04-12T07:59:36.408Z</time></trkpt><trkpt lat="45.6239531" lon="11.3724093"><ele>331.0</ele><time>2026-04-12T07:59:39.408Z</time></trkpt><trkpt lat="45.6239548" lon="11.372295"><ele>331.0</ele><time>2026-04-12T07:59:43.407Z</time></trkpt><trkpt lat="45.6239738" lon="11.372197"><ele>331.0</ele><time>2026-04-12T07:59:47.407Z</time></trkpt><trkpt lat="45.6239967" lon="11.3720856"><ele>331.0</ele><time>2026-04-12T07:59:51.408Z</time></trkpt><trkpt lat="45.6240072" lon="11.3719935"><ele>331.0</ele><time>2026-04-12T07:59:54.407Z</time></trkpt><trkpt lat="45.6240321" lon="11.3718848"><ele>331.0</ele><time>2026-04-12T07:59:58.408Z</time></trkpt><trkpt lat="45.6240794" lon="11.3717901"><ele>331.0</ele><time>2026-04-12T08:00:02.407Z</time></trkpt><trkpt lat="45.6241338" lon="11.3717154"><ele>332.2857142857143</ele><time>2026-04-12T08:00:05.408Z</time></trkpt><trkpt lat="45.6241928" lon="11.3716517"><ele>333.57142857142856</ele><time>2026-04-12T08:00:08.408Z</time></trkpt><trkpt lat="45.6242523" lon="11.3715838"><ele>334.8571428571429</ele><time>2026-04-12T08:00:11.407Z</time></trkpt><trkpt lat="45.6243152" lon="11.3715192"><ele>336.1428571428571</ele><time>2026-04-12T08:00:14.407Z</time></trkpt><trkpt lat="45.6243669" lon="11.3714543"><ele>337.4285714285714</ele><time>2026-04-12T08:00:17.408Z</time></trkpt><trkpt lat="45.6244213" lon="11.3714063"><ele>338.7142857142857</ele><time>2026-04-12T08:00:20.408Z</time></trkpt><trkpt lat="45.6244433" lon="11.3713209"><ele>340.0</ele><time>2026-04-12T08:00:24.408Z</time></trkpt><trkpt lat="45.6244073" lon="11.371242"><ele>340.0</ele><time>2026-04-12T08:00:28.408Z</time></trkpt><trkpt lat="45.6243574" lon="11.3711817"><ele>340.0</ele><time>2026-04-12T08:00:32.407Z</time></trkpt><trkpt lat="45.6242853" lon="11.3711364"><ele>340.0</ele><time>2026-04-12T08:00:35.408Z</time></trkpt><trkpt lat="45.6242068" lon="11.3710744"><ele>340.0</ele><time>2026-04-12T08:00:38.407Z</time></trkpt><trkpt lat="45.6241487" lon="11.3710305"><ele>340.0</ele><time>2026-04-12T08:00:40.407Z</time></trkpt><trkpt lat="45.624094" lon="11.3709783"><ele>340.0</ele><time>2026-04-12T08:00:42.408Z</time></trkpt><trkpt lat="45.624045" lon="11.3709204"><ele>340.0</ele><time>2026-04-12T08:00:44.407Z</time></trkpt><trkpt lat="45.6239814" lon="11.3708639"><ele>340.0</ele><time>2026-04-12T08:00:46.408Z</time></trkpt><trkpt lat="45.6239055" lon="11.3708092"><ele>340.0</ele><time>2026-04-12T08:00:48.408Z</time></trkpt><trkpt lat="45.6238268" lon="11.370779"><ele>340.0</ele><time>2026-04-12T08:00:52.407Z</time></trkpt><trkpt lat="45.6237362" lon="11.3707083"><ele>340.0</ele><time>2026-04-12T08:00:54.408Z</time></trkpt><trkpt lat="45.6236398" lon="11.3705998"><ele>340.0</ele><time>2026-04-12T08:00:56.407Z</time></trkpt><trkpt lat="45.6235277" lon="11.3704358"><ele>339.2</ele><time>2026-04-12T08:00:57.408Z</time></trkpt><trkpt lat="45.623453" lon="11.3703245"><ele>338.4</ele><time>2026-04-12T08:00:59.407Z</time></trkpt><trkpt lat="45.6233634" lon="11.3702372"><ele>337.6</ele><time>2026-04-12T08:01:01.407Z</time></trkpt><trkpt lat="45.623285" lon="11.3701063"><ele>336.8</ele><time>2026-04-12T08:01:03.408Z</time></trkpt><trkpt lat="45.6232021" lon="11.3700503"><ele>336.0</ele><time>2026-04-12T08:01:05.408Z</time></trkpt><trkpt lat="45.6231408" lon="11.3700247"><ele>336.0</ele><time>2026-04-12T08:01:06.408Z</time></trkpt><trkpt lat="45.623034" lon="11.369956"><ele>336.0</ele><time>2026-04-12T08:01:08.407Z</time></trkpt><trkpt lat="45.6229393" lon="11.3699257"><ele>336.0</ele><time>2026-04-12T08:01:10.408Z</time></trkpt><trkpt lat="45.6228702" lon="11.3698688"><ele>336.0</ele><time>2026-04-12T08:01:12.408Z</time></trkpt><trkpt lat="45.6228078" lon="11.3698535"><ele>336.0</ele><time>2026-04-12T08:01:13.407Z</time></trkpt><trkpt lat="45.6227404" lon="11.3698196"><ele>336.0</ele><time>2026-04-12T08:01:15.408Z</time></trkpt><trkpt lat="45.622656" lon="11.3697829"><ele>336.8333333333333</ele><time>2026-04-12T08:01:17.408Z</time></trkpt><trkpt lat="45.6225908" lon="11.369749"><ele>337.6666666666667</ele><time>2026-04-12T08:01:19.408Z</time></trkpt><trkpt lat="45.6225703" lon="11.3696503"><ele>338.5</ele><time>2026-04-12T08:01:22.406Z</time></trkpt><trkpt lat="45.6224763" lon="11.3695918"><ele>339.33333333333337</ele><time>2026-04-12T08:01:25.408Z</time></trkpt><trkpt lat="45.6224057" lon="11.3695439"><ele>340.1666666666667</ele><time>2026-04-12T08:01:27.408Z</time></trkpt><trkpt lat="45.6223353" lon="11.3694885"><ele>341.0</ele><time>2026-04-12T08:01:29.407Z</time></trkpt><trkpt lat="45.6222673" lon="11.3694121"><ele>341.0</ele><time>2026-04-12T08:01:32.408Z</time></trkpt><trkpt lat="45.6222236" lon="11.3693343"><ele>341.0</ele><time>2026-04-12T08:01:37.407Z</time></trkpt><trkpt lat="45.6222838" lon="11.3694111"><ele>341.0</ele><time>2026-04-12T08:01:41.408Z</time></trkpt><trkpt lat="45.6223306" lon="11.369491"><ele>341.0</ele><time>2026-04-12T08:01:43.408Z</time></trkpt><trkpt lat="45.6223988" lon="11.3695691"><ele>341.0</ele><time>2026-04-12T08:01:45.408Z</time></trkpt><trkpt lat="45.6224729" lon="11.3696503"><ele>341.0</ele><time>2026-04-12T08:01:47.408Z</time></trkpt><trkpt lat="45.6225578" lon="11.3697343"><ele>341.6</ele><time>2026-04-12T08:01:49.407Z</time></trkpt><trkpt lat="45.6226721" lon="11.3697732"><ele>342.20000000000005</ele><time>2026-04-12T08:01:51.408Z</time></trkpt><trkpt lat="45.6227599" lon="11.3698141"><ele>342.79999999999995</ele><time>2026-04-12T08:01:53.408Z</time></trkpt><trkpt lat="45.6228487" lon="11.3698503"><ele>343.4</ele><time>2026-04-12T08:01:55.403Z</time></trkpt><trkpt lat="45.6229359" lon="11.3698922"><ele>344.0</ele><time>2026-04-12T08:01:57.408Z</time></trkpt><trkpt lat="45.6230122" lon="11.369929"><ele>342.6666666666667</ele><time>2026-04-12T08:01:59.408Z</time></trkpt><trkpt lat="45.6230902" lon="11.3699555"><ele>341.33333333333337</ele><time>2026-04-12T08:02:01.408Z</time></trkpt><trkpt lat="45.623164" lon="11.3699977"><ele>340.0</ele><time>2026-04-12T08:02:03.408Z</time></trkpt><trkpt lat="45.6232373" lon="11.3700618"><ele>338.6666666666667</ele><time>2026-04-12T08:02:05.408Z</time></trkpt><trkpt lat="45.6233027" lon="11.3701308"><ele>337.3333333333333</ele><time>2026-04-12T08:02:07.408Z</time></trkpt><trkpt lat="45.623363" lon="11.370217"><ele>336.0</ele><time>2026-04-12T08:02:09.408Z</time></trkpt><trkpt lat="45.6234182" lon="11.3702964"><ele>336.0</ele><time>2026-04-12T08:02:11.406Z</time></trkpt><trkpt lat="45.6234863" lon="11.3703691"><ele>336.0</ele><time>2026-04-12T08:02:13.408Z</time></trkpt><trkpt lat="45.6235382" lon="11.3704503"><ele>336.0</ele><time>2026-04-12T08:02:15.408Z</time></trkpt><trkpt lat="45.6235829" lon="11.3705262"><ele>336.0</ele><time>2026-04-12T08:02:17.408Z</time></trkpt><trkpt lat="45.6236667" lon="11.3705973"><ele>336.0</ele><time>2026-04-12T08:02:19.406Z</time></trkpt><trkpt lat="45.623728" lon="11.3706526"><ele>336.0</ele><time>2026-04-12T08:02:21.407Z</time></trkpt><trkpt lat="45.6237834" lon="11.3707209"><ele>336.6666666666667</ele><time>2026-04-12T08:02:23.407Z</time></trkpt><trkpt lat="45.6238631" lon="11.3708118"><ele>337.3333333333333</ele><time>2026-04-12T08:02:26.408Z</time></trkpt><trkpt lat="45.6239435" lon="11.3708912"><ele>338.0</ele><time>2026-04-12T08:02:29.408Z</time></trkpt><trkpt lat="45.6240029" lon="11.3709515"><ele>338.66666666666663</ele><time>2026-04-12T08:02:31.406Z</time></trkpt><trkpt lat="45.6240622" lon="11.3710152"><ele>339.3333333333333</ele><time>2026-04-12T08:02:33.408Z</time></trkpt><trkpt lat="45.6241235" lon="11.3710684"><ele>340.0</ele><time>2026-04-12T08:02:35.407Z</time></trkpt><trkpt lat="45.6241932" lon="11.3711228"><ele>340.0</ele><time>2026-04-12T08:02:37.408Z</time></trkpt><trkpt lat="45.6242536" lon="11.3711818"><ele>340.0</ele><time>2026-04-12T08:02:39.408Z</time></trkpt><trkpt lat="45.624314" lon="11.3712345"><ele>340.0</ele><time>2026-04-12T08:02:41.408Z</time></trkpt><trkpt lat="45.6243772" lon="11.3712902"><ele>340.0</ele><time>2026-04-12T08:02:43.407Z</time></trkpt><trkpt lat="45.6244468" lon="11.3713299"><ele>340.0</ele><time>2026-04-12T08:02:45.407Z</time></trkpt><trkpt lat="45.6245141" lon="11.3712911"><ele>340.0</ele><time>2026-04-12T08:02:47.408Z</time></trkpt><trkpt lat="45.6245746" lon="11.3712393"><ele>340.0</ele><time>2026-04-12T08:02:49.408Z</time></trkpt><trkpt lat="45.6245307" lon="11.3713083"><ele>340.6</ele><time>2026-04-12T08:03:55.408Z</time></trkpt><trkpt lat="45.6244397" lon="11.3714561"><ele>341.2</ele><time>2026-04-12T08:03:58.408Z</time></trkpt><trkpt lat="45.6245148" lon="11.3715374"><ele>341.79999999999995</ele><time>2026-04-12T08:04:00.407Z</time></trkpt><trkpt lat="45.6245917" lon="11.3716034"><ele>342.4</ele><time>2026-04-12T08:04:02.407Z</time></trkpt><trkpt lat="45.6246756" lon="11.3716601"><ele>343.0</ele><time>2026-04-12T08:04:04.407Z</time></trkpt><trkpt lat="45.6247585" lon="11.3717012"><ele>343.66666666666663</ele><time>2026-04-12T08:04:06.408Z</time></trkpt><trkpt lat="45.6248421" lon="11.3717263"><ele>344.3333333333333</ele><time>2026-04-12T08:04:08.407Z</time></trkpt><trkpt lat="45.6249116" lon="11.371768"><ele>345.0</ele><time>2026-04-12T08:04:10.407Z</time></trkpt><trkpt lat="45.6249956" lon="11.3718088"><ele>345.6666666666667</ele><time>2026-04-12T08:04:13.408Z</time></trkpt><trkpt lat="45.6250703" lon="11.3718583"><ele>346.33333333333337</ele><time>2026-04-12T08:04:16.408Z</time></trkpt><trkpt lat="45.6251354" lon="11.3719013"><ele>347.0</ele><time>2026-04-12T08:04:19.407Z</time></trkpt><trkpt lat="45.6251967" lon="11.3719594"><ele>347.0</ele><time>2026-04-12T08:04:22.407Z</time></trkpt><trkpt lat="45.6252436" lon="11.3720324"><ele>347.0</ele><time>2026-04-12T08:04:25.407Z</time></trkpt><trkpt lat="45.6252511" lon="11.3721409"><ele>347.0</ele><time>2026-04-12T08:04:28.408Z</time></trkpt><trkpt lat="45.6252375" lon="11.372239"><ele>347.0</ele><time>2026-04-12T08:04:31.408Z</time></trkpt><trkpt lat="45.6252231" lon="11.3723449"><ele>347.0</ele><time>2026-04-12T08:04:34.407Z</time></trkpt><trkpt lat="45.6252338" lon="11.3724565"><ele>347.0</ele><time>2026-04-12T08:04:37.408Z</time></trkpt><trkpt lat="45.6252555" lon="11.3725568"><ele>347.0</ele><time>2026-04-12T08:04:40.408Z</time></trkpt><trkpt lat="45.6252813" lon="11.3726627"><ele>347.8571428571429</ele><time>2026-04-12T08:04:43.408Z</time></trkpt><trkpt lat="45.6253074" lon="11.3727574"><ele>348.71428571428567</ele><time>2026-04-12T08:04:46.408Z</time></trkpt><trkpt lat="45.6253341" lon="11.3728489"><ele>349.57142857142856</ele><time>2026-04-12T08:04:49.407Z</time></trkpt><trkpt lat="45.6253786" lon="11.3729629"><ele>350.42857142857144</ele><time>2026-04-12T08:04:52.406Z</time></trkpt><trkpt lat="45.6254108" lon="11.3730455"><ele>351.28571428571433</ele><time>2026-04-12T08:04:54.407Z</time></trkpt><trkpt lat="45.6254544" lon="11.3731262"><ele>352.1428571428571</ele><time>2026-04-12T08:04:56.408Z</time></trkpt><trkpt lat="45.625505" lon="11.3731952"><ele>353.0</ele><time>2026-04-12T08:04:58.408Z</time></trkpt><trkpt lat="45.6255706" lon="11.3733133"><ele>353.0</ele><time>2026-04-12T08:05:01.407Z</time></trkpt><trkpt lat="45.6256398" lon="11.3734767"><ele>353.0</ele><time>2026-04-12T08:05:03.408Z</time></trkpt><trkpt lat="45.6256752" lon="11.3735663"><ele>353.0</ele><time>2026-04-12T08:05:04.408Z</time></trkpt><trkpt lat="45.6257141" lon="11.373656"><ele>353.0</ele><time>2026-04-12T08:05:05.407Z</time></trkpt><trkpt lat="45.6257699" lon="11.3737475"><ele>353.0</ele><time>2026-04-12T08:05:06.407Z</time></trkpt><trkpt lat="45.6258382" lon="11.3738293"><ele>350.0</ele><time>2026-04-12T08:05:07.408Z</time></trkpt><trkpt lat="45.6259606" lon="11.3738798"><ele>347.0</ele><time>2026-04-12T08:05:08.408Z</time></trkpt><trkpt lat="45.6262084" lon="11.3737895"><ele>344.0</ele><time>2026-04-12T08:05:09.407Z</time></trkpt><trkpt lat="45.6263512" lon="11.3737738"><ele>344.0</ele><time>2026-04-12T08:05:10.408Z</time></trkpt><trkpt lat="45.6265008" lon="11.3737485"><ele>344.0</ele><time>2026-04-12T08:05:11.408Z</time></trkpt><trkpt lat="45.6266657" lon="11.373665"><ele>344.0</ele><time>2026-04-12T08:05:12.408Z</time></trkpt><trkpt lat="45.626797" lon="11.373573"><ele>344.0</ele><time>2026-04-12T08:05:13.407Z</time></trkpt><trkpt lat="45.6268988" lon="11.3735633"><ele>344.0</ele><time>2026-04-12T08:05:14.407Z</time></trkpt><trkpt lat="45.6269892" lon="11.3734983"><ele>344.0</ele><time>2026-04-12T08:05:15.407Z</time></trkpt><trkpt lat="45.6270928" lon="11.3734638"><ele>344.0</ele><time>2026-04-12T08:05:16.408Z</time></trkpt><trkpt lat="45.6272505" lon="11.3733708"><ele>338.0</ele><time>2026-04-12T08:05:17.407Z</time></trkpt><trkpt lat="45.6273512" lon="11.3733217"><ele>332.0</ele><time>2026-04-12T08:05:18.408Z</time></trkpt><trkpt lat="45.6275031" lon="11.3733114"><ele>326.0</ele><time>2026-04-12T08:05:19.408Z</time></trkpt><trkpt lat="45.6276191" lon="11.3732961"><ele>320.0</ele><time>2026-04-12T08:05:20.407Z</time></trkpt><trkpt lat="45.6277219" lon="11.3733017"><ele>316.5</ele><time>2026-04-12T08:05:21.408Z</time></trkpt><trkpt lat="45.6278172" lon="11.3733146"><ele>313.0</ele><time>2026-04-12T08:05:22.407Z</time></trkpt><trkpt lat="45.6279641" lon="11.3732795"><ele>309.5</ele><time>2026-04-12T08:05:24.408Z</time></trkpt><trkpt lat="45.6280403" lon="11.3733032"><ele>306.0</ele><time>2026-04-12T08:05:25.408Z</time></trkpt><trkpt lat="45.6278945" lon="11.3735171"><ele>306.0</ele><time>2026-04-12T08:05:27.408Z</time></trkpt><trkpt lat="45.6277895" lon="11.3735322"><ele>306.0</ele><time>2026-04-12T08:05:29.408Z</time></trkpt><trkpt lat="45.6277162" lon="11.3735403"><ele>306.0</ele><time>2026-04-12T08:05:31.408Z</time></trkpt><trkpt lat="45.6277953" lon="11.3735709"><ele>306.0</ele><time>2026-04-12T08:05:34.408Z</time></trkpt><trkpt lat="45.6278705" lon="11.373588"><ele>306.0</ele><time>2026-04-12T08:05:35.407Z</time></trkpt><trkpt lat="45.6279478" lon="11.3736024"><ele>306.0</ele><time>2026-04-12T08:05:36.408Z</time></trkpt><trkpt lat="45.6280216" lon="11.373587"><ele>306.0</ele><time>2026-04-12T08:05:37.407Z</time></trkpt><trkpt lat="45.6281137" lon="11.3735337"><ele>306.0</ele><time>2026-04-12T08:05:38.408Z</time></trkpt><trkpt lat="45.6282082" lon="11.3734798"><ele>306.0</ele><time>2026-04-12T08:05:39.407Z</time></trkpt><trkpt lat="45.6283021" lon="11.3734517"><ele>306.0</ele><time>2026-04-12T08:05:40.407Z</time></trkpt><trkpt lat="45.6283852" lon="11.3733963"><ele>306.0</ele><time>2026-04-12T08:05:41.408Z</time></trkpt><trkpt lat="45.628507" lon="11.3733912"><ele>306.0</ele><time>2026-04-12T08:05:42.408Z</time></trkpt><trkpt lat="45.6286271" lon="11.3733727"><ele>306.0</ele><time>2026-04-12T08:05:43.408Z</time></trkpt><trkpt lat="45.6287239" lon="11.3733354"><ele>306.0</ele><time>2026-04-12T08:05:44.407Z</time></trkpt><trkpt lat="45.6288182" lon="11.3733675"><ele>306.0</ele><time>2026-04-12T08:05:45.408Z</time></trkpt><trkpt lat="45.6289536" lon="11.3732226"><ele>301.75</ele><time>2026-04-12T08:05:46.408Z</time></trkpt><trkpt lat="45.6290467" lon="11.3732234"><ele>297.5</ele><time>2026-04-12T08:05:47.408Z</time></trkpt><trkpt lat="45.6291724" lon="11.3731507"><ele>293.25</ele><time>2026-04-12T08:05:48.407Z</time></trkpt><trkpt lat="45.6292854" lon="11.3731629"><ele>289.0</ele><time>2026-04-12T08:05:49.408Z</time></trkpt><trkpt lat="45.6294233" lon="11.3731507"><ele>284.5</ele><time>2026-04-12T08:05:50.408Z</time></trkpt><trkpt lat="45.6295405" lon="11.3731404"><ele>280.0</ele><time>2026-04-12T08:05:51.408Z</time></trkpt><trkpt lat="45.629654" lon="11.3731998"><ele>275.5</ele><time>2026-04-12T08:05:52.408Z</time></trkpt><trkpt lat="45.6297523" lon="11.3732595"><ele>271.0</ele><time>2026-04-12T08:05:53.406Z</time></trkpt><trkpt lat="45.6298607" lon="11.3733118"><ele>271.0</ele><time>2026-04-12T08:05:54.408Z</time></trkpt><trkpt lat="45.6299557" lon="11.3733822"><ele>271.0</ele><time>2026-04-12T08:05:55.408Z</time></trkpt><trkpt lat="45.6300677" lon="11.3733552"><ele>271.0</ele><time>2026-04-12T08:05:56.408Z</time></trkpt><trkpt lat="45.6301704" lon="11.3733229"><ele>271.0</ele><time>2026-04-12T08:05:57.407Z</time></trkpt><trkpt lat="45.6302769" lon="11.3732614"><ele>271.0</ele><time>2026-04-12T08:05:58.408Z</time></trkpt><trkpt lat="45.6303656" lon="11.3732241"><ele>271.2</ele><time>2026-04-12T08:05:59.406Z</time></trkpt><trkpt lat="45.6304672" lon="11.3731774"><ele>271.40000000000003</ele><time>2026-04-12T08:06:00.408Z</time></trkpt><trkpt lat="45.6305544" lon="11.3731011"><ele>271.6</ele><time>2026-04-12T08:06:01.407Z</time></trkpt><trkpt lat="45.6306237" lon="11.3730599"><ele>271.8</ele><time>2026-04-12T08:06:02.407Z</time></trkpt><trkpt lat="45.6306646" lon="11.3729908"><ele>272.0</ele><time>2026-04-12T08:06:03.408Z</time></trkpt><trkpt lat="45.6307538" lon="11.3728924"><ele>268.83333333333337</ele><time>2026-04-12T08:06:05.408Z</time></trkpt><trkpt lat="45.6307388" lon="11.3730512"><ele>265.6666666666667</ele><time>2026-04-12T08:06:07.408Z</time></trkpt><trkpt lat="45.6307159" lon="11.3731777"><ele>262.5</ele><time>2026-04-12T08:06:09.408Z</time></trkpt><trkpt lat="45.6306446" lon="11.3732472"><ele>259.3333333333333</ele><time>2026-04-12T08:06:10.408Z</time></trkpt><trkpt lat="45.630609" lon="11.3733267"><ele>256.16666666666663</ele><time>2026-04-12T08:06:11.407Z</time></trkpt><trkpt lat="45.6305762" lon="11.373404"><ele>253.0</ele><time>2026-04-12T08:06:12.408Z</time></trkpt><trkpt lat="45.6305124" lon="11.3734856"><ele>253.0</ele><time>2026-04-12T08:06:14.408Z</time></trkpt><trkpt lat="45.6306993" lon="11.373511"><ele>253.0</ele><time>2026-04-12T08:06:15.407Z</time></trkpt><trkpt lat="45.6307977" lon="11.3734731"><ele>253.0</ele><time>2026-04-12T08:06:17.407Z</time></trkpt><trkpt lat="45.630847" lon="11.3733915"><ele>253.0</ele><time>2026-04-12T08:06:18.408Z</time></trkpt><trkpt lat="45.6309269" lon="11.3733512"><ele>253.0</ele><time>2026-04-12T08:06:20.408Z</time></trkpt><trkpt lat="45.6310442" lon="11.3733531"><ele>253.0</ele><time>2026-04-12T08:06:24.407Z</time></trkpt><trkpt lat="45.6311179" lon="11.3733547"><ele>253.0</ele><time>2026-04-12T08:06:26.407Z</time></trkpt><trkpt lat="45.6312074" lon="11.3733184"><ele>253.0</ele><time>2026-04-12T08:06:28.408Z</time></trkpt><trkpt lat="45.6312845" lon="11.3732485"><ele>253.0</ele><time>2026-04-12T08:06:30.408Z</time></trkpt><trkpt lat="45.6313646" lon="11.3731608"><ele>252.49999999999997</ele><time>2026-04-12T08:06:32.407Z</time></trkpt><trkpt lat="45.6314206" lon="11.3730738"><ele>252.0</ele><time>2026-04-12T08:06:34.408Z</time></trkpt><trkpt lat="45.6314767" lon="11.3730013"><ele>251.5</ele><time>2026-04-12T08:06:36.408Z</time></trkpt><trkpt lat="45.6315269" lon="11.3729344"><ele>251.0</ele><time>2026-04-12T08:06:38.408Z</time></trkpt><trkpt lat="45.6315792" lon="11.3728765"><ele>250.49999999999997</ele><time>2026-04-12T08:06:40.408Z</time></trkpt><trkpt lat="45.6316377" lon="11.372776"><ele>250.0</ele><time>2026-04-12T08:06:43.408Z</time></trkpt><trkpt lat="45.6316913" lon="11.3727089"><ele>250.0</ele><time>2026-04-12T08:06:45.407Z</time></trkpt><trkpt lat="45.6317491" lon="11.3726616"><ele>250.0</ele><time>2026-04-12T08:06:47.408Z</time></trkpt><trkpt lat="45.6318097" lon="11.3725988"><ele>250.0</ele><time>2026-04-12T08:06:49.408Z</time></trkpt><trkpt lat="45.6318719" lon="11.3725402"><ele>250.0</ele><time>2026-04-12T08:06:51.407Z</time></trkpt><trkpt lat="45.6319405" lon="11.3725"><ele>250.0</ele><time>2026-04-12T08:06:53.408Z</time></trkpt><trkpt lat="45.6320113" lon="11.3724722"><ele>250.0</ele><time>2026-04-12T08:06:55.408Z</time></trkpt><trkpt lat="45.6320844" lon="11.3724535"><ele>250.0</ele><time>2026-04-12T08:06:57.407Z</time></trkpt><trkpt lat="45.6321674" lon="11.3724442"><ele>250.16666666666666</ele><time>2026-04-12T08:06:59.408Z</time></trkpt><trkpt lat="45.6322405" lon="11.3724531"><ele>250.33333333333331</ele><time>2026-04-12T08:07:01.408Z</time></trkpt><trkpt lat="45.6323125" lon="11.3724852"><ele>250.5</ele><time>2026-04-12T08:07:03.407Z</time></trkpt><trkpt lat="45.6323762" lon="11.372516"><ele>250.66666666666669</ele><time>2026-04-12T08:07:05.407Z</time></trkpt><trkpt lat="45.6324684" lon="11.3725506"><ele>250.83333333333334</ele><time>2026-04-12T08:07:08.408Z</time></trkpt><trkpt lat="45.6325336" lon="11.3725811"><ele>251.0</ele><time>2026-04-12T08:07:10.408Z</time></trkpt><trkpt lat="45.6326093" lon="11.3726249"><ele>250.99999999999997</ele><time>2026-04-12T08:07:12.408Z</time></trkpt><trkpt lat="45.6326754" lon="11.3726784"><ele>251.0</ele><time>2026-04-12T08:07:14.407Z</time></trkpt><trkpt lat="45.6327414" lon="11.3727223"><ele>250.99999999999997</ele><time>2026-04-12T08:07:16.408Z</time></trkpt><trkpt lat="45.6328156" lon="11.3727981"><ele>250.99999999999997</ele><time>2026-04-12T08:07:19.408Z</time></trkpt><trkpt lat="45.6328672" lon="11.3728545"><ele>251.0</ele><time>2026-04-12T08:07:21.406Z</time></trkpt><trkpt lat="45.6329255" lon="11.3728987"><ele>250.99999999999997</ele><time>2026-04-12T08:07:23.408Z</time></trkpt><trkpt lat="45.6329887" lon="11.3729362"><ele>250.99999999999997</ele><time>2026-04-12T08:07:25.407Z</time></trkpt><trkpt lat="45.6330539" lon="11.3729776"><ele>251.4285714285714</ele><time>2026-04-12T08:07:27.408Z</time></trkpt><trkpt lat="45.6331139" lon="11.3730149"><ele>251.85714285714283</ele><time>2026-04-12T08:07:29.408Z</time></trkpt><trkpt lat="45.6331806" lon="11.3730478"><ele>252.28571428571428</ele><time>2026-04-12T08:07:31.407Z</time></trkpt><trkpt lat="45.6332475" lon="11.3730731"><ele>252.7142857142857</ele><time>2026-04-12T08:07:33.407Z</time></trkpt><trkpt lat="45.6333113" lon="11.3730961"><ele>253.1428571428571</ele><time>2026-04-12T08:07:35.407Z</time></trkpt><trkpt lat="45.6333746" lon="11.373114"><ele>253.57142857142858</ele><time>2026-04-12T08:07:37.408Z</time></trkpt><trkpt lat="45.6334659" lon="11.3731262"><ele>254.0</ele><time>2026-04-12T08:07:40.408Z</time></trkpt><trkpt lat="45.6335464" lon="11.3731507"><ele>254.00000000000003</ele><time>2026-04-12T08:07:43.407Z</time></trkpt><trkpt lat="45.6336325" lon="11.3732059"><ele>254.0</ele><time>2026-04-12T08:07:46.407Z</time></trkpt><trkpt lat="45.6337015" lon="11.3732416"><ele>254.0</ele><time>2026-04-12T08:07:48.407Z</time></trkpt><trkpt lat="45.6337656" lon="11.373279"><ele>254.0</ele><time>2026-04-12T08:07:50.408Z</time></trkpt><trkpt lat="45.6338256" lon="11.3733119"><ele>254.00000000000003</ele><time>2026-04-12T08:07:52.408Z</time></trkpt><trkpt lat="45.6338886" lon="11.3733461"><ele>254.0</ele><time>2026-04-12T08:07:54.408Z</time></trkpt><trkpt lat="45.6339568" lon="11.3734145"><ele>254.42857142857144</ele><time>2026-04-12T08:07:56.407Z</time></trkpt><trkpt lat="45.6340066" lon="11.3735075"><ele>254.85714285714283</ele><time>2026-04-12T08:07:59.408Z</time></trkpt><trkpt lat="45.6340617" lon="11.3735582"><ele>255.28571428571428</ele><time>2026-04-12T08:08:02.408Z</time></trkpt><trkpt lat="45.6341166" lon="11.3736217"><ele>255.71428571428572</ele><time>2026-04-12T08:08:06.407Z</time></trkpt><trkpt lat="45.6341678" lon="11.3737054"><ele>256.14285714285717</ele><time>2026-04-12T08:08:10.408Z</time></trkpt><trkpt lat="45.6342149" lon="11.3737992"><ele>256.57142857142856</ele><time>2026-04-12T08:08:14.408Z</time></trkpt><trkpt lat="45.6342676" lon="11.3738624"><ele>257.0</ele><time>2026-04-12T08:08:17.408Z</time></trkpt><trkpt lat="45.6343183" lon="11.373951"><ele>257.0</ele><time>2026-04-12T08:08:21.407Z</time></trkpt><trkpt lat="45.6343416" lon="11.3740396"><ele>257.0</ele><time>2026-04-12T08:08:26.407Z</time></trkpt><trkpt lat="45.6343285" lon="11.3741476"><ele>257.0</ele><time>2026-04-12T08:08:33.408Z</time></trkpt><trkpt lat="45.6343299" lon="11.3742632"><ele>257.0</ele><time>2026-04-12T08:08:38.408Z</time></trkpt><trkpt lat="45.6343401" lon="11.3743786"><ele>257.0</ele><time>2026-04-12T08:08:42.407Z</time></trkpt><trkpt lat="45.6343395" lon="11.3744819"><ele>257.0</ele><time>2026-04-12T08:08:46.407Z</time></trkpt><trkpt lat="45.6343213" lon="11.3745822"><ele>257.0</ele><time>2026-04-12T08:08:50.408Z</time></trkpt><trkpt lat="45.63428" lon="11.3746747"><ele>257.0</ele><time>2026-04-12T08:08:54.408Z</time></trkpt><trkpt lat="45.6342586" lon="11.374762"><ele>257.0</ele><time>2026-04-12T08:08:58.408Z</time></trkpt><trkpt lat="45.63423" lon="11.3748593"><ele>257.0</ele><time>2026-04-12T08:09:02.408Z</time></trkpt><trkpt lat="45.6342138" lon="11.3749633"><ele>257.0</ele><time>2026-04-12T08:09:06.408Z</time></trkpt><trkpt lat="45.6342161" lon="11.3750782"><ele>257.0</ele><time>2026-04-12T08:09:10.408Z</time></trkpt><trkpt lat="45.6341912" lon="11.3751898"><ele>257.83333333333337</ele><time>2026-04-12T08:09:13.407Z</time></trkpt><trkpt lat="45.6341575" lon="11.3752983"><ele>258.6666666666667</ele><time>2026-04-12T08:09:16.408Z</time></trkpt><trkpt lat="45.6341117" lon="11.3753918"><ele>259.5</ele><time>2026-04-12T08:09:18.408Z</time></trkpt><trkpt lat="45.6340645" lon="11.375466"><ele>260.3333333333333</ele><time>2026-04-12T08:09:19.408Z</time></trkpt><trkpt lat="45.6340159" lon="11.3755398"><ele>261.16666666666663</ele><time>2026-04-12T08:09:20.406Z</time></trkpt><trkpt lat="45.6339633" lon="11.3756137"><ele>262.0</ele><time>2026-04-12T08:09:21.408Z</time></trkpt><trkpt lat="45.6339134" lon="11.3756899"><ele>262.5</ele><time>2026-04-12T08:09:22.408Z</time></trkpt><trkpt lat="45.6338672" lon="11.375765"><ele>263.0</ele><time>2026-04-12T08:09:23.408Z</time></trkpt><trkpt lat="45.6338129" lon="11.3758693"><ele>263.5</ele><time>2026-04-12T08:09:24.408Z</time></trkpt><trkpt lat="45.633759" lon="11.3759701"><ele>264.0</ele><time>2026-04-12T08:09:25.408Z</time></trkpt><trkpt lat="45.6336805" lon="11.3760577"><ele>264.5</ele><time>2026-04-12T08:09:27.407Z</time></trkpt><trkpt lat="45.6336311" lon="11.3761433"><ele>265.0</ele><time>2026-04-12T08:09:30.408Z</time></trkpt><trkpt lat="45.6335882" lon="11.3762266"><ele>264.4</ele><time>2026-04-12T08:09:34.407Z</time></trkpt><trkpt lat="45.6335737" lon="11.3763175"><ele>263.8</ele><time>2026-04-12T08:09:37.408Z</time></trkpt><trkpt lat="45.6335319" lon="11.3765241"><ele>263.2</ele><time>2026-04-12T08:09:44.407Z</time></trkpt><trkpt lat="45.6334969" lon="11.3766341"><ele>262.6</ele><time>2026-04-12T08:09:45.408Z</time></trkpt><trkpt lat="45.6334562" lon="11.3767344"><ele>262.0</ele><time>2026-04-12T08:09:48.408Z</time></trkpt><trkpt lat="45.6334011" lon="11.3768197"><ele>262.0</ele><time>2026-04-12T08:09:51.407Z</time></trkpt><trkpt lat="45.6333579" lon="11.3768941"><ele>262.0</ele><time>2026-04-12T08:09:54.407Z</time></trkpt><trkpt lat="45.6333259" lon="11.3769749"><ele>262.0</ele><time>2026-04-12T08:09:57.408Z</time></trkpt><trkpt lat="45.6332891" lon="11.3770631"><ele>262.0</ele><time>2026-04-12T08:10:00.408Z</time></trkpt><trkpt lat="45.6332528" lon="11.3771502"><ele>262.0</ele><time>2026-04-12T08:10:03.408Z</time></trkpt><trkpt lat="45.6332333" lon="11.3772587"><ele>262.0</ele><time>2026-04-12T08:10:06.407Z</time></trkpt><trkpt lat="45.6332264" lon="11.3773588"><ele>262.0</ele><time>2026-04-12T08:10:11.408Z</time></trkpt><trkpt lat="45.6332086" lon="11.3774511"><ele>261.16666666666663</ele><time>2026-04-12T08:10:15.407Z</time></trkpt><trkpt lat="45.6331989" lon="11.3775422"><ele>260.3333333333333</ele><time>2026-04-12T08:10:18.407Z</time></trkpt><trkpt lat="45.6331685" lon="11.3776287"><ele>259.5</ele><time>2026-04-12T08:10:21.407Z</time></trkpt><trkpt lat="45.6331411" lon="11.3777126"><ele>258.6666666666667</ele><time>2026-04-12T08:10:24.408Z</time></trkpt><trkpt lat="45.6331055" lon="11.3778"><ele>257.83333333333337</ele><time>2026-04-12T08:10:28.407Z</time></trkpt><trkpt lat="45.6330771" lon="11.3778932"><ele>257.0</ele><time>2026-04-12T08:10:33.408Z</time></trkpt><trkpt lat="45.6335882" lon="11.3762266"><ele>257.0</ele><time>2026-04-12T08:09:34.407Z</time></trkpt><trkpt lat="45.6335737" lon="11.3763175"><ele>257.0</ele><time>2026-04-12T08:09:37.408Z</time></trkpt><trkpt lat="45.6335319" lon="11.3765241"><ele>257.0</ele><time>2026-04-12T08:09:44.407Z</time></trkpt><trkpt lat="45.6334969" lon="11.3766341"><ele>257.0</ele><time>2026-04-12T08:09:45.408Z</time></trkpt><trkpt lat="45.6334562" lon="11.3767344"><ele>257.0</ele><time>2026-04-12T08:09:48.408Z</time></trkpt><trkpt lat="45.6334011" lon="11.3768197"><ele>257.7142857142857</ele><time>2026-04-12T08:09:51.407Z</time></trkpt><trkpt lat="45.6333579" lon="11.3768941"><ele>258.42857142857144</ele><time>2026-04-12T08:09:54.407Z</time></trkpt><trkpt lat="45.6333259" lon="11.3769749"><ele>259.14285714285717</ele><time>2026-04-12T08:09:57.408Z</time></trkpt><trkpt lat="45.6332891" lon="11.3770631"><ele>259.8571428571429</ele><time>2026-04-12T08:10:00.408Z</time></trkpt><trkpt lat="45.6332528" lon="11.3771502"><ele>260.5714285714286</ele><time>2026-04-12T08:10:03.408Z</time></trkpt><trkpt lat="45.6332333" lon="11.3772587"><ele>261.2857142857143</ele><time>2026-04-12T08:10:06.407Z</time></trkpt><trkpt lat="45.6332264" lon="11.3773588"><ele>262.0</ele><time>2026-04-12T08:10:11.408Z</time></trkpt><trkpt lat="45.6332086" lon="11.3774511"><ele>263.8571428571429</ele><time>2026-04-12T08:10:15.407Z</time></trkpt><trkpt lat="45.6331989" lon="11.3775422"><ele>265.7142857142857</ele><time>2026-04-12T08:10:18.407Z</time></trkpt><trkpt lat="45.6331685" lon="11.3776287"><ele>267.57142857142856</ele><time>2026-04-12T08:10:21.407Z</time></trkpt><trkpt lat="45.6331411" lon="11.3777126"><ele>269.42857142857144</ele><time>2026-04-12T08:10:24.408Z</time></trkpt><trkpt lat="45.6331055" lon="11.3778"><ele>271.2857142857143</ele><time>2026-04-12T08:10:28.407Z</time></trkpt><trkpt lat="45.6330771" lon="11.3778932"><ele>273.14285714285717</ele><time>2026-04-12T08:10:33.408Z</time></trkpt><trkpt lat="45.6330422" lon="11.3779782"><ele>275.0</ele><time>2026-04-12T08:10:37.408Z</time></trkpt><trkpt lat="45.6330099" lon="11.3780771"><ele>277.8571428571429</ele><time>2026-04-12T08:10:42.408Z</time></trkpt><trkpt lat="45.6329804" lon="11.3781615"><ele>280.7142857142857</ele><time>2026-04-12T08:10:46.407Z</time></trkpt><trkpt lat="45.632977" lon="11.3782573"><ele>283.57142857142856</ele><time>2026-04-12T08:10:50.408Z</time></trkpt><trkpt lat="45.6329839" lon="11.3783527"><ele>286.42857142857144</ele><time>2026-04-12T08:10:54.408Z</time></trkpt><trkpt lat="45.6329861" lon="11.3784431"><ele>289.2857142857143</ele><time>2026-04-12T08:10:59.408Z</time></trkpt><trkpt lat="45.6329803" lon="11.3785396"><ele>292.14285714285717</ele><time>2026-04-12T08:11:04.407Z</time></trkpt><trkpt lat="45.6329525" lon="11.3786315"><ele>295.0</ele><time>2026-04-12T08:11:10.407Z</time></trkpt><trkpt lat="45.6329394" lon="11.3787338"><ele>295.00000000000006</ele><time>2026-04-12T08:11:17.407Z</time></trkpt><trkpt lat="45.6329579" lon="11.3788351"><ele>295.0</ele><time>2026-04-12T08:11:23.408Z</time></trkpt><trkpt lat="45.6329641" lon="11.3789356"><ele>295.0</ele><time>2026-04-12T08:11:28.408Z</time></trkpt><trkpt lat="45.632946" lon="11.3790412"><ele>295.0</ele><time>2026-04-12T08:11:33.407Z</time></trkpt><trkpt lat="45.6329171" lon="11.3791405"><ele>295.0</ele><time>2026-04-12T08:11:38.407Z</time></trkpt><trkpt lat="45.6329049" lon="11.3792465"><ele>295.00000000000006</ele><time>2026-04-12T08:11:44.408Z</time></trkpt><trkpt lat="45.6329016" lon="11.3793377"><ele>295.0</ele><time>2026-04-12T08:11:49.408Z</time></trkpt><trkpt lat="45.6329028" lon="11.3794322"><ele>297.00000000000006</ele><time>2026-04-12T08:11:53.408Z</time></trkpt><trkpt lat="45.6328765" lon="11.3795341"><ele>299.0</ele><time>2026-04-12T08:11:59.406Z</time></trkpt><trkpt lat="45.6328815" lon="11.3796368"><ele>301.0</ele><time>2026-04-12T08:12:03.407Z</time></trkpt><trkpt lat="45.6328871" lon="11.3797449"><ele>303.0</ele><time>2026-04-12T08:12:09.408Z</time></trkpt><trkpt lat="45.6328779" lon="11.3798381"><ele>305.0</ele><time>2026-04-12T08:12:14.407Z</time></trkpt><trkpt lat="45.6328874" lon="11.3799415"><ele>307.00000000000006</ele><time>2026-04-12T08:12:22.408Z</time></trkpt><trkpt lat="45.6328556" lon="11.3800259"><ele>309.0</ele><time>2026-04-12T08:12:28.408Z</time></trkpt><trkpt lat="45.6328213" lon="11.3801031"><ele>310.14285714285717</ele><time>2026-04-12T08:12:34.407Z</time></trkpt><trkpt lat="45.6328084" lon="11.3801939"><ele>311.2857142857143</ele><time>2026-04-12T08:12:40.408Z</time></trkpt><trkpt lat="45.6327997" lon="11.3802843"><ele>312.42857142857144</ele><time>2026-04-12T08:12:44.407Z</time></trkpt><trkpt lat="45.6327947" lon="11.3803803"><ele>313.57142857142856</ele><time>2026-04-12T08:12:50.407Z</time></trkpt><trkpt lat="45.6328058" lon="11.3804838"><ele>314.7142857142857</ele><time>2026-04-12T08:12:55.407Z</time></trkpt><trkpt lat="45.6327828" lon="11.3805807"><ele>315.8571428571429</ele><time>2026-04-12T08:13:00.407Z</time></trkpt><trkpt lat="45.6327392" lon="11.3806637"><ele>317.0</ele><time>2026-04-12T08:13:05.408Z</time></trkpt><trkpt lat="45.632718" lon="11.3807656"><ele>309.25</ele><time>2026-04-12T08:13:11.408Z</time></trkpt><trkpt lat="45.6327048" lon="11.3808623"><ele>301.5</ele><time>2026-04-12T08:13:15.408Z</time></trkpt><trkpt lat="45.6326817" lon="11.3809674"><ele>293.75</ele><time>2026-04-12T08:13:19.408Z</time></trkpt><trkpt lat="45.6326582" lon="11.3810525"><ele>286.0</ele><time>2026-04-12T08:13:22.408Z</time></trkpt><trkpt lat="45.6335882" lon="11.3762266"><ele>281.2</ele><time>2026-04-12T08:09:34.407Z</time></trkpt><trkpt lat="45.6335737" lon="11.3763175"><ele>276.40000000000003</ele><time>2026-04-12T08:09:37.408Z</time></trkpt><trkpt lat="45.6335319" lon="11.3765241"><ele>271.6</ele><time>2026-04-12T08:09:44.407Z</time></trkpt><trkpt lat="45.6334969" lon="11.3766341"><ele>266.8</ele><time>2026-04-12T08:09:45.408Z</time></trkpt><trkpt lat="45.6334562" lon="11.3767344"><ele>262.0</ele><time>2026-04-12T08:09:48.408Z</time></trkpt><trkpt lat="45.6334011" lon="11.3768197"><ele>262.0</ele><time>2026-04-12T08:09:51.407Z</time></trkpt><trkpt lat="45.6333579" lon="11.3768941"><ele>262.0</ele><time>2026-04-12T08:09:54.407Z</time></trkpt><trkpt lat="45.6333259" lon="11.3769749"><ele>262.0</ele><time>2026-04-12T08:09:57.408Z</time></trkpt><trkpt lat="45.6332891" lon="11.3770631"><ele>262.0</ele><time>2026-04-12T08:10:00.408Z</time></trkpt><trkpt lat="45.6332528" lon="11.3771502"><ele>262.0</ele><time>2026-04-12T08:10:03.408Z</time></trkpt><trkpt lat="45.6332333" lon="11.3772587"><ele>262.0</ele><time>2026-04-12T08:10:06.407Z</time></trkpt><trkpt lat="45.6332264" lon="11.3773588"><ele>262.0</ele><time>2026-04-12T08:10:11.408Z</time></trkpt><trkpt lat="45.6332086" lon="11.3774511"><ele>263.8571428571429</ele><time>2026-04-12T08:10:15.407Z</time></trkpt><trkpt lat="45.6331989" lon="11.3775422"><ele>265.7142857142857</ele><time>2026-04-12T08:10:18.407Z</time></trkpt><trkpt lat="45.6331685" lon="11.3776287"><ele>267.57142857142856</ele><time>2026-04-12T08:10:21.407Z</time></trkpt><trkpt lat="45.6331411" lon="11.3777126"><ele>269.42857142857144</ele><time>2026-04-12T08:10:24.408Z</time></trkpt><trkpt lat="45.6331055" lon="11.3778"><ele>271.2857142857143</ele><time>2026-04-12T08:10:28.407Z</time></trkpt><trkpt lat="45.6330771" lon="11.3778932"><ele>273.14285714285717</ele><time>2026-04-12T08:10:33.408Z</time></trkpt><trkpt lat="45.6330422" lon="11.3779782"><ele>275.0</ele><time>2026-04-12T08:10:37.408Z</time></trkpt><trkpt lat="45.6330099" lon="11.3780771"><ele>277.8571428571429</ele><time>2026-04-12T08:10:42.408Z</time></trkpt><trkpt lat="45.6329804" lon="11.3781615"><ele>280.7142857142857</ele><time>2026-04-12T08:10:46.407Z</time></trkpt><trkpt lat="45.632977" lon="11.3782573"><ele>283.57142857142856</ele><time>2026-04-12T08:10:50.408Z</time></trkpt><trkpt lat="45.6329839" lon="11.3783527"><ele>286.42857142857144</ele><time>2026-04-12T08:10:54.408Z</time></trkpt><trkpt lat="45.6329861" lon="11.3784431"><ele>289.2857142857143</ele><time>2026-04-12T08:10:59.408Z</time></trkpt><trkpt lat="45.6329803" lon="11.3785396"><ele>292.14285714285717</ele><time>2026-04-12T08:11:04.407Z</time></trkpt><trkpt lat="45.6329525" lon="11.3786315"><ele>295.0</ele><time>2026-04-12T08:11:10.407Z</time></trkpt><trkpt lat="45.6329394" lon="11.3787338"><ele>295.00000000000006</ele><time>2026-04-12T08:11:17.407Z</time></trkpt><trkpt lat="45.6329579" lon="11.3788351"><ele>295.0</ele><time>2026-04-12T08:11:23.408Z</time></trkpt><trkpt lat="45.6329641" lon="11.3789356"><ele>295.0</ele><time>2026-04-12T08:11:28.408Z</time></trkpt><trkpt lat="45.632946" lon="11.3790412"><ele>295.0</ele><time>2026-04-12T08:11:33.407Z</time></trkpt><trkpt lat="45.6329171" lon="11.3791405"><ele>295.0</ele><time>2026-04-12T08:11:38.407Z</time></trkpt><trkpt lat="45.6329049" lon="11.3792465"><ele>295.00000000000006</ele><time>2026-04-12T08:11:44.408Z</time></trkpt><trkpt lat="45.6329016" lon="11.3793377"><ele>295.0</ele><time>2026-04-12T08:11:49.408Z</time></trkpt><trkpt lat="45.6329028" lon="11.3794322"><ele>297.00000000000006</ele><time>2026-04-12T08:11:53.408Z</time></trkpt><trkpt lat="45.6328765" lon="11.3795341"><ele>299.0</ele><time>2026-04-12T08:11:59.406Z</time></trkpt><trkpt lat="45.6328815" lon="11.3796368"><ele>301.0</ele><time>2026-04-12T08:12:03.407Z</time></trkpt><trkpt lat="45.6328871" lon="11.3797449"><ele>303.0</ele><time>2026-04-12T08:12:09.408Z</time></trkpt><trkpt lat="45.6328779" lon="11.3798381"><ele>305.0</ele><time>2026-04-12T08:12:14.407Z</time></trkpt><trkpt lat="45.6328874" lon="11.3799415"><ele>307.00000000000006</ele><time>2026-04-12T08:12:22.408Z</time></trkpt><trkpt lat="45.6328556" lon="11.3800259"><ele>309.0</ele><time>2026-04-12T08:12:28.408Z</time></trkpt><trkpt lat="45.6328213" lon="11.3801031"><ele>310.14285714285717</ele><time>2026-04-12T08:12:34.407Z</time></trkpt><trkpt lat="45.6328084" lon="11.3801939"><ele>311.2857142857143</ele><time>2026-04-12T08:12:40.408Z</time></trkpt><trkpt lat="45.6327997" lon="11.3802843"><ele>312.42857142857144</ele><time>2026-04-12T08:12:44.407Z</time></trkpt><trkpt lat="45.6327947" lon="11.3803803"><ele>313.57142857142856</ele><time>2026-04-12T08:12:50.407Z</time></trkpt><trkpt lat="45.6328058" lon="11.3804838"><ele>314.7142857142857</ele><time>2026-04-12T08:12:55.407Z</time></trkpt><trkpt lat="45.6327828" lon="11.3805807"><ele>315.8571428571429</ele><time>2026-04-12T08:13:00.407Z</time></trkpt><trkpt lat="45.6327392" lon="11.3806637"><ele>317.0</ele><time>2026-04-12T08:13:05.408Z</time></trkpt><trkpt lat="45.632718" lon="11.3807656"><ele>313.57142857142856</ele><time>2026-04-12T08:13:11.408Z</time></trkpt><trkpt lat="45.6327048" lon="11.3808623"><ele>310.1428571428571</ele><time>2026-04-12T08:13:15.408Z</time></trkpt><trkpt lat="45.6326817" lon="11.3809674"><ele>306.71428571428567</ele><time>2026-04-12T08:13:19.408Z</time></trkpt><trkpt lat="45.6326582" lon="11.3810525"><ele>303.2857142857143</ele><time>2026-04-12T08:13:22.408Z</time></trkpt><trkpt lat="45.6326504" lon="11.3811452"><ele>299.85714285714283</ele><time>2026-04-12T08:13:26.408Z</time></trkpt><trkpt lat="45.6326511" lon="11.3812531"><ele>296.4285714285714</ele><time>2026-04-12T08:13:30.408Z</time></trkpt><trkpt lat="45.6326198" lon="11.3813432"><ele>293.0</ele><time>2026-04-12T08:13:34.408Z</time></trkpt><trkpt lat="45.6326188" lon="11.3814455"><ele>292.99999999999994</ele><time>2026-04-12T08:13:37.408Z</time></trkpt><trkpt lat="45.6326262" lon="11.3815397"><ele>293.0</ele><time>2026-04-12T08:13:41.407Z</time></trkpt><trkpt lat="45.6326414" lon="11.381645"><ele>293.0</ele><time>2026-04-12T08:13:47.407Z</time></trkpt><trkpt lat="45.6326871" lon="11.3817297"><ele>293.0</ele><time>2026-04-12T08:13:53.408Z</time></trkpt><trkpt lat="45.6327277" lon="11.3818196"><ele>293.0</ele><time>2026-04-12T08:13:57.408Z</time></trkpt><trkpt lat="45.632757" lon="11.3819179"><ele>292.99999999999994</ele><time>2026-04-12T08:14:01.408Z</time></trkpt><trkpt lat="45.6327561" lon="11.382032"><ele>293.0</ele><time>2026-04-12T08:14:05.408Z</time></trkpt><trkpt lat="45.6327385" lon="11.3821225"><ele>294.25</ele><time>2026-04-12T08:14:08.408Z</time></trkpt><trkpt lat="45.632729" lon="11.3822159"><ele>295.5</ele><time>2026-04-12T08:14:11.407Z</time></trkpt><trkpt lat="45.6326952" lon="11.3823089"><ele>296.75</ele><time>2026-04-12T08:14:14.408Z</time></trkpt><trkpt lat="45.6326524" lon="11.3823798"><ele>298.0</ele><time>2026-04-12T08:14:17.406Z</time></trkpt><trkpt lat="45.6325296" lon="11.3826922"><ele>298.0</ele><time>2026-04-12T08:14:20.407Z</time></trkpt><trkpt lat="45.6324875" lon="11.3827972"><ele>298.0</ele><time>2026-04-12T08:14:21.408Z</time></trkpt><trkpt lat="45.632444" lon="11.3828948"><ele>298.0</ele><time>2026-04-12T08:14:22.407Z</time></trkpt><trkpt lat="45.6323869" lon="11.3829835"><ele>298.0</ele><time>2026-04-12T08:14:23.407Z</time></trkpt><trkpt lat="45.6323179" lon="11.3830375"><ele>298.0</ele><time>2026-04-12T08:14:24.408Z</time></trkpt><trkpt lat="45.6322462" lon="11.3830664"><ele>298.0</ele><time>2026-04-12T08:14:25.407Z</time></trkpt><trkpt lat="45.6321784" lon="11.3831057"><ele>297.8333333333333</ele><time>2026-04-12T08:14:26.408Z</time></trkpt><trkpt lat="45.6320738" lon="11.3832038"><ele>297.66666666666663</ele><time>2026-04-12T08:14:28.408Z</time></trkpt><trkpt lat="45.6320395" lon="11.3832886"><ele>297.5</ele><time>2026-04-12T08:14:29.408Z</time></trkpt><trkpt lat="45.6319933" lon="11.383363"><ele>297.3333333333333</ele><time>2026-04-12T08:14:30.408Z</time></trkpt><trkpt lat="45.6319494" lon="11.383437"><ele>297.1666666666667</ele><time>2026-04-12T08:14:31.407Z</time></trkpt><trkpt lat="45.631903" lon="11.3834986"><ele>297.0</ele><time>2026-04-12T08:14:32.408Z</time></trkpt><trkpt lat="45.6318446" lon="11.3836475"><ele>296.4</ele><time>2026-04-12T08:14:34.408Z</time></trkpt><trkpt lat="45.6318052" lon="11.3837915"><ele>295.79999999999995</ele><time>2026-04-12T08:14:36.408Z</time></trkpt><trkpt lat="45.6317544" lon="11.3839219"><ele>295.2</ele><time>2026-04-12T08:14:38.408Z</time></trkpt><trkpt lat="45.6316917" lon="11.3840399"><ele>294.59999999999997</ele><time>2026-04-12T08:14:40.407Z</time></trkpt><trkpt lat="45.6315836" lon="11.3841257"><ele>294.0</ele><time>2026-04-12T08:14:42.408Z</time></trkpt><trkpt lat="45.6315189" lon="11.3840797"><ele>295.1666666666667</ele><time>2026-04-12T08:14:43.408Z</time></trkpt><trkpt lat="45.631439" lon="11.3841334"><ele>296.3333333333333</ele><time>2026-04-12T08:14:45.407Z</time></trkpt><trkpt lat="45.6313573" lon="11.3841432"><ele>297.5</ele><time>2026-04-12T08:14:47.408Z</time></trkpt><trkpt lat="45.631277" lon="11.3841923"><ele>298.66666666666663</ele><time>2026-04-12T08:14:50.408Z</time></trkpt><trkpt lat="45.6312218" lon="11.3842505"><ele>299.8333333333333</ele><time>2026-04-12T08:14:52.408Z</time></trkpt><trkpt lat="45.6311628" lon="11.3843122"><ele>301.0</ele><time>2026-04-12T08:14:54.407Z</time></trkpt><trkpt lat="45.6310914" lon="11.3844005"><ele>301.8</ele><time>2026-04-12T08:14:56.408Z</time></trkpt><trkpt lat="45.6310306" lon="11.3845057"><ele>302.6</ele><time>2026-04-12T08:14:58.408Z</time></trkpt><trkpt lat="45.6309814" lon="11.3846428"><ele>303.4</ele><time>2026-04-12T08:15:00.407Z</time></trkpt><trkpt lat="45.6309414" lon="11.3847943"><ele>304.2</ele><time>2026-04-12T08:15:02.408Z</time></trkpt><trkpt lat="45.6308806" lon="11.3849564"><ele>305.0</ele><time>2026-04-12T08:15:04.408Z</time></trkpt><trkpt lat="45.6308332" lon="11.3850327"><ele>305.0</ele><time>2026-04-12T08:15:05.407Z</time></trkpt><trkpt lat="45.6307685" lon="11.3851081"><ele>305.0</ele><time>2026-04-12T08:15:06.408Z</time></trkpt><trkpt lat="45.6307023" lon="11.3851807"><ele>305.0</ele><time>2026-04-12T08:15:07.407Z</time></trkpt><trkpt lat="45.6306446" lon="11.3852427"><ele>305.0</ele><time>2026-04-12T08:15:08.408Z</time></trkpt><trkpt lat="45.630595" lon="11.3852989"><ele>305.0</ele><time>2026-04-12T08:15:09.408Z</time></trkpt><trkpt lat="45.6305145" lon="11.3854437"><ele>305.0</ele><time>2026-04-12T08:15:11.408Z</time></trkpt><trkpt lat="45.6304789" lon="11.3855343"><ele>301.6</ele><time>2026-04-12T08:15:12.407Z</time></trkpt><trkpt lat="45.6304512" lon="11.3856268"><ele>298.2</ele><time>2026-04-12T08:15:13.407Z</time></trkpt><trkpt lat="45.6304282" lon="11.3857301"><ele>294.8</ele><time>2026-04-12T08:15:14.408Z</time></trkpt><trkpt lat="45.630406" lon="11.3858329"><ele>291.4</ele><time>2026-04-12T08:15:15.408Z</time></trkpt><trkpt lat="45.6303976" lon="11.3860127"><ele>288.0</ele><time>2026-04-12T08:15:16.407Z</time></trkpt><trkpt lat="45.6304446" lon="11.3861451"><ele>288.0</ele><time>2026-04-12T08:15:17.407Z</time></trkpt><trkpt lat="45.6304999" lon="11.3862042"><ele>288.0</ele><time>2026-04-12T08:15:18.407Z</time></trkpt><trkpt lat="45.6305586" lon="11.3862689"><ele>288.0</ele><time>2026-04-12T08:15:19.407Z</time></trkpt><trkpt lat="45.6306056" lon="11.386358"><ele>288.0</ele><time>2026-04-12T08:15:20.408Z</time></trkpt><trkpt lat="45.6306641" lon="11.3864004"><ele>288.0</ele><time>2026-04-12T08:15:21.407Z</time></trkpt><trkpt lat="45.6307146" lon="11.3865137"><ele>288.0</ele><time>2026-04-12T08:15:23.407Z</time></trkpt><trkpt lat="45.6307633" lon="11.3865898"><ele>287.8333333333333</ele><time>2026-04-12T08:15:24.407Z</time></trkpt><trkpt lat="45.6308397" lon="11.386647"><ele>287.6666666666667</ele><time>2026-04-12T08:15:25.408Z</time></trkpt><trkpt lat="45.6309281" lon="11.3867225"><ele>287.5</ele><time>2026-04-12T08:15:26.408Z</time></trkpt><trkpt lat="45.6309925" lon="11.3867949"><ele>287.33333333333337</ele><time>2026-04-12T08:15:27.407Z</time></trkpt><trkpt lat="45.6310436" lon="11.3868665"><ele>287.1666666666667</ele><time>2026-04-12T08:15:28.407Z</time></trkpt><trkpt lat="45.6310991" lon="11.3869619"><ele>287.0</ele><time>2026-04-12T08:15:29.408Z</time></trkpt><trkpt lat="45.6311635" lon="11.3870927"><ele>286.6666666666667</ele><time>2026-04-12T08:15:31.407Z</time></trkpt><trkpt lat="45.6312191" lon="11.3871863"><ele>286.33333333333337</ele><time>2026-04-12T08:15:33.408Z</time></trkpt><trkpt lat="45.6312628" lon="11.387264"><ele>286.0</ele><time>2026-04-12T08:15:37.407Z</time></trkpt><trkpt lat="45.6312594" lon="11.387363"><ele>285.6666666666667</ele><time>2026-04-12T08:15:41.407Z</time></trkpt><trkpt lat="45.6312106" lon="11.3874376"><ele>285.3333333333333</ele><time>2026-04-12T08:15:45.408Z</time></trkpt><trkpt lat="45.6311689" lon="11.3875437"><ele>285.0</ele><time>2026-04-12T08:15:49.408Z</time></trkpt><trkpt lat="45.6311398" lon="11.3876381"><ele>285.0</ele><time>2026-04-12T08:15:52.408Z</time></trkpt><trkpt lat="45.631085" lon="11.3877055"><ele>285.0</ele><time>2026-04-12T08:15:56.407Z</time></trkpt><trkpt lat="45.6310513" lon="11.3878168"><ele>285.0</ele><time>2026-04-12T08:16:00.408Z</time></trkpt><trkpt lat="45.6310363" lon="11.3879138"><ele>285.0</ele><time>2026-04-12T08:16:03.408Z</time></trkpt><trkpt lat="45.6310259" lon="11.3880329"><ele>285.0</ele><time>2026-04-12T08:16:06.408Z</time></trkpt><trkpt lat="45.6310413" lon="11.3881342"><ele>285.0</ele><time>2026-04-12T08:16:08.408Z</time></trkpt><trkpt lat="45.6310558" lon="11.3882295"><ele>284.6666666666667</ele><time>2026-04-12T08:16:10.407Z</time></trkpt><trkpt lat="45.6310422" lon="11.388336"><ele>284.3333333333333</ele><time>2026-04-12T08:16:13.407Z</time></trkpt><trkpt lat="45.6310295" lon="11.3884384"><ele>284.0</ele><time>2026-04-12T08:16:16.408Z</time></trkpt><trkpt lat="45.6310111" lon="11.3885573"><ele>283.66666666666663</ele><time>2026-04-12T08:16:20.407Z</time></trkpt><trkpt lat="45.6309817" lon="11.3886656"><ele>283.3333333333333</ele><time>2026-04-12T08:16:24.407Z</time></trkpt><trkpt lat="45.6309747" lon="11.388771"><ele>283.0</ele><time>2026-04-12T08:16:27.407Z</time></trkpt><trkpt lat="45.6309708" lon="11.3888746"><ele>283.0</ele><time>2026-04-12T08:16:30.407Z</time></trkpt><trkpt lat="45.6309713" lon="11.3890004"><ele>283.0</ele><time>2026-04-12T08:16:33.408Z</time></trkpt><trkpt lat="45.6309739" lon="11.389105"><ele>283.0</ele><time>2026-04-12T08:16:36.408Z</time></trkpt><trkpt lat="45.6309982" lon="11.3892012"><ele>283.0</ele><time>2026-04-12T08:16:38.407Z</time></trkpt><trkpt lat="45.6310241" lon="11.3893049"><ele>283.0</ele><time>2026-04-12T08:16:40.408Z</time></trkpt><trkpt lat="45.6310489" lon="11.3893965"><ele>283.0</ele><time>2026-04-12T08:16:42.408Z</time></trkpt><trkpt lat="45.6310802" lon="11.3894758"><ele>283.0</ele><time>2026-04-12T08:16:44.408Z</time></trkpt><trkpt lat="45.6311102" lon="11.3895638"><ele>284.42857142857144</ele><time>2026-04-12T08:16:46.408Z</time></trkpt><trkpt lat="45.6311515" lon="11.389672"><ele>285.8571428571429</ele><time>2026-04-12T08:16:49.406Z</time></trkpt><trkpt lat="45.6311958" lon="11.3897586"><ele>287.2857142857143</ele><time>2026-04-12T08:16:53.408Z</time></trkpt><trkpt lat="45.6311641" lon="11.3898371"><ele>288.7142857142857</ele><time>2026-04-12T08:16:58.408Z</time></trkpt><trkpt lat="45.6310984" lon="11.389868"><ele>290.1428571428571</ele><time>2026-04-12T08:17:05.408Z</time></trkpt><trkpt lat="45.6310464" lon="11.3899382"><ele>291.57142857142856</ele><time>2026-04-12T08:17:11.408Z</time></trkpt><trkpt lat="45.6309892" lon="11.390015"><ele>293.0</ele><time>2026-04-12T08:17:16.408Z</time></trkpt><trkpt lat="45.6309353" lon="11.3901101"><ele>293.0</ele><time>2026-04-12T08:17:20.408Z</time></trkpt><trkpt lat="45.6309011" lon="11.3902119"><ele>293.0</ele><time>2026-04-12T08:17:23.407Z</time></trkpt><trkpt lat="45.6308546" lon="11.3902979"><ele>293.0</ele><time>2026-04-12T08:17:26.408Z</time></trkpt><trkpt lat="45.630783" lon="11.3903646"><ele>293.0</ele><time>2026-04-12T08:17:30.408Z</time></trkpt><trkpt lat="45.6307008" lon="11.3903849"><ele>293.0</ele><time>2026-04-12T08:17:33.408Z</time></trkpt><trkpt lat="45.6306342" lon="11.3904493"><ele>293.0</ele><time>2026-04-12T08:17:36.408Z</time></trkpt><trkpt lat="45.6305797" lon="11.3905049"><ele>293.5</ele><time>2026-04-12T08:17:38.407Z</time></trkpt><trkpt lat="45.6305268" lon="11.3905953"><ele>294.0</ele><time>2026-04-12T08:17:41.408Z</time></trkpt><trkpt lat="45.6304575" lon="11.3906677"><ele>294.5</ele><time>2026-04-12T08:17:44.408Z</time></trkpt><trkpt lat="45.6303912" lon="11.3907252"><ele>295.0</ele><time>2026-04-12T08:17:47.408Z</time></trkpt><trkpt lat="45.6303299" lon="11.3908024"><ele>295.5</ele><time>2026-04-12T08:17:50.408Z</time></trkpt><trkpt lat="45.6302711" lon="11.3908785"><ele>296.0</ele><time>2026-04-12T08:17:53.408Z</time></trkpt><trkpt lat="45.6302131" lon="11.3909464"><ele>296.0</ele><time>2026-04-12T08:17:56.408Z</time></trkpt><trkpt lat="45.6301648" lon="11.3910327"><ele>296.0</ele><time>2026-04-12T08:17:59.407Z</time></trkpt><trkpt lat="45.6301233" lon="11.3911132"><ele>296.0</ele><time>2026-04-12T08:18:02.408Z</time></trkpt><trkpt lat="45.6300809" lon="11.391212"><ele>296.0</ele><time>2026-04-12T08:18:06.408Z</time></trkpt><trkpt lat="45.6300511" lon="11.3912947"><ele>296.0</ele><time>2026-04-12T08:18:09.408Z</time></trkpt><trkpt lat="45.6299961" lon="11.3913395"><ele>296.0</ele><time>2026-04-12T08:18:12.407Z</time></trkpt><trkpt lat="45.629924" lon="11.3913563"><ele>296.0</ele><time>2026-04-12T08:18:15.407Z</time></trkpt><trkpt lat="45.6298669" lon="11.3913969"><ele>300.1666666666667</ele><time>2026-04-12T08:18:18.408Z</time></trkpt><trkpt lat="45.6298099" lon="11.3914598"><ele>304.33333333333337</ele><time>2026-04-12T08:18:21.407Z</time></trkpt><trkpt lat="45.6297613" lon="11.3915495"><ele>308.5</ele><time>2026-04-12T08:18:24.408Z</time></trkpt><trkpt lat="45.6297133" lon="11.391646"><ele>312.6666666666667</ele><time>2026-04-12T08:18:27.407Z</time></trkpt><trkpt lat="45.6296707" lon="11.3917357"><ele>316.8333333333333</ele><time>2026-04-12T08:18:30.408Z</time></trkpt><trkpt lat="45.6296167" lon="11.3918191"><ele>321.0</ele><time>2026-04-12T08:18:33.408Z</time></trkpt><trkpt lat="45.6295527" lon="11.391888"><ele>321.0</ele><time>2026-04-12T08:18:36.408Z</time></trkpt><trkpt lat="45.6294964" lon="11.3919694"><ele>321.0</ele><time>2026-04-12T08:18:39.407Z</time></trkpt><trkpt lat="45.6294556" lon="11.3920666"><ele>321.0</ele><time>2026-04-12T08:18:42.408Z</time></trkpt><trkpt lat="45.6294145" lon="11.3921475"><ele>321.0</ele><time>2026-04-12T08:18:45.407Z</time></trkpt><trkpt lat="45.6293581" lon="11.3922137"><ele>321.0</ele><time>2026-04-12T08:18:48.408Z</time></trkpt><trkpt lat="45.6293082" lon="11.3922929"><ele>321.0</ele><time>2026-04-12T08:18:51.407Z</time></trkpt><trkpt lat="45.6292653" lon="11.3923843"><ele>321.99999999999994</ele><time>2026-04-12T08:18:54.407Z</time></trkpt><trkpt lat="45.629222" lon="11.3924726"><ele>323.0</ele><time>2026-04-12T08:18:57.408Z</time></trkpt><trkpt lat="45.6291928" lon="11.3925604"><ele>324.0</ele><time>2026-04-12T08:19:00.408Z</time></trkpt><trkpt lat="45.6291599" lon="11.3926382"><ele>325.0</ele><time>2026-04-12T08:19:03.407Z</time></trkpt><trkpt lat="45.6291248" lon="11.3927329"><ele>326.0</ele><time>2026-04-12T08:19:07.408Z</time></trkpt><trkpt lat="45.6290994" lon="11.3928478"><ele>326.99999999999994</ele><time>2026-04-12T08:19:11.407Z</time></trkpt><trkpt lat="45.6290702" lon="11.3929574"><ele>328.0</ele><time>2026-04-12T08:19:15.408Z</time></trkpt><trkpt lat="45.6290198" lon="11.3930395"><ele>327.99999999999994</ele><time>2026-04-12T08:19:18.408Z</time></trkpt><trkpt lat="45.6289745" lon="11.3931232"><ele>328.0</ele><time>2026-04-12T08:19:21.408Z</time></trkpt><trkpt lat="45.6289353" lon="11.3932066"><ele>328.0</ele><time>2026-04-12T08:19:24.408Z</time></trkpt><trkpt lat="45.6288951" lon="11.3932884"><ele>328.0</ele><time>2026-04-12T08:19:27.408Z</time></trkpt><trkpt lat="45.6288552" lon="11.39336"><ele>328.0</ele><time>2026-04-12T08:19:30.406Z</time></trkpt><trkpt lat="45.6288188" lon="11.3934442"><ele>327.99999999999994</ele><time>2026-04-12T08:19:33.408Z</time></trkpt><trkpt lat="45.6287873" lon="11.3935341"><ele>328.0</ele><time>2026-04-12T08:19:36.407Z</time></trkpt><trkpt lat="45.6287489" lon="11.3936128"><ele>328.0</ele><time>2026-04-12T08:19:39.407Z</time></trkpt><trkpt lat="45.6287046" lon="11.3936938"><ele>328.0</ele><time>2026-04-12T08:19:42.407Z</time></trkpt><trkpt lat="45.6286626" lon="11.3937857"><ele>328.0</ele><time>2026-04-12T08:19:45.408Z</time></trkpt><trkpt lat="45.6286313" lon="11.3939098"><ele>328.0</ele><time>2026-04-12T08:19:48.408Z</time></trkpt><trkpt lat="45.6286007" lon="11.3940282"><ele>328.0</ele><time>2026-04-12T08:19:51.408Z</time></trkpt><trkpt lat="45.6285999" lon="11.3941366"><ele>328.0</ele><time>2026-04-12T08:19:53.407Z</time></trkpt><trkpt lat="45.6286188" lon="11.3942255"><ele>329.66666666666663</ele><time>2026-04-12T08:19:55.407Z</time></trkpt><trkpt lat="45.6286859" lon="11.3943108"><ele>331.3333333333333</ele><time>2026-04-12T08:19:58.407Z</time></trkpt><trkpt lat="45.6287559" lon="11.3943683"><ele>333.0</ele><time>2026-04-12T08:20:01.408Z</time></trkpt><trkpt lat="45.6288223" lon="11.3943949"><ele>334.6666666666667</ele><time>2026-04-12T08:20:04.408Z</time></trkpt><trkpt lat="45.6288956" lon="11.3944188"><ele>336.33333333333337</ele><time>2026-04-12T08:20:07.408Z</time></trkpt><trkpt lat="45.6289583" lon="11.3944425"><ele>338.0</ele><time>2026-04-12T08:20:10.408Z</time></trkpt><trkpt lat="45.6290342" lon="11.3944726"><ele>338.0</ele><time>2026-04-12T08:20:14.408Z</time></trkpt><trkpt lat="45.6291103" lon="11.3945091"><ele>338.0</ele><time>2026-04-12T08:20:18.408Z</time></trkpt><trkpt lat="45.6291906" lon="11.3945404"><ele>338.0</ele><time>2026-04-12T08:20:22.407Z</time></trkpt><trkpt lat="45.6292629" lon="11.3945694"><ele>338.0</ele><time>2026-04-12T08:20:25.408Z</time></trkpt><trkpt lat="45.6293505" lon="11.3945876"><ele>338.0</ele><time>2026-04-12T08:20:28.407Z</time></trkpt><trkpt lat="45.6294321" lon="11.3946251"><ele>338.0</ele><time>2026-04-12T08:20:31.406Z</time></trkpt><trkpt lat="45.6294881" lon="11.394686"><ele>339.0</ele><time>2026-04-12T08:20:34.406Z</time></trkpt><trkpt lat="45.6295457" lon="11.3947435"><ele>340.0</ele><time>2026-04-12T08:20:37.407Z</time></trkpt><trkpt lat="45.6295928" lon="11.3948446"><ele>341.0</ele><time>2026-04-12T08:20:40.407Z</time></trkpt><trkpt lat="45.6296333" lon="11.3949162"><ele>342.0</ele><time>2026-04-12T08:20:42.407Z</time></trkpt><trkpt lat="45.6297076" lon="11.3949771"><ele>343.0</ele><time>2026-04-12T08:20:45.407Z</time></trkpt><trkpt lat="45.6297619" lon="11.3950307"><ele>344.0</ele><time>2026-04-12T08:20:47.408Z</time></trkpt><trkpt lat="45.6298133" lon="11.3950859"><ele>345.0</ele><time>2026-04-12T08:20:49.408Z</time></trkpt><trkpt lat="45.6298773" lon="11.3951654"><ele>345.0</ele><time>2026-04-12T08:20:52.407Z</time></trkpt><trkpt lat="45.6299098" lon="11.3952601"><ele>345.0</ele><time>2026-04-12T08:20:55.407Z</time></trkpt><trkpt lat="45.6299351" lon="11.3953619"><ele>345.0</ele><time>2026-04-12T08:20:59.408Z</time></trkpt><trkpt lat="45.629965" lon="11.3954533"><ele>345.0</ele><time>2026-04-12T08:21:02.408Z</time></trkpt><trkpt lat="45.6299951" lon="11.395534"><ele>345.0</ele><time>2026-04-12T08:21:04.407Z</time></trkpt><trkpt lat="45.6300186" lon="11.3956188"><ele>345.0</ele><time>2026-04-12T08:21:06.408Z</time></trkpt><trkpt lat="45.6300408" lon="11.3957461"><ele>345.0</ele><time>2026-04-12T08:21:09.408Z</time></trkpt><trkpt lat="45.6300571" lon="11.3958532"><ele>342.0</ele><time>2026-04-12T08:21:12.407Z</time></trkpt><trkpt lat="45.6300872" lon="11.3959861"><ele>339.0</ele><time>2026-04-12T08:21:15.407Z</time></trkpt><trkpt lat="45.6301108" lon="11.3960819"><ele>336.0</ele><time>2026-04-12T08:21:17.407Z</time></trkpt><trkpt lat="45.6301398" lon="11.3961859"><ele>333.0</ele><time>2026-04-12T08:21:19.408Z</time></trkpt><trkpt lat="45.630181" lon="11.3962885"><ele>330.0</ele><time>2026-04-12T08:21:21.406Z</time></trkpt><trkpt lat="45.6302156" lon="11.3963863"><ele>327.0</ele><time>2026-04-12T08:21:23.407Z</time></trkpt><trkpt lat="45.6302476" lon="11.3965055"><ele>325.3333333333333</ele><time>2026-04-12T08:21:25.408Z</time></trkpt><trkpt lat="45.630293" lon="11.3966219"><ele>323.6666666666667</ele><time>2026-04-12T08:21:27.408Z</time></trkpt><trkpt lat="45.6303518" lon="11.3967122"><ele>322.0</ele><time>2026-04-12T08:21:29.408Z</time></trkpt><trkpt lat="45.6304009" lon="11.3968008"><ele>320.33333333333337</ele><time>2026-04-12T08:21:31.408Z</time></trkpt><trkpt lat="45.6304532" lon="11.3968856"><ele>318.6666666666667</ele><time>2026-04-12T08:21:33.408Z</time></trkpt><trkpt lat="45.6305269" lon="11.396948"><ele>317.0</ele><time>2026-04-12T08:21:35.408Z</time></trkpt><trkpt lat="45.6306037" lon="11.3969741"><ele>324.33333333333337</ele><time>2026-04-12T08:21:37.408Z</time></trkpt><trkpt lat="45.6306734" lon="11.3969817"><ele>331.6666666666667</ele><time>2026-04-12T08:21:39.408Z</time></trkpt><trkpt lat="45.630741" lon="11.3969915"><ele>339.0</ele><time>2026-04-12T08:21:41.408Z</time></trkpt><trkpt lat="45.6308292" lon="11.3969959"><ele>346.3333333333333</ele><time>2026-04-12T08:21:44.408Z</time></trkpt><trkpt lat="45.6309011" lon="11.3969951"><ele>353.66666666666663</ele><time>2026-04-12T08:21:47.407Z</time></trkpt><trkpt lat="45.6309766" lon="11.3970137"><ele>361.0</ele><time>2026-04-12T08:21:50.408Z</time></trkpt><trkpt lat="45.6310636" lon="11.3970339"><ele>364.16666666666663</ele><time>2026-04-12T08:21:53.408Z</time></trkpt><trkpt lat="45.6311419" lon="11.3970626"><ele>367.3333333333333</ele><time>2026-04-12T08:21:56.408Z</time></trkpt><trkpt lat="45.6312394" lon="11.3970688"><ele>370.5</ele><time>2026-04-12T08:21:59.407Z</time></trkpt><trkpt lat="45.6313089" lon="11.3970594"><ele>373.6666666666667</ele><time>2026-04-12T08:22:01.408Z</time></trkpt><trkpt lat="45.6313953" lon="11.397057"><ele>376.83333333333337</ele><time>2026-04-12T08:22:04.407Z</time></trkpt><trkpt lat="45.6314706" lon="11.3970881"><ele>380.0</ele><time>2026-04-12T08:22:07.407Z</time></trkpt><trkpt lat="45.6315415" lon="11.3971224"><ele>380.0</ele><time>2026-04-12T08:22:10.408Z</time></trkpt><trkpt lat="45.6316005" lon="11.3971632"><ele>380.0</ele><time>2026-04-12T08:22:13.408Z</time></trkpt><trkpt lat="45.6316706" lon="11.397231"><ele>380.0</ele><time>2026-04-12T08:22:17.408Z</time></trkpt><trkpt lat="45.6317325" lon="11.39727"><ele>380.0</ele><time>2026-04-12T08:22:20.407Z</time></trkpt><trkpt lat="45.6318068" lon="11.3973311"><ele>380.0</ele><time>2026-04-12T08:22:23.407Z</time></trkpt><trkpt lat="45.631867" lon="11.3973769"><ele>380.0</ele><time>2026-04-12T08:22:25.408Z</time></trkpt><trkpt lat="45.631944" lon="11.397439"><ele>377.33333333333337</ele><time>2026-04-12T08:22:28.408Z</time></trkpt><trkpt lat="45.6320128" lon="11.3974825"><ele>374.6666666666667</ele><time>2026-04-12T08:22:30.407Z</time></trkpt><trkpt lat="45.632086" lon="11.3975103"><ele>372.0</ele><time>2026-04-12T08:22:32.406Z</time></trkpt><trkpt lat="45.6321547" lon="11.3975312"><ele>369.3333333333333</ele><time>2026-04-12T08:22:34.407Z</time></trkpt><trkpt lat="45.6322204" lon="11.3975483"><ele>366.66666666666663</ele><time>2026-04-12T08:22:36.407Z</time></trkpt><trkpt lat="45.6322842" lon="11.397556"><ele>364.0</ele><time>2026-04-12T08:22:38.408Z</time></trkpt><trkpt lat="45.6324173" lon="11.3975631"><ele>387.0</ele><time>2026-04-12T08:22:42.408Z</time></trkpt><trkpt lat="45.6342154" lon="11.3995307"><ele>387.0</ele><time>2026-04-12T08:24:46.406Z</time></trkpt><trkpt lat="45.6342947" lon="11.3995066"><ele>387.0</ele><time>2026-04-12T08:24:50.408Z</time></trkpt><trkpt lat="45.6343663" lon="11.3994909"><ele>387.0</ele><time>2026-04-12T08:24:54.407Z</time></trkpt><trkpt lat="45.6344417" lon="11.3994782"><ele>387.0</ele><time>2026-04-12T08:24:59.407Z</time></trkpt><trkpt lat="45.6345054" lon="11.3994764"><ele>387.0</ele><time>2026-04-12T08:25:03.408Z</time></trkpt><trkpt lat="45.6346287" lon="11.3994858"><ele>387.0</ele><time>2026-04-12T08:25:11.408Z</time></trkpt><trkpt lat="45.6346904" lon="11.3995096"><ele>386.42857142857144</ele><time>2026-04-12T08:25:15.408Z</time></trkpt><trkpt lat="45.6347563" lon="11.3995125"><ele>385.8571428571429</ele><time>2026-04-12T08:25:20.407Z</time></trkpt><trkpt lat="45.6348375" lon="11.3994942"><ele>385.2857142857143</ele><time>2026-04-12T08:25:24.408Z</time></trkpt><trkpt lat="45.6349016" lon="11.3995074"><ele>384.7142857142857</ele><time>2026-04-12T08:25:27.408Z</time></trkpt><trkpt lat="45.6349621" lon="11.3995507"><ele>384.1428571428571</ele><time>2026-04-12T08:25:30.407Z</time></trkpt><trkpt lat="45.635027" lon="11.3995992"><ele>383.57142857142856</ele><time>2026-04-12T08:25:33.408Z</time></trkpt><trkpt lat="45.6350864" lon="11.3996318"><ele>383.0</ele><time>2026-04-12T08:25:35.407Z</time></trkpt><trkpt lat="45.635166" lon="11.3996926"><ele>383.0</ele><time>2026-04-12T08:25:38.407Z</time></trkpt><trkpt lat="45.6352239" lon="11.3997401"><ele>383.0</ele><time>2026-04-12T08:25:40.408Z</time></trkpt><trkpt lat="45.6353135" lon="11.3997796"><ele>383.0</ele><time>2026-04-12T08:25:43.408Z</time></trkpt><trkpt lat="45.6353805" lon="11.3997885"><ele>383.0</ele><time>2026-04-12T08:25:45.408Z</time></trkpt><trkpt lat="45.6354437" lon="11.3998042"><ele>383.0</ele><time>2026-04-12T08:25:47.407Z</time></trkpt><trkpt lat="45.635509" lon="11.3998045"><ele>383.0</ele><time>2026-04-12T08:25:49.407Z</time></trkpt><trkpt lat="45.6355721" lon="11.3997847"><ele>383.0</ele><time>2026-04-12T08:25:51.407Z</time></trkpt><trkpt lat="45.6356572" lon="11.3997487"><ele>385.2857142857143</ele><time>2026-04-12T08:25:54.408Z</time></trkpt><trkpt lat="45.6357318" lon="11.3997035"><ele>387.57142857142856</ele><time>2026-04-12T08:25:57.408Z</time></trkpt><trkpt lat="45.6357967" lon="11.3996667"><ele>389.8571428571429</ele><time>2026-04-12T08:26:03.407Z</time></trkpt><trkpt lat="45.6358099" lon="11.3997671"><ele>392.1428571428571</ele><time>2026-04-12T08:28:11.406Z</time></trkpt><trkpt lat="45.6357829" lon="11.3998545"><ele>394.42857142857144</ele><time>2026-04-12T08:28:15.408Z</time></trkpt><trkpt lat="45.6357588" lon="11.399961"><ele>396.7142857142857</ele><time>2026-04-12T08:28:18.408Z</time></trkpt><trkpt lat="45.6357566" lon="11.4000581"><ele>399.0</ele><time>2026-04-12T08:28:20.408Z</time></trkpt><trkpt lat="45.6357601" lon="11.400174"><ele>399.0</ele><time>2026-04-12T08:28:22.407Z</time></trkpt><trkpt lat="45.6357668" lon="11.4002737"><ele>399.0</ele><time>2026-04-12T08:28:24.407Z</time></trkpt><trkpt lat="45.6358014" lon="11.4004994"><ele>399.0</ele><time>2026-04-12T08:28:27.408Z</time></trkpt><trkpt lat="45.6357912" lon="11.4007432"><ele>399.0</ele><time>2026-04-12T08:28:28.407Z</time></trkpt><trkpt lat="45.6357841" lon="11.4008502"><ele>397.5</ele><time>2026-04-12T08:28:29.408Z</time></trkpt><trkpt lat="45.635766" lon="11.4009425"><ele>396.0</ele><time>2026-04-12T08:28:30.407Z</time></trkpt><trkpt lat="45.6357668" lon="11.4010343"><ele>394.5</ele><time>2026-04-12T08:28:31.407Z</time></trkpt><trkpt lat="45.6357804" lon="11.4011577"><ele>393.0</ele><time>2026-04-12T08:28:32.408Z</time></trkpt><trkpt lat="45.6358492" lon="11.4012633"><ele>391.5</ele><time>2026-04-12T08:28:33.406Z</time></trkpt><trkpt lat="45.6359174" lon="11.4013565"><ele>390.0</ele><time>2026-04-12T08:28:34.407Z</time></trkpt><trkpt lat="45.6359899" lon="11.4014517"><ele>388.8</ele><time>2026-04-12T08:28:35.408Z</time></trkpt><trkpt lat="45.6360784" lon="11.4015261"><ele>387.6</ele><time>2026-04-12T08:28:36.407Z</time></trkpt><trkpt lat="45.636187" lon="11.4015444"><ele>386.4</ele><time>2026-04-12T08:28:37.407Z</time></trkpt><trkpt lat="45.6362885" lon="11.4016046"><ele>385.2</ele><time>2026-04-12T08:28:38.408Z</time></trkpt><trkpt lat="45.6363902" lon="11.4017115"><ele>384.0</ele><time>2026-04-12T08:28:39.407Z</time></trkpt><trkpt lat="45.6364843" lon="11.4018015"><ele>383.0</ele><time>2026-04-12T08:28:40.408Z</time></trkpt><trkpt lat="45.6365779" lon="11.4018981"><ele>382.0</ele><time>2026-04-12T08:28:41.407Z</time></trkpt><trkpt lat="45.6366616" lon="11.4020135"><ele>381.0</ele><time>2026-04-12T08:28:42.408Z</time></trkpt><trkpt lat="45.6367359" lon="11.4021593"><ele>380.0</ele><time>2026-04-12T08:28:43.408Z</time></trkpt><trkpt lat="45.6367563" lon="11.4023021"><ele>378.75</ele><time>2026-04-12T08:28:44.406Z</time></trkpt><trkpt lat="45.6367998" lon="11.4024452"><ele>377.5</ele><time>2026-04-12T08:28:45.407Z</time></trkpt><trkpt lat="45.6368411" lon="11.4026209"><ele>376.25</ele><time>2026-04-12T08:28:46.408Z</time></trkpt><trkpt lat="45.6368726" lon="11.4027941"><ele>375.0</ele><time>2026-04-12T08:28:47.408Z</time></trkpt><trkpt lat="45.6368773" lon="11.4029576"><ele>373.0</ele><time>2026-04-12T08:28:48.408Z</time></trkpt><trkpt lat="45.6368778" lon="11.4031313"><ele>371.0</ele><time>2026-04-12T08:28:49.407Z</time></trkpt><trkpt lat="45.6368707" lon="11.4033104"><ele>369.0</ele><time>2026-04-12T08:28:50.408Z</time></trkpt><trkpt lat="45.6368725" lon="11.4034834"><ele>367.0</ele><time>2026-04-12T08:28:51.407Z</time></trkpt><trkpt lat="45.6368908" lon="11.4036635"><ele>363.75</ele><time>2026-04-12T08:28:52.407Z</time></trkpt><trkpt lat="45.6369091" lon="11.4038473"><ele>360.5</ele><time>2026-04-12T08:28:53.408Z</time></trkpt><trkpt lat="45.6369368" lon="11.4040522"><ele>357.25</ele><time>2026-04-12T08:28:54.408Z</time></trkpt><trkpt lat="45.6369555" lon="11.4042527"><ele>354.0</ele><time>2026-04-12T08:28:55.408Z</time></trkpt><trkpt lat="45.6369864" lon="11.4044453"><ele>355.75</ele><time>2026-04-12T08:28:56.407Z</time></trkpt><trkpt lat="45.6370335" lon="11.4046468"><ele>357.5</ele><time>2026-04-12T08:28:57.408Z</time></trkpt><trkpt lat="45.637086" lon="11.4048296"><ele>359.25</ele><time>2026-04-12T08:28:58.407Z</time></trkpt><trkpt lat="45.6371424" lon="11.4050241"><ele>361.0</ele><time>2026-04-12T08:28:59.407Z</time></trkpt><trkpt lat="45.6371854" lon="11.4052395"><ele>361.0</ele><time>2026-04-12T08:29:00.408Z</time></trkpt><trkpt lat="45.6372288" lon="11.4053431"><ele>361.0</ele><time>2026-04-12T08:29:01.9Z</time></trkpt><trkpt lat="45.641121" lon="11.4063029"><ele>380.0</ele><time>2026-04-12T08:29:39.899Z</time></trkpt><trkpt lat="45.6367359" lon="11.4021593"><ele>378.75</ele><time>2026-04-12T08:28:43.408Z</time></trkpt><trkpt lat="45.6367563" lon="11.4023021"><ele>377.5</ele><time>2026-04-12T08:28:44.406Z</time></trkpt><trkpt lat="45.6367998" lon="11.4024452"><ele>376.25</ele><time>2026-04-12T08:28:45.407Z</time></trkpt><trkpt lat="45.6368411" lon="11.4026209"><ele>375.0</ele><time>2026-04-12T08:28:46.408Z</time></trkpt><trkpt lat="45.6368726" lon="11.4027941"><ele>375.0</ele><time>2026-04-12T08:28:47.408Z</time></trkpt><trkpt lat="45.6368773" lon="11.4029576"><ele>375.0</ele><time>2026-04-12T08:28:48.408Z</time></trkpt><trkpt lat="45.6368778" lon="11.4031313"><ele>375.0</ele><time>2026-04-12T08:28:49.407Z</time></trkpt><trkpt lat="45.6368707" lon="11.4033104"><ele>375.0</ele><time>2026-04-12T08:28:50.408Z</time></trkpt><trkpt lat="45.6368725" lon="11.4034834"><ele>373.0</ele><time>2026-04-12T08:28:51.407Z</time></trkpt><trkpt lat="45.6368908" lon="11.4036635"><ele>371.0</ele><time>2026-04-12T08:28:52.407Z</time></trkpt><trkpt lat="45.6369091" lon="11.4038473"><ele>369.0</ele><time>2026-04-12T08:28:53.408Z</time></trkpt><trkpt lat="45.6369368" lon="11.4040522"><ele>367.0</ele><time>2026-04-12T08:28:54.408Z</time></trkpt><trkpt lat="45.6369555" lon="11.4042527"><ele>365.5</ele><time>2026-04-12T08:28:55.408Z</time></trkpt><trkpt lat="45.6369864" lon="11.4044453"><ele>364.0</ele><time>2026-04-12T08:28:56.407Z</time></trkpt><trkpt lat="45.6370335" lon="11.4046468"><ele>362.5</ele><time>2026-04-12T08:28:57.408Z</time></trkpt><trkpt lat="45.637086" lon="11.4048296"><ele>361.0</ele><time>2026-04-12T08:28:58.407Z</time></trkpt><trkpt lat="45.6371424" lon="11.4050241"><ele>361.0</ele><time>2026-04-12T08:28:59.407Z</time></trkpt><trkpt lat="45.6371854" lon="11.4052395"><ele>361.0</ele><time>2026-04-12T08:29:00.408Z</time></trkpt><trkpt lat="45.6372288" lon="11.4053431"><ele>361.0</ele><time>2026-04-12T08:29:01.9Z</time></trkpt><trkpt lat="45.641121" lon="11.4063029"><ele>353.4</ele><time>2026-04-12T08:29:39.899Z</time></trkpt><trkpt lat="45.6412816" lon="11.4062614"><ele>345.8</ele><time>2026-04-12T08:29:41.408Z</time></trkpt><trkpt lat="45.6413721" lon="11.4062349"><ele>338.2</ele><time>2026-04-12T08:29:42.408Z</time></trkpt><trkpt lat="45.6414624" lon="11.4062023"><ele>330.59999999999997</ele><time>2026-04-12T08:29:43.408Z</time></trkpt><trkpt lat="45.6415516" lon="11.406166"><ele>323.0</ele><time>2026-04-12T08:29:44.408Z</time></trkpt><trkpt lat="45.6416376" lon="11.4061256"><ele>323.0</ele><time>2026-04-12T08:29:45.408Z</time></trkpt><trkpt lat="45.6417279" lon="11.4060894"><ele>323.0</ele><time>2026-04-12T08:29:46.407Z</time></trkpt><trkpt lat="45.6418194" lon="11.4060606"><ele>323.0</ele><time>2026-04-12T08:29:47.408Z</time></trkpt><trkpt lat="45.6419095" lon="11.4060304"><ele>323.0</ele><time>2026-04-12T08:29:48.408Z</time></trkpt><trkpt lat="45.6419993" lon="11.4060012"><ele>323.0</ele><time>2026-04-12T08:29:49.407Z</time></trkpt><trkpt lat="45.6420882" lon="11.4059866"><ele>321.33333333333337</ele><time>2026-04-12T08:29:50.407Z</time></trkpt><trkpt lat="45.6421789" lon="11.4059934"><ele>319.6666666666667</ele><time>2026-04-12T08:29:51.408Z</time></trkpt><trkpt lat="45.642266" lon="11.4060027"><ele>318.0</ele><time>2026-04-12T08:29:52.406Z</time></trkpt><trkpt lat="45.642352" lon="11.4060017"><ele>316.3333333333333</ele><time>2026-04-12T08:29:53.408Z</time></trkpt><trkpt lat="45.6424409" lon="11.4059918"><ele>314.66666666666663</ele><time>2026-04-12T08:29:54.408Z</time></trkpt><trkpt lat="45.6425285" lon="11.4059763"><ele>313.0</ele><time>2026-04-12T08:29:55.408Z</time></trkpt><trkpt lat="45.6426166" lon="11.4059501"><ele>313.0</ele><time>2026-04-12T08:29:56.407Z</time></trkpt><trkpt lat="45.642708" lon="11.4059135"><ele>313.0</ele><time>2026-04-12T08:29:57.408Z</time></trkpt><trkpt lat="45.6427943" lon="11.4058689"><ele>313.0</ele><time>2026-04-12T08:29:58.407Z</time></trkpt><trkpt lat="45.6428777" lon="11.4058478"><ele>313.0</ele><time>2026-04-12T08:29:59.408Z</time></trkpt><trkpt lat="45.6429727" lon="11.4058395"><ele>313.0</ele><time>2026-04-12T08:30:00.408Z</time></trkpt><trkpt lat="45.6430683" lon="11.4058157"><ele>310.8</ele><time>2026-04-12T08:30:01.408Z</time></trkpt><trkpt lat="45.6431609" lon="11.4057861"><ele>308.6</ele><time>2026-04-12T08:30:02.408Z</time></trkpt><trkpt lat="45.6432412" lon="11.4058572"><ele>306.4</ele><time>2026-04-12T08:30:03.407Z</time></trkpt><trkpt lat="45.6433213" lon="11.4059888"><ele>304.2</ele><time>2026-04-12T08:30:04.407Z</time></trkpt><trkpt lat="45.6433845" lon="11.4061244"><ele>302.0</ele><time>2026-04-12T08:30:05.406Z</time></trkpt><trkpt lat="45.6434456" lon="11.4062541"><ele>300.4</ele><time>2026-04-12T08:30:06.407Z</time></trkpt><trkpt lat="45.6435121" lon="11.406381"><ele>298.79999999999995</ele><time>2026-04-12T08:30:07.407Z</time></trkpt><trkpt lat="45.6435831" lon="11.4065021"><ele>297.2</ele><time>2026-04-12T08:30:08.407Z</time></trkpt><trkpt lat="45.6436461" lon="11.4065801"><ele>295.59999999999997</ele><time>2026-04-12T08:30:09.408Z</time></trkpt><trkpt lat="45.6437071" lon="11.4066545"><ele>294.0</ele><time>2026-04-12T08:30:10.406Z</time></trkpt><trkpt lat="45.6437565" lon="11.4067406"><ele>294.0</ele><time>2026-04-12T08:30:11.408Z</time></trkpt><trkpt lat="45.6437716" lon="11.4068363"><ele>294.0</ele><time>2026-04-12T08:30:12.408Z</time></trkpt><trkpt lat="45.6437462" lon="11.4069324"><ele>294.0</ele><time>2026-04-12T08:30:13.407Z</time></trkpt><trkpt lat="45.643718" lon="11.4070267"><ele>294.0</ele><time>2026-04-12T08:30:14.407Z</time></trkpt><trkpt lat="45.6436743" lon="11.4071019"><ele>294.0</ele><time>2026-04-12T08:30:15.409Z</time></trkpt><trkpt lat="45.6436241" lon="11.4071594"><ele>294.0</ele><time>2026-04-12T08:30:16.408Z</time></trkpt><trkpt lat="45.6435734" lon="11.4072152"><ele>294.0</ele><time>2026-04-12T08:30:17.408Z</time></trkpt><trkpt lat="45.6435304" lon="11.4072854"><ele>293.8333333333333</ele><time>2026-04-12T08:30:18.407Z</time></trkpt><trkpt lat="45.643461" lon="11.4073397"><ele>293.6666666666667</ele><time>2026-04-12T08:30:19.407Z</time></trkpt><trkpt lat="45.6433969" lon="11.4073997"><ele>293.5</ele><time>2026-04-12T08:30:20.407Z</time></trkpt><trkpt lat="45.6433399" lon="11.4074992"><ele>293.33333333333337</ele><time>2026-04-12T08:30:21.408Z</time></trkpt><trkpt lat="45.6432895" lon="11.4075718"><ele>293.1666666666667</ele><time>2026-04-12T08:30:22.407Z</time></trkpt><trkpt lat="45.6432259" lon="11.4077185"><ele>293.0</ele><time>2026-04-12T08:30:24.406Z</time></trkpt><trkpt lat="45.6432001" lon="11.4078009"><ele>293.0</ele><time>2026-04-12T08:30:25.407Z</time></trkpt><trkpt lat="45.6431387" lon="11.4079184"><ele>293.0</ele><time>2026-04-12T08:30:27.406Z</time></trkpt><trkpt lat="45.6431044" lon="11.4080373"><ele>293.0</ele><time>2026-04-12T08:30:29.408Z</time></trkpt><trkpt lat="45.6430227" lon="11.4080768"><ele>293.0</ele><time>2026-04-12T08:30:31.408Z</time></trkpt><trkpt lat="45.6429103" lon="11.4081055"><ele>293.0</ele><time>2026-04-12T08:30:33.408Z</time></trkpt><trkpt lat="45.6427904" lon="11.4081841"><ele>293.1666666666667</ele><time>2026-04-12T08:30:35.406Z</time></trkpt><trkpt lat="45.6427346" lon="11.4082626"><ele>293.33333333333337</ele><time>2026-04-12T08:30:36.407Z</time></trkpt><trkpt lat="45.6426901" lon="11.408338"><ele>293.5</ele><time>2026-04-12T08:30:37.408Z</time></trkpt><trkpt lat="45.6426207" lon="11.4083832"><ele>293.6666666666667</ele><time>2026-04-12T08:30:38.407Z</time></trkpt><trkpt lat="45.6425153" lon="11.4083699"><ele>293.8333333333333</ele><time>2026-04-12T08:30:40.408Z</time></trkpt><trkpt lat="45.6424228" lon="11.4083659"><ele>294.0</ele><time>2026-04-12T08:30:42.407Z</time></trkpt><trkpt lat="45.6423643" lon="11.4082341"><ele>294.0</ele><time>2026-04-12T08:30:44.407Z</time></trkpt><trkpt lat="45.642323" lon="11.4081349"><ele>294.0</ele><time>2026-04-12T08:30:45.407Z</time></trkpt><trkpt lat="45.6422881" lon="11.4080401"><ele>294.0</ele><time>2026-04-12T08:30:46.407Z</time></trkpt><trkpt lat="45.6422418" lon="11.4079558"><ele>294.0</ele><time>2026-04-12T08:30:47.407Z</time></trkpt><trkpt lat="45.642211" lon="11.4078697"><ele>294.0</ele><time>2026-04-12T08:30:48.406Z</time></trkpt><trkpt lat="45.6421405" lon="11.407829"><ele>294.0</ele><time>2026-04-12T08:30:49.408Z</time></trkpt><trkpt lat="45.642068" lon="11.4078057"><ele>294.0</ele><time>2026-04-12T08:30:50.407Z</time></trkpt><trkpt lat="45.6419723" lon="11.4078026"><ele>291.0</ele><time>2026-04-12T08:30:51.408Z</time></trkpt><trkpt lat="45.6418882" lon="11.4078237"><ele>288.0</ele><time>2026-04-12T08:30:52.408Z</time></trkpt><trkpt lat="45.6417993" lon="11.4078559"><ele>285.0</ele><time>2026-04-12T08:30:53.407Z</time></trkpt><trkpt lat="45.6417124" lon="11.4078878"><ele>282.0</ele><time>2026-04-12T08:30:54.407Z</time></trkpt><trkpt lat="45.6416218" lon="11.4079141"><ele>279.0</ele><time>2026-04-12T08:30:55.407Z</time></trkpt><trkpt lat="45.6415263" lon="11.4079227"><ele>279.0</ele><time>2026-04-12T08:30:56.408Z</time></trkpt><trkpt lat="45.6414176" lon="11.4079407"><ele>279.0</ele><time>2026-04-12T08:30:57.406Z</time></trkpt><trkpt lat="45.6413183" lon="11.4079671"><ele>279.0</ele><time>2026-04-12T08:30:58.407Z</time></trkpt><trkpt lat="45.6412242" lon="11.4080025"><ele>279.0</ele><time>2026-04-12T08:30:59.408Z</time></trkpt><trkpt lat="45.6411315" lon="11.4080396"><ele>279.0</ele><time>2026-04-12T08:31:00.406Z</time></trkpt><trkpt lat="45.6410364" lon="11.4080907"><ele>276.75</ele><time>2026-04-12T08:31:01.408Z</time></trkpt><trkpt lat="45.6409274" lon="11.4081632"><ele>274.5</ele><time>2026-04-12T08:31:02.407Z</time></trkpt><trkpt lat="45.6408348" lon="11.4082208"><ele>272.25</ele><time>2026-04-12T08:31:03.407Z</time></trkpt><trkpt lat="45.640732" lon="11.4082746"><ele>270.0</ele><time>2026-04-12T08:31:04.408Z</time></trkpt><trkpt lat="45.6406212" lon="11.4083503"><ele>270.0</ele><time>2026-04-12T08:31:05.407Z</time></trkpt><trkpt lat="45.6405273" lon="11.4084067"><ele>270.0</ele><time>2026-04-12T08:31:06.408Z</time></trkpt><trkpt lat="45.6404438" lon="11.4084531"><ele>270.0</ele><time>2026-04-12T08:31:07.408Z</time></trkpt><trkpt lat="45.6403522" lon="11.408577"><ele>270.0</ele><time>2026-04-12T08:31:08.407Z</time></trkpt><trkpt lat="45.6402692" lon="11.4086598"><ele>270.0</ele><time>2026-04-12T08:31:09.406Z</time></trkpt><trkpt lat="45.6402145" lon="11.4087648"><ele>270.0</ele><time>2026-04-12T08:31:10.408Z</time></trkpt><trkpt lat="45.640145" lon="11.4088525"><ele>270.0</ele><time>2026-04-12T08:31:11.408Z</time></trkpt><trkpt lat="45.6400871" lon="11.4089214"><ele>270.0</ele><time>2026-04-12T08:31:12.408Z</time></trkpt><trkpt lat="45.6400216" lon="11.4089956"><ele>270.0</ele><time>2026-04-12T08:31:13.408Z</time></trkpt><trkpt lat="45.639976" lon="11.4090735"><ele>270.0</ele><time>2026-04-12T08:31:14.409Z</time></trkpt><trkpt lat="45.6398996" lon="11.4090663"><ele>270.0</ele><time>2026-04-12T08:31:15.408Z</time></trkpt><trkpt lat="45.6398368" lon="11.40909"><ele>270.0</ele><time>2026-04-12T08:31:16.408Z</time></trkpt><trkpt lat="45.6397616" lon="11.40912"><ele>270.0</ele><time>2026-04-12T08:31:17.408Z</time></trkpt><trkpt lat="45.6396901" lon="11.4091662"><ele>270.0</ele><time>2026-04-12T08:31:18.407Z</time></trkpt><trkpt lat="45.6396216" lon="11.4092118"><ele>270.0</ele><time>2026-04-12T08:31:19.407Z</time></trkpt><trkpt lat="45.6395655" lon="11.4092648"><ele>270.0</ele><time>2026-04-12T08:31:20.408Z</time></trkpt><trkpt lat="45.6394892" lon="11.4093142"><ele>270.0</ele><time>2026-04-12T08:31:21.408Z</time></trkpt><trkpt lat="45.6394232" lon="11.409377"><ele>270.5</ele><time>2026-04-12T08:31:22.408Z</time></trkpt><trkpt lat="45.6393373" lon="11.4094381"><ele>271.0</ele><time>2026-04-12T08:31:23.407Z</time></trkpt><trkpt lat="45.6392635" lon="11.4094871"><ele>271.5</ele><time>2026-04-12T08:31:24.408Z</time></trkpt><trkpt lat="45.6391904" lon="11.4095217"><ele>272.0</ele><time>2026-04-12T08:31:25.407Z</time></trkpt><trkpt lat="45.6390756" lon="11.4095847"><ele>272.5</ele><time>2026-04-12T08:31:27.408Z</time></trkpt><trkpt lat="45.6390117" lon="11.4096223"><ele>273.0</ele><time>2026-04-12T08:31:29.408Z</time></trkpt><trkpt lat="45.6389311" lon="11.4096643"><ele>271.8</ele><time>2026-04-12T08:31:31.408Z</time></trkpt><trkpt lat="45.6389061" lon="11.4097658"><ele>270.6</ele><time>2026-04-12T08:31:33.406Z</time></trkpt><trkpt lat="45.6388998" lon="11.4099243"><ele>269.4</ele><time>2026-04-12T08:31:35.408Z</time></trkpt><trkpt lat="45.6388328" lon="11.4100427"><ele>268.2</ele><time>2026-04-12T08:31:37.407Z</time></trkpt><trkpt lat="45.6387692" lon="11.4100966"><ele>267.0</ele><time>2026-04-12T08:31:39.408Z</time></trkpt><trkpt lat="45.6387588" lon="11.4099631"><ele>267.0</ele><time>2026-04-12T08:31:49.408Z</time></trkpt><trkpt lat="45.6387164" lon="11.4098603"><ele>267.0</ele><time>2026-04-12T08:31:51.408Z</time></trkpt><trkpt lat="45.6386604" lon="11.409789"><ele>267.0</ele><time>2026-04-12T08:31:52.407Z</time></trkpt><trkpt lat="45.63861" lon="11.409683"><ele>267.0</ele><time>2026-04-12T08:31:54.408Z</time></trkpt><trkpt lat="45.6385736" lon="11.4096019"><ele>267.0</ele><time>2026-04-12T08:31:55.408Z</time></trkpt><trkpt lat="45.6385386" lon="11.4094682"><ele>267.0</ele><time>2026-04-12T08:31:57.407Z</time></trkpt><trkpt lat="45.638455" lon="11.4093415"><ele>266.5</ele><time>2026-04-12T08:31:59.407Z</time></trkpt><trkpt lat="45.6383991" lon="11.4092134"><ele>266.0</ele><time>2026-04-12T08:32:01.407Z</time></trkpt><trkpt lat="45.6383585" lon="11.4091389"><ele>265.5</ele><time>2026-04-12T08:32:03.407Z</time></trkpt><trkpt lat="45.6383079" lon="11.40907"><ele>265.0</ele><time>2026-04-12T08:32:04.407Z</time></trkpt><trkpt lat="45.6382631" lon="11.4089492"><ele>264.5</ele><time>2026-04-12T08:32:06.408Z</time></trkpt><trkpt lat="45.6382077" lon="11.4089026"><ele>264.0</ele><time>2026-04-12T08:32:08.408Z</time></trkpt><trkpt lat="45.6381419" lon="11.4088577"><ele>266.59999999999997</ele><time>2026-04-12T08:32:12.408Z</time></trkpt><trkpt lat="45.6380818" lon="11.4088187"><ele>269.2</ele><time>2026-04-12T08:32:17.407Z</time></trkpt><trkpt lat="45.6379819" lon="11.4088097"><ele>271.79999999999995</ele><time>2026-04-12T08:32:20.408Z</time></trkpt><trkpt lat="45.6379103" lon="11.408803"><ele>274.4</ele><time>2026-04-12T08:32:22.406Z</time></trkpt><trkpt lat="45.637799" lon="11.4087985"><ele>277.0</ele><time>2026-04-12T08:32:25.408Z</time></trkpt><trkpt lat="45.6376864" lon="11.4087947"><ele>277.8</ele><time>2026-04-12T08:32:26.407Z</time></trkpt><trkpt lat="45.6375931" lon="11.4088042"><ele>278.6</ele><time>2026-04-12T08:32:27.408Z</time></trkpt><trkpt lat="45.6375118" lon="11.4088085"><ele>279.40000000000003</ele><time>2026-04-12T08:32:28.408Z</time></trkpt><trkpt lat="45.6374061" lon="11.408847"><ele>280.2</ele><time>2026-04-12T08:32:30.408Z</time></trkpt><trkpt lat="45.6372806" lon="11.4088685"><ele>281.0</ele><time>2026-04-12T08:32:32.407Z</time></trkpt><trkpt lat="45.6372181" lon="11.4088816"><ele>280.1666666666667</ele><time>2026-04-12T08:32:33.407Z</time></trkpt><trkpt lat="45.6371509" lon="11.4088955"><ele>279.33333333333337</ele><time>2026-04-12T08:32:36.407Z</time></trkpt><trkpt lat="45.6370795" lon="11.4088562"><ele>278.5</ele><time>2026-04-12T08:32:40.407Z</time></trkpt><trkpt lat="45.6369495" lon="11.4088374"><ele>277.6666666666667</ele><time>2026-04-12T08:32:43.408Z</time></trkpt><trkpt lat="45.6368665" lon="11.4088162"><ele>276.8333333333333</ele><time>2026-04-12T08:32:46.408Z</time></trkpt><trkpt lat="45.6367979" lon="11.408811"><ele>276.0</ele><time>2026-04-12T08:32:48.408Z</time></trkpt><trkpt lat="45.6367319" lon="11.4088073"><ele>272.6666666666667</ele><time>2026-04-12T08:32:50.406Z</time></trkpt><trkpt lat="45.6366525" lon="11.4088341"><ele>269.3333333333333</ele><time>2026-04-12T08:32:52.407Z</time></trkpt><trkpt lat="45.6365723" lon="11.4088922"><ele>266.0</ele><time>2026-04-12T08:32:54.408Z</time></trkpt><trkpt lat="45.6364836" lon="11.408965"><ele>262.66666666666663</ele><time>2026-04-12T08:32:56.407Z</time></trkpt><trkpt lat="45.6364278" lon="11.4090495"><ele>259.3333333333333</ele><time>2026-04-12T08:32:58.408Z</time></trkpt><trkpt lat="45.636415" lon="11.4091385"><ele>256.0</ele><time>2026-04-12T08:33:00.408Z</time></trkpt><trkpt lat="45.6364374" lon="11.4092437"><ele>256.0</ele><time>2026-04-12T08:33:04.407Z</time></trkpt><trkpt lat="45.6364793" lon="11.4093381"><ele>255.99999999999997</ele><time>2026-04-12T08:33:08.407Z</time></trkpt><trkpt lat="45.6364521" lon="11.4094302"><ele>256.0</ele><time>2026-04-12T08:33:11.406Z</time></trkpt><trkpt lat="45.636421" lon="11.4095227"><ele>256.0</ele><time>2026-04-12T08:33:14.408Z</time></trkpt><trkpt lat="45.6363822" lon="11.4096054"><ele>255.99999999999997</ele><time>2026-04-12T08:33:16.408Z</time></trkpt><trkpt lat="45.6363397" lon="11.4096935"><ele>256.0</ele><time>2026-04-12T08:33:19.407Z</time></trkpt><trkpt lat="45.6363052" lon="11.4097991"><ele>256.0</ele><time>2026-04-12T08:33:23.408Z</time></trkpt><trkpt lat="45.6362527" lon="11.4098913"><ele>252.85714285714283</ele><time>2026-04-12T08:33:27.407Z</time></trkpt><trkpt lat="45.6361821" lon="11.4099334"><ele>249.7142857142857</ele><time>2026-04-12T08:33:32.407Z</time></trkpt><trkpt lat="45.6361109" lon="11.4099887"><ele>246.57142857142856</ele><time>2026-04-12T08:33:35.407Z</time></trkpt><trkpt lat="45.6360406" lon="11.4100158"><ele>243.42857142857144</ele><time>2026-04-12T08:33:37.408Z</time></trkpt><trkpt lat="45.6359659" lon="11.4100304"><ele>240.2857142857143</ele><time>2026-04-12T08:33:40.408Z</time></trkpt><trkpt lat="45.6359013" lon="11.4100495"><ele>237.14285714285717</ele><time>2026-04-12T08:33:43.408Z</time></trkpt><trkpt lat="45.6358447" lon="11.4100957"><ele>234.0</ele><time>2026-04-12T08:33:46.408Z</time></trkpt><trkpt lat="45.6357735" lon="11.4101687"><ele>233.83333333333334</ele><time>2026-04-12T08:33:50.408Z</time></trkpt><trkpt lat="45.6357034" lon="11.4102388"><ele>233.66666666666669</ele><time>2026-04-12T08:33:53.407Z</time></trkpt><trkpt lat="45.6356373" lon="11.4103096"><ele>233.5</ele><time>2026-04-12T08:33:55.408Z</time></trkpt><trkpt lat="45.6355683" lon="11.4104013"><ele>233.33333333333334</ele><time>2026-04-12T08:33:57.408Z</time></trkpt><trkpt lat="45.6354983" lon="11.4105026"><ele>233.16666666666669</ele><time>2026-04-12T08:33:59.407Z</time></trkpt><trkpt lat="45.6354391" lon="11.4105881"><ele>233.0</ele><time>2026-04-12T08:34:01.408Z</time></trkpt><trkpt lat="45.6353885" lon="11.4106661"><ele>231.33333333333334</ele><time>2026-04-12T08:34:03.408Z</time></trkpt><trkpt lat="45.6353291" lon="11.4107205"><ele>229.66666666666669</ele><time>2026-04-12T08:34:06.408Z</time></trkpt><trkpt lat="45.6352664" lon="11.4108248"><ele>228.0</ele><time>2026-04-12T08:34:10.407Z</time></trkpt><trkpt lat="45.6352563" lon="11.41092"><ele>226.33333333333331</ele><time>2026-04-12T08:34:14.408Z</time></trkpt><trkpt lat="45.6352737" lon="11.4110114"><ele>224.66666666666666</ele><time>2026-04-12T08:36:24.406Z</time></trkpt><trkpt lat="45.6353222" lon="11.4111065"><ele>223.0</ele><time>2026-04-12T08:36:32.408Z</time></trkpt><trkpt lat="45.6353959" lon="11.4111554"><ele>222.99999999999997</ele><time>2026-04-12T08:36:35.407Z</time></trkpt><trkpt lat="45.6354542" lon="11.4112006"><ele>223.0</ele><time>2026-04-12T08:36:37.408Z</time></trkpt><trkpt lat="45.6355253" lon="11.4112359"><ele>223.0</ele><time>2026-04-12T08:36:39.408Z</time></trkpt><trkpt lat="45.6356034" lon="11.4112474"><ele>223.0</ele><time>2026-04-12T08:36:41.407Z</time></trkpt><trkpt lat="45.635663" lon="11.4112141"><ele>222.99999999999997</ele><time>2026-04-12T08:36:43.407Z</time></trkpt><trkpt lat="45.6357224" lon="11.4111667"><ele>223.0</ele><time>2026-04-12T08:36:45.408Z</time></trkpt><trkpt lat="45.635492" lon="11.4111299"><ele>215.5</ele><time>2026-04-12T08:36:51.444Z</time></trkpt><trkpt lat="45.6357579" lon="11.4114596"><ele>208.0</ele><time>2026-04-12T08:36:55.408Z</time></trkpt><trkpt lat="45.6357999" lon="11.4116113"><ele>208.0</ele><time>2026-04-12T08:36:56.408Z</time></trkpt><trkpt lat="45.6358252" lon="11.4117512"><ele>208.0</ele><time>2026-04-12T08:36:57.408Z</time></trkpt><trkpt lat="45.635841" lon="11.4118755"><ele>208.0</ele><time>2026-04-12T08:36:58.408Z</time></trkpt><trkpt lat="45.6358511" lon="11.4119765"><ele>208.0</ele><time>2026-04-12T08:36:59.407Z</time></trkpt><trkpt lat="45.6358639" lon="11.4121267"><ele>208.0</ele><time>2026-04-12T08:37:01.408Z</time></trkpt><trkpt lat="45.635886" lon="11.4122836"><ele>206.16666666666666</ele><time>2026-04-12T08:37:03.408Z</time></trkpt><trkpt lat="45.6359041" lon="11.4124146"><ele>204.33333333333331</ele><time>2026-04-12T08:37:05.408Z</time></trkpt><trkpt lat="45.6358388" lon="11.4125079"><ele>202.5</ele><time>2026-04-12T08:37:07.408Z</time></trkpt><trkpt lat="45.6357839" lon="11.4125612"><ele>200.66666666666669</ele><time>2026-04-12T08:37:08.408Z</time></trkpt><trkpt lat="45.6357263" lon="11.4126343"><ele>198.83333333333334</ele><time>2026-04-12T08:37:09.407Z</time></trkpt><trkpt lat="45.6356682" lon="11.4127278"><ele>197.0</ele><time>2026-04-12T08:37:10.408Z</time></trkpt><trkpt lat="45.6356219" lon="11.412828"><ele>197.0</ele><time>2026-04-12T08:37:11.408Z</time></trkpt><trkpt lat="45.6355767" lon="11.4129348"><ele>197.0</ele><time>2026-04-12T08:37:12.407Z</time></trkpt><trkpt lat="45.6355342" lon="11.4130445"><ele>197.0</ele><time>2026-04-12T08:37:13.408Z</time></trkpt><trkpt lat="45.6354992" lon="11.4131641"><ele>197.0</ele><time>2026-04-12T08:37:14.408Z</time></trkpt><trkpt lat="45.6354899" lon="11.413312"><ele>197.0</ele><time>2026-04-12T08:37:15.408Z</time></trkpt><trkpt lat="45.6354827" lon="11.4134293"><ele>195.50000000000003</ele><time>2026-04-12T08:37:16.408Z</time></trkpt><trkpt lat="45.6354589" lon="11.4135313"><ele>194.0</ele><time>2026-04-12T08:37:17.407Z</time></trkpt><trkpt lat="45.6354027" lon="11.4136167"><ele>192.5</ele><time>2026-04-12T08:37:19.408Z</time></trkpt><trkpt lat="45.6353592" lon="11.4137649"><ele>191.0</ele><time>2026-04-12T08:37:22.408Z</time></trkpt><trkpt lat="45.6353282" lon="11.4138512"><ele>189.5</ele><time>2026-04-12T08:37:23.408Z</time></trkpt><trkpt lat="45.6352789" lon="11.4139883"><ele>188.0</ele><time>2026-04-12T08:37:24.406Z</time></trkpt><trkpt lat="45.6352412" lon="11.4140642"><ele>184.66666666666666</ele><time>2026-04-12T08:37:25.408Z</time></trkpt><trkpt lat="45.6351726" lon="11.4141335"><ele>181.33333333333331</ele><time>2026-04-12T08:37:26.408Z</time></trkpt><trkpt lat="45.6351464" lon="11.4142256"><ele>178.0</ele><time>2026-04-12T08:37:27.408Z</time></trkpt><trkpt lat="45.6350924" lon="11.414321"><ele>174.66666666666666</ele><time>2026-04-12T08:37:28.408Z</time></trkpt><trkpt lat="45.6350363" lon="11.414435"><ele>171.33333333333334</ele><time>2026-04-12T08:37:29.407Z</time></trkpt><trkpt lat="45.6349912" lon="11.4145406"><ele>168.0</ele><time>2026-04-12T08:37:30.408Z</time></trkpt><trkpt lat="45.6349441" lon="11.4146412"><ele>167.28571428571428</ele><time>2026-04-12T08:37:31.408Z</time></trkpt><trkpt lat="45.6348682" lon="11.4147191"><ele>166.57142857142856</ele><time>2026-04-12T08:37:32.408Z</time></trkpt><trkpt lat="45.6348386" lon="11.4148209"><ele>165.85714285714286</ele><time>2026-04-12T08:37:33.408Z</time></trkpt><trkpt lat="45.634806" lon="11.4149019"><ele>165.14285714285714</ele><time>2026-04-12T08:37:34.408Z</time></trkpt><trkpt lat="45.6347599" lon="11.4149806"><ele>164.42857142857142</ele><time>2026-04-12T08:37:35.407Z</time></trkpt><trkpt lat="45.6347265" lon="11.415075"><ele>163.71428571428572</ele><time>2026-04-12T08:37:36.407Z</time></trkpt><trkpt lat="45.6346981" lon="11.4151629"><ele>163.0</ele><time>2026-04-12T08:37:37.407Z</time></trkpt><trkpt lat="45.6346635" lon="11.4152521"><ele>163.0</ele><time>2026-04-12T08:37:38.408Z</time></trkpt><trkpt lat="45.6346233" lon="11.4153256"><ele>163.0</ele><time>2026-04-12T08:37:39.406Z</time></trkpt><trkpt lat="45.6345937" lon="11.4154076"><ele>163.0</ele><time>2026-04-12T08:37:40.408Z</time></trkpt><trkpt lat="45.634558" lon="11.4154844"><ele>163.0</ele><time>2026-04-12T08:37:41.408Z</time></trkpt><trkpt lat="45.6344931" lon="11.4156194"><ele>163.0</ele><time>2026-04-12T08:37:43.408Z</time></trkpt><trkpt lat="45.6344684" lon="11.4157229"><ele>163.0</ele><time>2026-04-12T08:37:45.408Z</time></trkpt><trkpt lat="45.6344195" lon="11.4158269"><ele>153.0</ele><time>2026-04-12T08:37:47.408Z</time></trkpt><trkpt lat="45.6343593" lon="11.4158697"><ele>153.0</ele><time>2026-04-12T08:37:50.408Z</time></trkpt><trkpt lat="45.6343226" lon="11.4157594"><ele>153.0</ele><time>2026-04-12T08:37:52.408Z</time></trkpt><trkpt lat="45.6343311" lon="11.4156639"><ele>153.0</ele><time>2026-04-12T08:37:53.407Z</time></trkpt><trkpt lat="45.6343446" lon="11.4155587"><ele>153.0</ele><time>2026-04-12T08:37:55.408Z</time></trkpt><trkpt lat="45.634348" lon="11.4154354"><ele>153.0</ele><time>2026-04-12T08:37:58.407Z</time></trkpt><trkpt lat="45.634348" lon="11.4154354"><ele>153.0</ele><time>2026-04-12T08:37:58.407Z</time></trkpt><trkpt lat="45.634348" lon="11.4154354"><ele>153.0</ele><time>2026-04-12T08:37:58.407Z</time></trkpt></trkseg></trk></gpx>